<?xml version="1.0" encoding="UTF-8" standalone="no" ?>
<gpx xmlns="http://www.topografix.com/GPX/1/1" xmlns:xsi="http://www.w3.org/2001/XMLSchema-instance" xsi:schemaLocation="http://www.topografix.com/GPX/1/1 http://www.topografix.com/GPX/1/1/gpx.xsd" version="1.1" creator="VisuGPX - https://www.visugpx.com">
  <metadata>
    <name>83-D-Thoronet</name>
    <desc><![CDATA[83-D-Thoronet : autour de l'Abbaye]]></desc>
  </metadata>
  <trk>
    <name><![CDATA[2016-10-30-thoronet]]></name>
    <trkseg>
      <trkpt lat="43.46048" lon="6.26105">
        <ele>184.7</ele>
        <time>2016-10-30T07:59:22Z</time>
      </trkpt>
      <trkpt lat="43.46047" lon="6.26104">
        <ele>184.5</ele>
        <time>2016-10-30T07:59:23Z</time>
      </trkpt>
      <trkpt lat="43.46038" lon="6.26105">
        <ele>179.8</ele>
        <time>2016-10-30T07:59:57Z</time>
      </trkpt>
      <trkpt lat="43.46048" lon="6.26102">
        <ele>178.8</ele>
        <time>2016-10-30T08:00:15Z</time>
      </trkpt>
      <trkpt lat="43.46039" lon="6.26104">
        <ele>177.5</ele>
        <time>2016-10-30T08:02:48Z</time>
      </trkpt>
      <trkpt lat="43.46033" lon="6.26114">
        <ele>178.9</ele>
        <time>2016-10-30T08:05:33Z</time>
      </trkpt>
      <trkpt lat="43.46027" lon="6.26125">
        <ele>178.9</ele>
        <time>2016-10-30T08:05:45Z</time>
      </trkpt>
      <trkpt lat="43.4602" lon="6.26133">
        <ele>178.2</ele>
        <time>2016-10-30T08:06:22Z</time>
      </trkpt>
      <trkpt lat="43.46013" lon="6.26142">
        <ele>178.1</ele>
        <time>2016-10-30T08:06:30Z</time>
      </trkpt>
      <trkpt lat="43.4601" lon="6.26154">
        <ele>177.9</ele>
        <time>2016-10-30T08:06:42Z</time>
      </trkpt>
      <trkpt lat="43.46007" lon="6.26167">
        <ele>177.4</ele>
        <time>2016-10-30T08:06:51Z</time>
      </trkpt>
      <trkpt lat="43.46003" lon="6.26178">
        <ele>177.2</ele>
        <time>2016-10-30T08:06:57Z</time>
      </trkpt>
      <trkpt lat="43.46004" lon="6.26191">
        <ele>176.9</ele>
        <time>2016-10-30T08:07:05Z</time>
      </trkpt>
      <trkpt lat="43.46007" lon="6.26203">
        <ele>176.7</ele>
        <time>2016-10-30T08:07:11Z</time>
      </trkpt>
      <trkpt lat="43.46011" lon="6.26214">
        <ele>176.4</ele>
        <time>2016-10-30T08:07:17Z</time>
      </trkpt>
      <trkpt lat="43.46003" lon="6.26222">
        <ele>175.2</ele>
        <time>2016-10-30T08:07:37Z</time>
      </trkpt>
      <trkpt lat="43.45995" lon="6.2623">
        <ele>174.6</ele>
        <time>2016-10-30T08:07:48Z</time>
      </trkpt>
      <trkpt lat="43.45987" lon="6.26238">
        <ele>173.9</ele>
        <time>2016-10-30T08:07:56Z</time>
      </trkpt>
      <trkpt lat="43.45978" lon="6.2624">
        <ele>173.4</ele>
        <time>2016-10-30T08:08:05Z</time>
      </trkpt>
      <trkpt lat="43.45969" lon="6.26244">
        <ele>173.3</ele>
        <time>2016-10-30T08:08:14Z</time>
      </trkpt>
      <trkpt lat="43.45964" lon="6.26255">
        <ele>174</ele>
        <time>2016-10-30T08:08:25Z</time>
      </trkpt>
      <trkpt lat="43.45964" lon="6.26268">
        <ele>175.2</ele>
        <time>2016-10-30T08:08:47Z</time>
      </trkpt>
      <trkpt lat="43.45966" lon="6.26281">
        <ele>175.7</ele>
        <time>2016-10-30T08:09:07Z</time>
      </trkpt>
      <trkpt lat="43.45957" lon="6.26284">
        <ele>176.6</ele>
        <time>2016-10-30T08:09:42Z</time>
      </trkpt>
      <trkpt lat="43.45949" lon="6.26292">
        <ele>178.6</ele>
        <time>2016-10-30T08:09:54Z</time>
      </trkpt>
      <trkpt lat="43.4594" lon="6.26291">
        <ele>180.7</ele>
        <time>2016-10-30T08:10:10Z</time>
      </trkpt>
      <trkpt lat="43.45936" lon="6.26278">
        <ele>183.3</ele>
        <time>2016-10-30T08:10:31Z</time>
      </trkpt>
      <trkpt lat="43.45941" lon="6.26266">
        <ele>184.3</ele>
        <time>2016-10-30T08:10:40Z</time>
      </trkpt>
      <trkpt lat="43.45942" lon="6.26253">
        <ele>185.5</ele>
        <time>2016-10-30T08:10:49Z</time>
      </trkpt>
      <trkpt lat="43.45937" lon="6.26241">
        <ele>186.5</ele>
        <time>2016-10-30T08:10:57Z</time>
      </trkpt>
      <trkpt lat="43.45934" lon="6.26229">
        <ele>187.2</ele>
        <time>2016-10-30T08:11:05Z</time>
      </trkpt>
      <trkpt lat="43.45929" lon="6.26217">
        <ele>187.8</ele>
        <time>2016-10-30T08:11:13Z</time>
      </trkpt>
      <trkpt lat="43.45922" lon="6.26207">
        <ele>188.2</ele>
        <time>2016-10-30T08:11:20Z</time>
      </trkpt>
      <trkpt lat="43.45916" lon="6.26197">
        <ele>188.7</ele>
        <time>2016-10-30T08:11:28Z</time>
      </trkpt>
      <trkpt lat="43.45911" lon="6.26185">
        <ele>189</ele>
        <time>2016-10-30T08:11:36Z</time>
      </trkpt>
      <trkpt lat="43.45905" lon="6.26175">
        <ele>189.4</ele>
        <time>2016-10-30T08:11:44Z</time>
      </trkpt>
      <trkpt lat="43.45898" lon="6.26166">
        <ele>190</ele>
        <time>2016-10-30T08:11:53Z</time>
      </trkpt>
      <trkpt lat="43.45891" lon="6.26158">
        <ele>190.5</ele>
        <time>2016-10-30T08:12:02Z</time>
      </trkpt>
      <trkpt lat="43.45885" lon="6.26148">
        <ele>190.9</ele>
        <time>2016-10-30T08:12:08Z</time>
      </trkpt>
      <trkpt lat="43.45876" lon="6.26142">
        <ele>191.6</ele>
        <time>2016-10-30T08:12:23Z</time>
      </trkpt>
      <trkpt lat="43.45869" lon="6.26135">
        <ele>191.8</ele>
        <time>2016-10-30T08:12:30Z</time>
      </trkpt>
      <trkpt lat="43.45859" lon="6.26131">
        <ele>192</ele>
        <time>2016-10-30T08:12:39Z</time>
      </trkpt>
      <trkpt lat="43.4585" lon="6.26127">
        <ele>192</ele>
        <time>2016-10-30T08:12:45Z</time>
      </trkpt>
      <trkpt lat="43.45842" lon="6.26124">
        <ele>192.1</ele>
        <time>2016-10-30T08:12:49Z</time>
      </trkpt>
      <trkpt lat="43.45833" lon="6.26118">
        <ele>192.2</ele>
        <time>2016-10-30T08:12:56Z</time>
      </trkpt>
      <trkpt lat="43.45824" lon="6.26117">
        <ele>192.5</ele>
        <time>2016-10-30T08:13:04Z</time>
      </trkpt>
      <trkpt lat="43.45814" lon="6.26112">
        <ele>193.1</ele>
        <time>2016-10-30T08:13:11Z</time>
      </trkpt>
      <trkpt lat="43.45805" lon="6.26109">
        <ele>193.6</ele>
        <time>2016-10-30T08:13:18Z</time>
      </trkpt>
      <trkpt lat="43.458" lon="6.26098">
        <ele>194.6</ele>
        <time>2016-10-30T08:13:39Z</time>
      </trkpt>
      <trkpt lat="43.45791" lon="6.26093">
        <ele>195.1</ele>
        <time>2016-10-30T08:13:47Z</time>
      </trkpt>
      <trkpt lat="43.4578" lon="6.26093">
        <ele>196.5</ele>
        <time>2016-10-30T08:14:03Z</time>
      </trkpt>
      <trkpt lat="43.45772" lon="6.26088">
        <ele>197.6</ele>
        <time>2016-10-30T08:14:11Z</time>
      </trkpt>
      <trkpt lat="43.45763" lon="6.26085">
        <ele>199</ele>
        <time>2016-10-30T08:14:22Z</time>
      </trkpt>
      <trkpt lat="43.45754" lon="6.26082">
        <ele>200.6</ele>
        <time>2016-10-30T08:14:33Z</time>
      </trkpt>
      <trkpt lat="43.45745" lon="6.26083">
        <ele>201.8</ele>
        <time>2016-10-30T08:14:43Z</time>
      </trkpt>
      <trkpt lat="43.45735" lon="6.26076">
        <ele>204.4</ele>
        <time>2016-10-30T08:15:01Z</time>
      </trkpt>
      <trkpt lat="43.45726" lon="6.26074">
        <ele>206.5</ele>
        <time>2016-10-30T08:15:14Z</time>
      </trkpt>
      <trkpt lat="43.45716" lon="6.26071">
        <ele>208.3</ele>
        <time>2016-10-30T08:15:27Z</time>
      </trkpt>
      <trkpt lat="43.45707" lon="6.26068">
        <ele>209.1</ele>
        <time>2016-10-30T08:15:34Z</time>
      </trkpt>
      <trkpt lat="43.45697" lon="6.26067">
        <ele>210.1</ele>
        <time>2016-10-30T08:15:42Z</time>
      </trkpt>
      <trkpt lat="43.45687" lon="6.26066">
        <ele>211</ele>
        <time>2016-10-30T08:15:51Z</time>
      </trkpt>
      <trkpt lat="43.45677" lon="6.26066">
        <ele>212.2</ele>
        <time>2016-10-30T08:16:01Z</time>
      </trkpt>
      <trkpt lat="43.45668" lon="6.26062">
        <ele>213.3</ele>
        <time>2016-10-30T08:16:09Z</time>
      </trkpt>
      <trkpt lat="43.45659" lon="6.26063">
        <ele>214.2</ele>
        <time>2016-10-30T08:16:18Z</time>
      </trkpt>
      <trkpt lat="43.4565" lon="6.26066">
        <ele>215.1</ele>
        <time>2016-10-30T08:16:28Z</time>
      </trkpt>
      <trkpt lat="43.45639" lon="6.26066">
        <ele>216</ele>
        <time>2016-10-30T08:16:38Z</time>
      </trkpt>
      <trkpt lat="43.4563" lon="6.26068">
        <ele>217</ele>
        <time>2016-10-30T08:16:50Z</time>
      </trkpt>
      <trkpt lat="43.4562" lon="6.26068">
        <ele>217.8</ele>
        <time>2016-10-30T08:17:02Z</time>
      </trkpt>
      <trkpt lat="43.45612" lon="6.26062">
        <ele>218.6</ele>
        <time>2016-10-30T08:17:10Z</time>
      </trkpt>
      <trkpt lat="43.45604" lon="6.26055">
        <ele>219.4</ele>
        <time>2016-10-30T08:17:21Z</time>
      </trkpt>
      <trkpt lat="43.45595" lon="6.26052">
        <ele>220</ele>
        <time>2016-10-30T08:17:31Z</time>
      </trkpt>
      <trkpt lat="43.45586" lon="6.2605">
        <ele>220.5</ele>
        <time>2016-10-30T08:17:39Z</time>
      </trkpt>
      <trkpt lat="43.45576" lon="6.26047">
        <ele>221</ele>
        <time>2016-10-30T08:17:47Z</time>
      </trkpt>
      <trkpt lat="43.45568" lon="6.2604">
        <ele>221.8</ele>
        <time>2016-10-30T08:17:58Z</time>
      </trkpt>
      <trkpt lat="43.45558" lon="6.26037">
        <ele>222.5</ele>
        <time>2016-10-30T08:18:06Z</time>
      </trkpt>
      <trkpt lat="43.45549" lon="6.26034">
        <ele>223.5</ele>
        <time>2016-10-30T08:18:14Z</time>
      </trkpt>
      <trkpt lat="43.4554" lon="6.26031">
        <ele>224.4</ele>
        <time>2016-10-30T08:18:22Z</time>
      </trkpt>
      <trkpt lat="43.45531" lon="6.26029">
        <ele>225.4</ele>
        <time>2016-10-30T08:18:33Z</time>
      </trkpt>
      <trkpt lat="43.45521" lon="6.26026">
        <ele>226.8</ele>
        <time>2016-10-30T08:18:45Z</time>
      </trkpt>
      <trkpt lat="43.45512" lon="6.26022">
        <ele>227.9</ele>
        <time>2016-10-30T08:18:55Z</time>
      </trkpt>
      <trkpt lat="43.45504" lon="6.26016">
        <ele>229.1</ele>
        <time>2016-10-30T08:19:05Z</time>
      </trkpt>
      <trkpt lat="43.45494" lon="6.26013">
        <ele>230.7</ele>
        <time>2016-10-30T08:19:17Z</time>
      </trkpt>
      <trkpt lat="43.45486" lon="6.26008">
        <ele>231.7</ele>
        <time>2016-10-30T08:19:26Z</time>
      </trkpt>
      <trkpt lat="43.45476" lon="6.26005">
        <ele>233</ele>
        <time>2016-10-30T08:19:36Z</time>
      </trkpt>
      <trkpt lat="43.45468" lon="6.26003">
        <ele>234</ele>
        <time>2016-10-30T08:19:45Z</time>
      </trkpt>
      <trkpt lat="43.45458" lon="6.25998">
        <ele>235.1</ele>
        <time>2016-10-30T08:19:56Z</time>
      </trkpt>
      <trkpt lat="43.45449" lon="6.25997">
        <ele>236.1</ele>
        <time>2016-10-30T08:20:05Z</time>
      </trkpt>
      <trkpt lat="43.4544" lon="6.25994">
        <ele>236.8</ele>
        <time>2016-10-30T08:20:16Z</time>
      </trkpt>
      <trkpt lat="43.45431" lon="6.25989">
        <ele>237.4</ele>
        <time>2016-10-30T08:20:27Z</time>
      </trkpt>
      <trkpt lat="43.45424" lon="6.2598">
        <ele>238.2</ele>
        <time>2016-10-30T08:20:38Z</time>
      </trkpt>
      <trkpt lat="43.45417" lon="6.25972">
        <ele>238.5</ele>
        <time>2016-10-30T08:20:44Z</time>
      </trkpt>
      <trkpt lat="43.4541" lon="6.25961">
        <ele>239</ele>
        <time>2016-10-30T08:20:50Z</time>
      </trkpt>
      <trkpt lat="43.45403" lon="6.25953">
        <ele>239.6</ele>
        <time>2016-10-30T08:20:57Z</time>
      </trkpt>
      <trkpt lat="43.45401" lon="6.25941">
        <ele>240.9</ele>
        <time>2016-10-30T08:21:13Z</time>
      </trkpt>
      <trkpt lat="43.45393" lon="6.25934">
        <ele>241.4</ele>
        <time>2016-10-30T08:21:21Z</time>
      </trkpt>
      <trkpt lat="43.45386" lon="6.25927">
        <ele>242.1</ele>
        <time>2016-10-30T08:21:28Z</time>
      </trkpt>
      <trkpt lat="43.45378" lon="6.2592">
        <ele>242.7</ele>
        <time>2016-10-30T08:21:38Z</time>
      </trkpt>
      <trkpt lat="43.4537" lon="6.25911">
        <ele>243.3</ele>
        <time>2016-10-30T08:21:47Z</time>
      </trkpt>
      <trkpt lat="43.45362" lon="6.25904">
        <ele>244</ele>
        <time>2016-10-30T08:21:56Z</time>
      </trkpt>
      <trkpt lat="43.45354" lon="6.25897">
        <ele>244.8</ele>
        <time>2016-10-30T08:22:05Z</time>
      </trkpt>
      <trkpt lat="43.45346" lon="6.25889">
        <ele>245.5</ele>
        <time>2016-10-30T08:22:15Z</time>
      </trkpt>
      <trkpt lat="43.45338" lon="6.25882">
        <ele>246.2</ele>
        <time>2016-10-30T08:22:26Z</time>
      </trkpt>
      <trkpt lat="43.45333" lon="6.25872">
        <ele>247</ele>
        <time>2016-10-30T08:22:39Z</time>
      </trkpt>
      <trkpt lat="43.45327" lon="6.25883">
        <ele>248.6</ele>
        <time>2016-10-30T08:23:38Z</time>
      </trkpt>
      <trkpt lat="43.45322" lon="6.25893">
        <ele>248.6</ele>
        <time>2016-10-30T08:23:55Z</time>
      </trkpt>
      <trkpt lat="43.45327" lon="6.25882">
        <ele>248.5</ele>
        <time>2016-10-30T08:25:08Z</time>
      </trkpt>
      <trkpt lat="43.4532" lon="6.25872">
        <ele>247.5</ele>
        <time>2016-10-30T08:29:03Z</time>
      </trkpt>
      <trkpt lat="43.45313" lon="6.25863">
        <ele>247.7</ele>
        <time>2016-10-30T08:29:11Z</time>
      </trkpt>
      <trkpt lat="43.45306" lon="6.25855">
        <ele>248</ele>
        <time>2016-10-30T08:29:19Z</time>
      </trkpt>
      <trkpt lat="43.45299" lon="6.25846">
        <ele>248.3</ele>
        <time>2016-10-30T08:29:27Z</time>
      </trkpt>
      <trkpt lat="43.45294" lon="6.25836">
        <ele>248.7</ele>
        <time>2016-10-30T08:29:35Z</time>
      </trkpt>
      <trkpt lat="43.45289" lon="6.25824">
        <ele>249.4</ele>
        <time>2016-10-30T08:29:44Z</time>
      </trkpt>
      <trkpt lat="43.45287" lon="6.25811">
        <ele>250.2</ele>
        <time>2016-10-30T08:29:53Z</time>
      </trkpt>
      <trkpt lat="43.45285" lon="6.25798">
        <ele>250.9</ele>
        <time>2016-10-30T08:30:02Z</time>
      </trkpt>
      <trkpt lat="43.45284" lon="6.25784">
        <ele>251.8</ele>
        <time>2016-10-30T08:30:12Z</time>
      </trkpt>
      <trkpt lat="43.45282" lon="6.25772">
        <ele>252.3</ele>
        <time>2016-10-30T08:30:21Z</time>
      </trkpt>
      <trkpt lat="43.4528" lon="6.2576">
        <ele>252.8</ele>
        <time>2016-10-30T08:30:36Z</time>
      </trkpt>
      <trkpt lat="43.45278" lon="6.25746">
        <ele>253.2</ele>
        <time>2016-10-30T08:30:44Z</time>
      </trkpt>
      <trkpt lat="43.45279" lon="6.25732">
        <ele>253.8</ele>
        <time>2016-10-30T08:30:52Z</time>
      </trkpt>
      <trkpt lat="43.4528" lon="6.25719">
        <ele>254.2</ele>
        <time>2016-10-30T08:31:01Z</time>
      </trkpt>
      <trkpt lat="43.45283" lon="6.25706">
        <ele>254.5</ele>
        <time>2016-10-30T08:31:11Z</time>
      </trkpt>
      <trkpt lat="43.45286" lon="6.25694">
        <ele>254.6</ele>
        <time>2016-10-30T08:31:24Z</time>
      </trkpt>
      <trkpt lat="43.45292" lon="6.25684">
        <ele>254.2</ele>
        <time>2016-10-30T08:31:37Z</time>
      </trkpt>
      <trkpt lat="43.45295" lon="6.25672">
        <ele>253.6</ele>
        <time>2016-10-30T08:31:47Z</time>
      </trkpt>
      <trkpt lat="43.453" lon="6.25661">
        <ele>252.7</ele>
        <time>2016-10-30T08:31:56Z</time>
      </trkpt>
      <trkpt lat="43.45304" lon="6.2565">
        <ele>251.5</ele>
        <time>2016-10-30T08:32:05Z</time>
      </trkpt>
      <trkpt lat="43.45306" lon="6.25637">
        <ele>250.9</ele>
        <time>2016-10-30T08:32:38Z</time>
      </trkpt>
      <trkpt lat="43.4531" lon="6.25624">
        <ele>251</ele>
        <time>2016-10-30T08:32:51Z</time>
      </trkpt>
      <trkpt lat="43.4531" lon="6.25611">
        <ele>251.7</ele>
        <time>2016-10-30T08:33:02Z</time>
      </trkpt>
      <trkpt lat="43.45315" lon="6.256">
        <ele>252.9</ele>
        <time>2016-10-30T08:33:13Z</time>
      </trkpt>
      <trkpt lat="43.45315" lon="6.25588">
        <ele>254.5</ele>
        <time>2016-10-30T08:33:29Z</time>
      </trkpt>
      <trkpt lat="43.45306" lon="6.25589">
        <ele>258.5</ele>
        <time>2016-10-30T08:34:03Z</time>
      </trkpt>
      <trkpt lat="43.45313" lon="6.25597">
        <ele>260.8</ele>
        <time>2016-10-30T08:34:24Z</time>
      </trkpt>
      <trkpt lat="43.45322" lon="6.25602">
        <ele>261.8</ele>
        <time>2016-10-30T08:35:24Z</time>
      </trkpt>
      <trkpt lat="43.45331" lon="6.256">
        <ele>262</ele>
        <time>2016-10-30T08:35:35Z</time>
      </trkpt>
      <trkpt lat="43.45339" lon="6.25594">
        <ele>262.1</ele>
        <time>2016-10-30T08:35:54Z</time>
      </trkpt>
      <trkpt lat="43.4533" lon="6.25596">
        <ele>262.1</ele>
        <time>2016-10-30T08:36:22Z</time>
      </trkpt>
      <trkpt lat="43.45321" lon="6.25596">
        <ele>262.1</ele>
        <time>2016-10-30T08:36:44Z</time>
      </trkpt>
      <trkpt lat="43.4531" lon="6.25593">
        <ele>262</ele>
        <time>2016-10-30T08:37:12Z</time>
      </trkpt>
      <trkpt lat="43.45301" lon="6.25593">
        <ele>262.3</ele>
        <time>2016-10-30T08:37:19Z</time>
      </trkpt>
      <trkpt lat="43.45292" lon="6.25598">
        <ele>263.6</ele>
        <time>2016-10-30T08:37:32Z</time>
      </trkpt>
      <trkpt lat="43.45283" lon="6.25602">
        <ele>265.6</ele>
        <time>2016-10-30T08:37:47Z</time>
      </trkpt>
      <trkpt lat="43.45274" lon="6.25604">
        <ele>268.4</ele>
        <time>2016-10-30T08:38:02Z</time>
      </trkpt>
      <trkpt lat="43.45266" lon="6.2561">
        <ele>270.1</ele>
        <time>2016-10-30T08:38:13Z</time>
      </trkpt>
      <trkpt lat="43.45257" lon="6.25615">
        <ele>271.5</ele>
        <time>2016-10-30T08:38:23Z</time>
      </trkpt>
      <trkpt lat="43.45248" lon="6.25613">
        <ele>273.2</ele>
        <time>2016-10-30T08:38:39Z</time>
      </trkpt>
      <trkpt lat="43.45239" lon="6.25608">
        <ele>275.6</ele>
        <time>2016-10-30T08:38:58Z</time>
      </trkpt>
      <trkpt lat="43.45232" lon="6.25601">
        <ele>277.7</ele>
        <time>2016-10-30T08:39:13Z</time>
      </trkpt>
      <trkpt lat="43.45223" lon="6.25597">
        <ele>279.1</ele>
        <time>2016-10-30T08:39:23Z</time>
      </trkpt>
      <trkpt lat="43.45214" lon="6.25592">
        <ele>280.6</ele>
        <time>2016-10-30T08:39:35Z</time>
      </trkpt>
      <trkpt lat="43.45206" lon="6.25586">
        <ele>283.6</ele>
        <time>2016-10-30T08:39:56Z</time>
      </trkpt>
      <trkpt lat="43.45198" lon="6.25579">
        <ele>285</ele>
        <time>2016-10-30T08:40:05Z</time>
      </trkpt>
      <trkpt lat="43.4519" lon="6.25573">
        <ele>286.4</ele>
        <time>2016-10-30T08:40:16Z</time>
      </trkpt>
      <trkpt lat="43.45181" lon="6.25571">
        <ele>289</ele>
        <time>2016-10-30T08:40:35Z</time>
      </trkpt>
      <trkpt lat="43.45172" lon="6.25568">
        <ele>291.3</ele>
        <time>2016-10-30T08:40:53Z</time>
      </trkpt>
      <trkpt lat="43.45164" lon="6.25562">
        <ele>293.6</ele>
        <time>2016-10-30T08:41:12Z</time>
      </trkpt>
      <trkpt lat="43.45157" lon="6.25553">
        <ele>296.6</ele>
        <time>2016-10-30T08:45:50Z</time>
      </trkpt>
      <trkpt lat="43.45161" lon="6.25542">
        <ele>296.8</ele>
        <time>2016-10-30T08:47:59Z</time>
      </trkpt>
      <trkpt lat="43.45163" lon="6.2553">
        <ele>297.9</ele>
        <time>2016-10-30T08:48:17Z</time>
      </trkpt>
      <trkpt lat="43.45163" lon="6.25517">
        <ele>299</ele>
        <time>2016-10-30T08:48:30Z</time>
      </trkpt>
      <trkpt lat="43.45164" lon="6.25504">
        <ele>300</ele>
        <time>2016-10-30T08:48:41Z</time>
      </trkpt>
      <trkpt lat="43.45163" lon="6.25491">
        <ele>300.6</ele>
        <time>2016-10-30T08:48:52Z</time>
      </trkpt>
      <trkpt lat="43.45163" lon="6.25478">
        <ele>301.1</ele>
        <time>2016-10-30T08:49:02Z</time>
      </trkpt>
      <trkpt lat="43.45162" lon="6.25466">
        <ele>302</ele>
        <time>2016-10-30T08:49:33Z</time>
      </trkpt>
      <trkpt lat="43.45164" lon="6.25453">
        <ele>302.2</ele>
        <time>2016-10-30T08:49:47Z</time>
      </trkpt>
      <trkpt lat="43.45164" lon="6.2544">
        <ele>302.2</ele>
        <time>2016-10-30T08:50:01Z</time>
      </trkpt>
      <trkpt lat="43.45163" lon="6.25428">
        <ele>301.4</ele>
        <time>2016-10-30T08:50:21Z</time>
      </trkpt>
      <trkpt lat="43.45158" lon="6.25416">
        <ele>299.8</ele>
        <time>2016-10-30T08:50:36Z</time>
      </trkpt>
      <trkpt lat="43.45153" lon="6.25406">
        <ele>297.3</ele>
        <time>2016-10-30T08:50:57Z</time>
      </trkpt>
      <trkpt lat="43.45149" lon="6.25395">
        <ele>295.7</ele>
        <time>2016-10-30T08:51:12Z</time>
      </trkpt>
      <trkpt lat="43.45146" lon="6.25383">
        <ele>293.2</ele>
        <time>2016-10-30T08:51:32Z</time>
      </trkpt>
      <trkpt lat="43.45143" lon="6.25371">
        <ele>290.8</ele>
        <time>2016-10-30T08:51:54Z</time>
      </trkpt>
      <trkpt lat="43.4514" lon="6.25359">
        <ele>287.7</ele>
        <time>2016-10-30T08:52:17Z</time>
      </trkpt>
      <trkpt lat="43.45139" lon="6.25347">
        <ele>284.7</ele>
        <time>2016-10-30T08:52:56Z</time>
      </trkpt>
      <trkpt lat="43.45139" lon="6.25334">
        <ele>282.4</ele>
        <time>2016-10-30T08:53:20Z</time>
      </trkpt>
      <trkpt lat="43.45142" lon="6.25321">
        <ele>278.4</ele>
        <time>2016-10-30T08:55:32Z</time>
      </trkpt>
      <trkpt lat="43.45149" lon="6.25311">
        <ele>278.2</ele>
        <time>2016-10-30T08:55:47Z</time>
      </trkpt>
      <trkpt lat="43.45154" lon="6.253">
        <ele>278</ele>
        <time>2016-10-30T08:55:57Z</time>
      </trkpt>
      <trkpt lat="43.45152" lon="6.25287">
        <ele>277.6</ele>
        <time>2016-10-30T08:56:06Z</time>
      </trkpt>
      <trkpt lat="43.45152" lon="6.25273">
        <ele>277.3</ele>
        <time>2016-10-30T08:56:15Z</time>
      </trkpt>
      <trkpt lat="43.4515" lon="6.25261">
        <ele>277.3</ele>
        <time>2016-10-30T08:56:23Z</time>
      </trkpt>
      <trkpt lat="43.45149" lon="6.25248">
        <ele>277.3</ele>
        <time>2016-10-30T08:56:32Z</time>
      </trkpt>
      <trkpt lat="43.4515" lon="6.25236">
        <ele>277.4</ele>
        <time>2016-10-30T08:56:43Z</time>
      </trkpt>
      <trkpt lat="43.45155" lon="6.25223">
        <ele>277.4</ele>
        <time>2016-10-30T08:56:55Z</time>
      </trkpt>
      <trkpt lat="43.45161" lon="6.25213">
        <ele>277.1</ele>
        <time>2016-10-30T08:57:05Z</time>
      </trkpt>
      <trkpt lat="43.45165" lon="6.25201">
        <ele>276.7</ele>
        <time>2016-10-30T08:57:15Z</time>
      </trkpt>
      <trkpt lat="43.45167" lon="6.25189">
        <ele>276.3</ele>
        <time>2016-10-30T08:57:24Z</time>
      </trkpt>
      <trkpt lat="43.4517" lon="6.25177">
        <ele>275.9</ele>
        <time>2016-10-30T08:57:35Z</time>
      </trkpt>
      <trkpt lat="43.45168" lon="6.25164">
        <ele>275.6</ele>
        <time>2016-10-30T08:57:47Z</time>
      </trkpt>
      <trkpt lat="43.45169" lon="6.25151">
        <ele>275.5</ele>
        <time>2016-10-30T08:57:56Z</time>
      </trkpt>
      <trkpt lat="43.45171" lon="6.25138">
        <ele>274.8</ele>
        <time>2016-10-30T08:58:07Z</time>
      </trkpt>
      <trkpt lat="43.45172" lon="6.25125">
        <ele>274.1</ele>
        <time>2016-10-30T08:58:17Z</time>
      </trkpt>
      <trkpt lat="43.45167" lon="6.25114">
        <ele>273.6</ele>
        <time>2016-10-30T08:58:28Z</time>
      </trkpt>
      <trkpt lat="43.45163" lon="6.25101">
        <ele>273</ele>
        <time>2016-10-30T08:58:39Z</time>
      </trkpt>
      <trkpt lat="43.45161" lon="6.25088">
        <ele>272.5</ele>
        <time>2016-10-30T08:58:50Z</time>
      </trkpt>
      <trkpt lat="43.45159" lon="6.25075">
        <ele>271.7</ele>
        <time>2016-10-30T08:59:01Z</time>
      </trkpt>
      <trkpt lat="43.45158" lon="6.25061">
        <ele>271.2</ele>
        <time>2016-10-30T08:59:09Z</time>
      </trkpt>
      <trkpt lat="43.45157" lon="6.25048">
        <ele>270.8</ele>
        <time>2016-10-30T08:59:18Z</time>
      </trkpt>
      <trkpt lat="43.45154" lon="6.25035">
        <ele>270.5</ele>
        <time>2016-10-30T08:59:28Z</time>
      </trkpt>
      <trkpt lat="43.45151" lon="6.25022">
        <ele>270.1</ele>
        <time>2016-10-30T08:59:38Z</time>
      </trkpt>
      <trkpt lat="43.45147" lon="6.25011">
        <ele>269.9</ele>
        <time>2016-10-30T08:59:48Z</time>
      </trkpt>
      <trkpt lat="43.45144" lon="6.24999">
        <ele>269.6</ele>
        <time>2016-10-30T08:59:57Z</time>
      </trkpt>
      <trkpt lat="43.45142" lon="6.24986">
        <ele>269</ele>
        <time>2016-10-30T09:00:07Z</time>
      </trkpt>
      <trkpt lat="43.45139" lon="6.24974">
        <ele>268.5</ele>
        <time>2016-10-30T09:00:17Z</time>
      </trkpt>
      <trkpt lat="43.4514" lon="6.2496">
        <ele>268</ele>
        <time>2016-10-30T09:00:26Z</time>
      </trkpt>
      <trkpt lat="43.45141" lon="6.24947">
        <ele>267.5</ele>
        <time>2016-10-30T09:00:35Z</time>
      </trkpt>
      <trkpt lat="43.45142" lon="6.24934">
        <ele>266.8</ele>
        <time>2016-10-30T09:00:48Z</time>
      </trkpt>
      <trkpt lat="43.45144" lon="6.24922">
        <ele>265.9</ele>
        <time>2016-10-30T09:00:59Z</time>
      </trkpt>
      <trkpt lat="43.45144" lon="6.24909">
        <ele>265.1</ele>
        <time>2016-10-30T09:01:09Z</time>
      </trkpt>
      <trkpt lat="43.4514" lon="6.24896">
        <ele>264.2</ele>
        <time>2016-10-30T09:01:22Z</time>
      </trkpt>
      <trkpt lat="43.45138" lon="6.24884">
        <ele>263.6</ele>
        <time>2016-10-30T09:01:33Z</time>
      </trkpt>
      <trkpt lat="43.45137" lon="6.24872">
        <ele>262.5</ele>
        <time>2016-10-30T09:01:45Z</time>
      </trkpt>
      <trkpt lat="43.45136" lon="6.24859">
        <ele>261.3</ele>
        <time>2016-10-30T09:01:59Z</time>
      </trkpt>
      <trkpt lat="43.45133" lon="6.24847">
        <ele>260.6</ele>
        <time>2016-10-30T09:02:09Z</time>
      </trkpt>
      <trkpt lat="43.45133" lon="6.24833">
        <ele>260</ele>
        <time>2016-10-30T09:02:19Z</time>
      </trkpt>
      <trkpt lat="43.45127" lon="6.24823">
        <ele>259.5</ele>
        <time>2016-10-30T09:02:27Z</time>
      </trkpt>
      <trkpt lat="43.45122" lon="6.24812">
        <ele>258.7</ele>
        <time>2016-10-30T09:02:38Z</time>
      </trkpt>
      <trkpt lat="43.45119" lon="6.248">
        <ele>258.3</ele>
        <time>2016-10-30T09:02:46Z</time>
      </trkpt>
      <trkpt lat="43.45116" lon="6.24787">
        <ele>257.5</ele>
        <time>2016-10-30T09:02:58Z</time>
      </trkpt>
      <trkpt lat="43.45109" lon="6.24777">
        <ele>257.2</ele>
        <time>2016-10-30T09:03:05Z</time>
      </trkpt>
      <trkpt lat="43.45103" lon="6.24767">
        <ele>257</ele>
        <time>2016-10-30T09:03:11Z</time>
      </trkpt>
      <trkpt lat="43.45098" lon="6.24756">
        <ele>256.8</ele>
        <time>2016-10-30T09:03:16Z</time>
      </trkpt>
      <trkpt lat="43.45092" lon="6.24746">
        <ele>256.5</ele>
        <time>2016-10-30T09:03:26Z</time>
      </trkpt>
      <trkpt lat="43.45101" lon="6.24748">
        <ele>254.5</ele>
        <time>2016-10-30T09:05:46Z</time>
      </trkpt>
      <trkpt lat="43.45102" lon="6.24735">
        <ele>254.2</ele>
        <time>2016-10-30T09:07:14Z</time>
      </trkpt>
      <trkpt lat="43.45099" lon="6.24722">
        <ele>254.2</ele>
        <time>2016-10-30T09:07:29Z</time>
      </trkpt>
      <trkpt lat="43.45094" lon="6.24712">
        <ele>254</ele>
        <time>2016-10-30T09:07:38Z</time>
      </trkpt>
      <trkpt lat="43.45088" lon="6.24701">
        <ele>253.8</ele>
        <time>2016-10-30T09:07:46Z</time>
      </trkpt>
      <trkpt lat="43.45085" lon="6.24689">
        <ele>253.6</ele>
        <time>2016-10-30T09:07:55Z</time>
      </trkpt>
      <trkpt lat="43.45079" lon="6.24678">
        <ele>253.1</ele>
        <time>2016-10-30T09:08:06Z</time>
      </trkpt>
      <trkpt lat="43.45072" lon="6.2467">
        <ele>252.9</ele>
        <time>2016-10-30T09:08:16Z</time>
      </trkpt>
      <trkpt lat="43.45065" lon="6.24661">
        <ele>252.6</ele>
        <time>2016-10-30T09:08:24Z</time>
      </trkpt>
      <trkpt lat="43.4506" lon="6.24649">
        <ele>252.1</ele>
        <time>2016-10-30T09:08:35Z</time>
      </trkpt>
      <trkpt lat="43.45055" lon="6.24639">
        <ele>251.9</ele>
        <time>2016-10-30T09:08:44Z</time>
      </trkpt>
      <trkpt lat="43.45052" lon="6.24626">
        <ele>252.2</ele>
        <time>2016-10-30T09:08:57Z</time>
      </trkpt>
      <trkpt lat="43.45057" lon="6.24616">
        <ele>252.4</ele>
        <time>2016-10-30T09:09:09Z</time>
      </trkpt>
      <trkpt lat="43.45056" lon="6.24603">
        <ele>252.4</ele>
        <time>2016-10-30T09:09:18Z</time>
      </trkpt>
      <trkpt lat="43.45054" lon="6.2459">
        <ele>252.1</ele>
        <time>2016-10-30T09:09:27Z</time>
      </trkpt>
      <trkpt lat="43.4505" lon="6.24579">
        <ele>251.6</ele>
        <time>2016-10-30T09:09:34Z</time>
      </trkpt>
      <trkpt lat="43.45044" lon="6.24569">
        <ele>251.2</ele>
        <time>2016-10-30T09:09:42Z</time>
      </trkpt>
      <trkpt lat="43.45035" lon="6.24563">
        <ele>251</ele>
        <time>2016-10-30T09:09:49Z</time>
      </trkpt>
      <trkpt lat="43.45027" lon="6.2456">
        <ele>250.7</ele>
        <time>2016-10-30T09:09:56Z</time>
      </trkpt>
      <trkpt lat="43.45019" lon="6.24554">
        <ele>250.4</ele>
        <time>2016-10-30T09:10:09Z</time>
      </trkpt>
      <trkpt lat="43.45009" lon="6.24553">
        <ele>250.3</ele>
        <time>2016-10-30T09:10:17Z</time>
      </trkpt>
      <trkpt lat="43.45001" lon="6.24548">
        <ele>250.2</ele>
        <time>2016-10-30T09:10:25Z</time>
      </trkpt>
      <trkpt lat="43.44992" lon="6.24542">
        <ele>250.2</ele>
        <time>2016-10-30T09:10:34Z</time>
      </trkpt>
      <trkpt lat="43.44984" lon="6.24535">
        <ele>250.2</ele>
        <time>2016-10-30T09:10:44Z</time>
      </trkpt>
      <trkpt lat="43.44981" lon="6.24522">
        <ele>249.8</ele>
        <time>2016-10-30T09:10:54Z</time>
      </trkpt>
      <trkpt lat="43.44979" lon="6.2451">
        <ele>249.2</ele>
        <time>2016-10-30T09:11:03Z</time>
      </trkpt>
      <trkpt lat="43.44978" lon="6.24498">
        <ele>248.7</ele>
        <time>2016-10-30T09:11:13Z</time>
      </trkpt>
      <trkpt lat="43.44979" lon="6.24484">
        <ele>248.2</ele>
        <time>2016-10-30T09:11:25Z</time>
      </trkpt>
      <trkpt lat="43.44981" lon="6.24471">
        <ele>247.7</ele>
        <time>2016-10-30T09:11:34Z</time>
      </trkpt>
      <trkpt lat="43.44981" lon="6.24458">
        <ele>247.1</ele>
        <time>2016-10-30T09:11:45Z</time>
      </trkpt>
      <trkpt lat="43.44981" lon="6.24445">
        <ele>246.6</ele>
        <time>2016-10-30T09:11:55Z</time>
      </trkpt>
      <trkpt lat="43.4498" lon="6.24432">
        <ele>245.9</ele>
        <time>2016-10-30T09:12:07Z</time>
      </trkpt>
      <trkpt lat="43.4498" lon="6.2442">
        <ele>245.3</ele>
        <time>2016-10-30T09:12:19Z</time>
      </trkpt>
      <trkpt lat="43.44976" lon="6.24408">
        <ele>244.7</ele>
        <time>2016-10-30T09:12:30Z</time>
      </trkpt>
      <trkpt lat="43.44971" lon="6.24396">
        <ele>244.3</ele>
        <time>2016-10-30T09:12:39Z</time>
      </trkpt>
      <trkpt lat="43.44968" lon="6.24384">
        <ele>244</ele>
        <time>2016-10-30T09:12:48Z</time>
      </trkpt>
      <trkpt lat="43.44961" lon="6.24376">
        <ele>243.8</ele>
        <time>2016-10-30T09:12:58Z</time>
      </trkpt>
      <trkpt lat="43.44963" lon="6.24363">
        <ele>243.8</ele>
        <time>2016-10-30T09:13:21Z</time>
      </trkpt>
      <trkpt lat="43.44956" lon="6.24353">
        <ele>243.9</ele>
        <time>2016-10-30T09:13:34Z</time>
      </trkpt>
      <trkpt lat="43.4495" lon="6.24343">
        <ele>242.5</ele>
        <time>2016-10-30T09:14:46Z</time>
      </trkpt>
      <trkpt lat="43.44947" lon="6.24331">
        <ele>241.9</ele>
        <time>2016-10-30T09:15:17Z</time>
      </trkpt>
      <trkpt lat="43.44944" lon="6.24318">
        <ele>241.6</ele>
        <time>2016-10-30T09:15:28Z</time>
      </trkpt>
      <trkpt lat="43.44938" lon="6.24309">
        <ele>241.1</ele>
        <time>2016-10-30T09:15:36Z</time>
      </trkpt>
      <trkpt lat="43.44938" lon="6.24296">
        <ele>239.9</ele>
        <time>2016-10-30T09:15:49Z</time>
      </trkpt>
      <trkpt lat="43.44934" lon="6.24284">
        <ele>239.4</ele>
        <time>2016-10-30T09:15:58Z</time>
      </trkpt>
      <trkpt lat="43.44928" lon="6.24273">
        <ele>238.8</ele>
        <time>2016-10-30T09:16:07Z</time>
      </trkpt>
      <trkpt lat="43.44923" lon="6.24263">
        <ele>238.4</ele>
        <time>2016-10-30T09:16:15Z</time>
      </trkpt>
      <trkpt lat="43.44918" lon="6.24251">
        <ele>238</ele>
        <time>2016-10-30T09:16:24Z</time>
      </trkpt>
      <trkpt lat="43.44914" lon="6.24238">
        <ele>237.4</ele>
        <time>2016-10-30T09:16:35Z</time>
      </trkpt>
      <trkpt lat="43.44911" lon="6.24226">
        <ele>237</ele>
        <time>2016-10-30T09:16:44Z</time>
      </trkpt>
      <trkpt lat="43.44907" lon="6.24214">
        <ele>236.9</ele>
        <time>2016-10-30T09:16:54Z</time>
      </trkpt>
      <trkpt lat="43.44904" lon="6.24202">
        <ele>236.7</ele>
        <time>2016-10-30T09:17:04Z</time>
      </trkpt>
      <trkpt lat="43.44902" lon="6.24189">
        <ele>236</ele>
        <time>2016-10-30T09:17:13Z</time>
      </trkpt>
      <trkpt lat="43.44894" lon="6.24182">
        <ele>234.9</ele>
        <time>2016-10-30T09:17:33Z</time>
      </trkpt>
      <trkpt lat="43.44886" lon="6.24176">
        <ele>234.4</ele>
        <time>2016-10-30T09:18:07Z</time>
      </trkpt>
      <trkpt lat="43.44878" lon="6.24173">
        <ele>234.4</ele>
        <time>2016-10-30T09:18:23Z</time>
      </trkpt>
      <trkpt lat="43.4487" lon="6.24166">
        <ele>234.1</ele>
        <time>2016-10-30T09:18:35Z</time>
      </trkpt>
      <trkpt lat="43.44864" lon="6.24156">
        <ele>233.5</ele>
        <time>2016-10-30T09:18:49Z</time>
      </trkpt>
      <trkpt lat="43.44862" lon="6.24143">
        <ele>233.5</ele>
        <time>2016-10-30T09:18:59Z</time>
      </trkpt>
      <trkpt lat="43.44859" lon="6.24131">
        <ele>233.6</ele>
        <time>2016-10-30T09:19:11Z</time>
      </trkpt>
      <trkpt lat="43.44856" lon="6.24118">
        <ele>234.2</ele>
        <time>2016-10-30T09:19:23Z</time>
      </trkpt>
      <trkpt lat="43.44851" lon="6.24106">
        <ele>234.4</ele>
        <time>2016-10-30T09:19:33Z</time>
      </trkpt>
      <trkpt lat="43.44844" lon="6.24098">
        <ele>234.5</ele>
        <time>2016-10-30T09:19:40Z</time>
      </trkpt>
      <trkpt lat="43.44843" lon="6.24086">
        <ele>234.8</ele>
        <time>2016-10-30T09:19:51Z</time>
      </trkpt>
      <trkpt lat="43.44841" lon="6.24072">
        <ele>235.1</ele>
        <time>2016-10-30T09:20:02Z</time>
      </trkpt>
      <trkpt lat="43.44836" lon="6.24061">
        <ele>235.3</ele>
        <time>2016-10-30T09:20:10Z</time>
      </trkpt>
      <trkpt lat="43.44829" lon="6.24051">
        <ele>235.5</ele>
        <time>2016-10-30T09:20:17Z</time>
      </trkpt>
      <trkpt lat="43.44819" lon="6.24044">
        <ele>235.5</ele>
        <time>2016-10-30T09:20:23Z</time>
      </trkpt>
      <trkpt lat="43.44814" lon="6.24034">
        <ele>235.6</ele>
        <time>2016-10-30T09:20:31Z</time>
      </trkpt>
      <trkpt lat="43.44809" lon="6.24023">
        <ele>235.3</ele>
        <time>2016-10-30T09:20:38Z</time>
      </trkpt>
      <trkpt lat="43.44804" lon="6.24012">
        <ele>235.1</ele>
        <time>2016-10-30T09:20:47Z</time>
      </trkpt>
      <trkpt lat="43.44801" lon="6.23999">
        <ele>234.7</ele>
        <time>2016-10-30T09:20:56Z</time>
      </trkpt>
      <trkpt lat="43.44801" lon="6.23986">
        <ele>234.4</ele>
        <time>2016-10-30T09:21:04Z</time>
      </trkpt>
      <trkpt lat="43.44796" lon="6.23975">
        <ele>233.7</ele>
        <time>2016-10-30T09:21:12Z</time>
      </trkpt>
      <trkpt lat="43.44795" lon="6.23962">
        <ele>232.9</ele>
        <time>2016-10-30T09:21:21Z</time>
      </trkpt>
      <trkpt lat="43.44788" lon="6.23954">
        <ele>231.3</ele>
        <time>2016-10-30T09:21:58Z</time>
      </trkpt>
      <trkpt lat="43.44782" lon="6.23945">
        <ele>231.2</ele>
        <time>2016-10-30T09:22:32Z</time>
      </trkpt>
      <trkpt lat="43.44791" lon="6.23946">
        <ele>230.6</ele>
        <time>2016-10-30T09:23:39Z</time>
      </trkpt>
      <trkpt lat="43.44797" lon="6.23936">
        <ele>230.4</ele>
        <time>2016-10-30T09:24:00Z</time>
      </trkpt>
      <trkpt lat="43.44797" lon="6.23922">
        <ele>230.1</ele>
        <time>2016-10-30T09:24:14Z</time>
      </trkpt>
      <trkpt lat="43.44793" lon="6.23911">
        <ele>229.5</ele>
        <time>2016-10-30T09:24:38Z</time>
      </trkpt>
      <trkpt lat="43.44801" lon="6.23905">
        <ele>229.8</ele>
        <time>2016-10-30T09:24:54Z</time>
      </trkpt>
      <trkpt lat="43.44806" lon="6.23893">
        <ele>229.5</ele>
        <time>2016-10-30T09:25:02Z</time>
      </trkpt>
      <trkpt lat="43.44803" lon="6.23881">
        <ele>229</ele>
        <time>2016-10-30T09:25:11Z</time>
      </trkpt>
      <trkpt lat="43.44801" lon="6.23867">
        <ele>228.6</ele>
        <time>2016-10-30T09:25:19Z</time>
      </trkpt>
      <trkpt lat="43.44801" lon="6.23853">
        <ele>228.2</ele>
        <time>2016-10-30T09:25:27Z</time>
      </trkpt>
      <trkpt lat="43.44802" lon="6.2384">
        <ele>227.8</ele>
        <time>2016-10-30T09:25:34Z</time>
      </trkpt>
      <trkpt lat="43.44798" lon="6.23828">
        <ele>227.5</ele>
        <time>2016-10-30T09:25:44Z</time>
      </trkpt>
      <trkpt lat="43.44796" lon="6.23815">
        <ele>227.2</ele>
        <time>2016-10-30T09:25:53Z</time>
      </trkpt>
      <trkpt lat="43.44793" lon="6.23803">
        <ele>226.9</ele>
        <time>2016-10-30T09:26:01Z</time>
      </trkpt>
      <trkpt lat="43.44792" lon="6.2379">
        <ele>226.6</ele>
        <time>2016-10-30T09:26:09Z</time>
      </trkpt>
      <trkpt lat="43.4479" lon="6.23777">
        <ele>226.3</ele>
        <time>2016-10-30T09:26:17Z</time>
      </trkpt>
      <trkpt lat="43.44789" lon="6.23764">
        <ele>226</ele>
        <time>2016-10-30T09:26:25Z</time>
      </trkpt>
      <trkpt lat="43.44786" lon="6.23751">
        <ele>225.8</ele>
        <time>2016-10-30T09:26:33Z</time>
      </trkpt>
      <trkpt lat="43.44783" lon="6.23739">
        <ele>225.5</ele>
        <time>2016-10-30T09:26:41Z</time>
      </trkpt>
      <trkpt lat="43.44779" lon="6.23726">
        <ele>225.3</ele>
        <time>2016-10-30T09:26:49Z</time>
      </trkpt>
      <trkpt lat="43.44777" lon="6.23713">
        <ele>224.9</ele>
        <time>2016-10-30T09:26:57Z</time>
      </trkpt>
      <trkpt lat="43.44776" lon="6.23701">
        <ele>224.6</ele>
        <time>2016-10-30T09:27:05Z</time>
      </trkpt>
      <trkpt lat="43.44775" lon="6.23688">
        <ele>224.2</ele>
        <time>2016-10-30T09:27:18Z</time>
      </trkpt>
      <trkpt lat="43.44776" lon="6.23675">
        <ele>223.9</ele>
        <time>2016-10-30T09:27:26Z</time>
      </trkpt>
      <trkpt lat="43.44774" lon="6.23662">
        <ele>223.7</ele>
        <time>2016-10-30T09:27:34Z</time>
      </trkpt>
      <trkpt lat="43.44773" lon="6.23648">
        <ele>223.3</ele>
        <time>2016-10-30T09:27:42Z</time>
      </trkpt>
      <trkpt lat="43.44773" lon="6.23636">
        <ele>223</ele>
        <time>2016-10-30T09:27:49Z</time>
      </trkpt>
      <trkpt lat="43.44772" lon="6.23622">
        <ele>222.8</ele>
        <time>2016-10-30T09:27:57Z</time>
      </trkpt>
      <trkpt lat="43.44767" lon="6.23612">
        <ele>222.7</ele>
        <time>2016-10-30T09:28:04Z</time>
      </trkpt>
      <trkpt lat="43.44765" lon="6.23599">
        <ele>222.7</ele>
        <time>2016-10-30T09:28:14Z</time>
      </trkpt>
      <trkpt lat="43.44761" lon="6.23587">
        <ele>222.8</ele>
        <time>2016-10-30T09:28:27Z</time>
      </trkpt>
      <trkpt lat="43.44766" lon="6.23575">
        <ele>222.8</ele>
        <time>2016-10-30T09:28:36Z</time>
      </trkpt>
      <trkpt lat="43.44769" lon="6.23563">
        <ele>223</ele>
        <time>2016-10-30T09:28:46Z</time>
      </trkpt>
      <trkpt lat="43.44774" lon="6.23553">
        <ele>222.9</ele>
        <time>2016-10-30T09:29:08Z</time>
      </trkpt>
      <trkpt lat="43.4478" lon="6.23541">
        <ele>222.8</ele>
        <time>2016-10-30T09:29:16Z</time>
      </trkpt>
      <trkpt lat="43.44786" lon="6.23532">
        <ele>222.5</ele>
        <time>2016-10-30T09:29:23Z</time>
      </trkpt>
      <trkpt lat="43.44783" lon="6.23519">
        <ele>222</ele>
        <time>2016-10-30T09:29:43Z</time>
      </trkpt>
      <trkpt lat="43.44777" lon="6.2351">
        <ele>221.8</ele>
        <time>2016-10-30T09:29:52Z</time>
      </trkpt>
      <trkpt lat="43.4477" lon="6.23519">
        <ele>221.7</ele>
        <time>2016-10-30T09:30:07Z</time>
      </trkpt>
      <trkpt lat="43.44772" lon="6.23507">
        <ele>221.6</ele>
        <time>2016-10-30T09:30:52Z</time>
      </trkpt>
      <trkpt lat="43.44778" lon="6.23497">
        <ele>221.6</ele>
        <time>2016-10-30T09:31:01Z</time>
      </trkpt>
      <trkpt lat="43.44775" lon="6.23485">
        <ele>221.5</ele>
        <time>2016-10-30T09:31:27Z</time>
      </trkpt>
      <trkpt lat="43.44782" lon="6.23477">
        <ele>221.3</ele>
        <time>2016-10-30T09:31:44Z</time>
      </trkpt>
      <trkpt lat="43.44789" lon="6.23469">
        <ele>221.3</ele>
        <time>2016-10-30T09:31:58Z</time>
      </trkpt>
      <trkpt lat="43.44782" lon="6.2346">
        <ele>221.2</ele>
        <time>2016-10-30T09:32:22Z</time>
      </trkpt>
      <trkpt lat="43.44773" lon="6.23457">
        <ele>221.4</ele>
        <time>2016-10-30T09:32:51Z</time>
      </trkpt>
      <trkpt lat="43.44763" lon="6.23458">
        <ele>221.9</ele>
        <time>2016-10-30T09:33:03Z</time>
      </trkpt>
      <trkpt lat="43.44754" lon="6.23456">
        <ele>222.2</ele>
        <time>2016-10-30T09:33:12Z</time>
      </trkpt>
      <trkpt lat="43.44745" lon="6.23456">
        <ele>223</ele>
        <time>2016-10-30T09:33:22Z</time>
      </trkpt>
      <trkpt lat="43.44735" lon="6.23458">
        <ele>223.5</ele>
        <time>2016-10-30T09:33:28Z</time>
      </trkpt>
      <trkpt lat="43.44726" lon="6.23458">
        <ele>224.4</ele>
        <time>2016-10-30T09:33:36Z</time>
      </trkpt>
      <trkpt lat="43.44718" lon="6.23464">
        <ele>226.6</ele>
        <time>2016-10-30T09:33:51Z</time>
      </trkpt>
      <trkpt lat="43.44708" lon="6.23461">
        <ele>227.5</ele>
        <time>2016-10-30T09:34:02Z</time>
      </trkpt>
      <trkpt lat="43.44698" lon="6.23458">
        <ele>228.3</ele>
        <time>2016-10-30T09:34:13Z</time>
      </trkpt>
      <trkpt lat="43.44689" lon="6.23454">
        <ele>229</ele>
        <time>2016-10-30T09:34:23Z</time>
      </trkpt>
      <trkpt lat="43.44681" lon="6.23448">
        <ele>229.7</ele>
        <time>2016-10-30T09:34:31Z</time>
      </trkpt>
      <trkpt lat="43.44678" lon="6.23435">
        <ele>230.6</ele>
        <time>2016-10-30T09:34:43Z</time>
      </trkpt>
      <trkpt lat="43.44677" lon="6.23422">
        <ele>231.1</ele>
        <time>2016-10-30T09:34:53Z</time>
      </trkpt>
      <trkpt lat="43.4467" lon="6.23412">
        <ele>231.5</ele>
        <time>2016-10-30T09:35:04Z</time>
      </trkpt>
      <trkpt lat="43.44664" lon="6.23402">
        <ele>231.7</ele>
        <time>2016-10-30T09:35:11Z</time>
      </trkpt>
      <trkpt lat="43.4466" lon="6.2339">
        <ele>231.8</ele>
        <time>2016-10-30T09:35:19Z</time>
      </trkpt>
      <trkpt lat="43.44655" lon="6.23379">
        <ele>232</ele>
        <time>2016-10-30T09:35:27Z</time>
      </trkpt>
      <trkpt lat="43.44648" lon="6.2337">
        <ele>232.2</ele>
        <time>2016-10-30T09:35:35Z</time>
      </trkpt>
      <trkpt lat="43.44643" lon="6.23358">
        <ele>232.5</ele>
        <time>2016-10-30T09:35:44Z</time>
      </trkpt>
      <trkpt lat="43.44636" lon="6.23349">
        <ele>232.7</ele>
        <time>2016-10-30T09:35:52Z</time>
      </trkpt>
      <trkpt lat="43.44631" lon="6.23337">
        <ele>232.9</ele>
        <time>2016-10-30T09:36:01Z</time>
      </trkpt>
      <trkpt lat="43.44628" lon="6.23325">
        <ele>233.5</ele>
        <time>2016-10-30T09:36:11Z</time>
      </trkpt>
      <trkpt lat="43.44619" lon="6.23322">
        <ele>234.6</ele>
        <time>2016-10-30T09:36:38Z</time>
      </trkpt>
      <trkpt lat="43.44611" lon="6.23316">
        <ele>235.7</ele>
        <time>2016-10-30T09:37:36Z</time>
      </trkpt>
      <trkpt lat="43.44604" lon="6.23308">
        <ele>235.4</ele>
        <time>2016-10-30T09:37:56Z</time>
      </trkpt>
      <trkpt lat="43.44605" lon="6.23296">
        <ele>234.4</ele>
        <time>2016-10-30T09:38:21Z</time>
      </trkpt>
      <trkpt lat="43.44606" lon="6.23283">
        <ele>234.1</ele>
        <time>2016-10-30T09:38:37Z</time>
      </trkpt>
      <trkpt lat="43.44597" lon="6.2328">
        <ele>235</ele>
        <time>2016-10-30T09:38:54Z</time>
      </trkpt>
      <trkpt lat="43.44593" lon="6.23268">
        <ele>235.7</ele>
        <time>2016-10-30T09:39:05Z</time>
      </trkpt>
      <trkpt lat="43.44586" lon="6.23258">
        <ele>236.5</ele>
        <time>2016-10-30T09:39:17Z</time>
      </trkpt>
      <trkpt lat="43.44579" lon="6.23249">
        <ele>237.2</ele>
        <time>2016-10-30T09:39:27Z</time>
      </trkpt>
      <trkpt lat="43.44571" lon="6.23244">
        <ele>238</ele>
        <time>2016-10-30T09:39:36Z</time>
      </trkpt>
      <trkpt lat="43.44563" lon="6.23237">
        <ele>239</ele>
        <time>2016-10-30T09:39:45Z</time>
      </trkpt>
      <trkpt lat="43.44555" lon="6.23229">
        <ele>239.8</ele>
        <time>2016-10-30T09:39:54Z</time>
      </trkpt>
      <trkpt lat="43.44546" lon="6.23225">
        <ele>240.4</ele>
        <time>2016-10-30T09:40:00Z</time>
      </trkpt>
      <trkpt lat="43.44539" lon="6.23216">
        <ele>241.7</ele>
        <time>2016-10-30T09:40:11Z</time>
      </trkpt>
      <trkpt lat="43.44534" lon="6.23205">
        <ele>243.1</ele>
        <time>2016-10-30T09:40:22Z</time>
      </trkpt>
      <trkpt lat="43.44532" lon="6.23192">
        <ele>244.4</ele>
        <time>2016-10-30T09:40:35Z</time>
      </trkpt>
      <trkpt lat="43.44523" lon="6.23188">
        <ele>245.3</ele>
        <time>2016-10-30T09:40:43Z</time>
      </trkpt>
      <trkpt lat="43.44516" lon="6.23179">
        <ele>246.7</ele>
        <time>2016-10-30T09:40:55Z</time>
      </trkpt>
      <trkpt lat="43.4451" lon="6.23169">
        <ele>247.9</ele>
        <time>2016-10-30T09:41:06Z</time>
      </trkpt>
      <trkpt lat="43.44504" lon="6.23159">
        <ele>249.4</ele>
        <time>2016-10-30T09:41:18Z</time>
      </trkpt>
      <trkpt lat="43.44496" lon="6.2315">
        <ele>250.4</ele>
        <time>2016-10-30T09:41:28Z</time>
      </trkpt>
      <trkpt lat="43.4449" lon="6.2314">
        <ele>252.1</ele>
        <time>2016-10-30T09:41:42Z</time>
      </trkpt>
      <trkpt lat="43.44484" lon="6.23129">
        <ele>253.3</ele>
        <time>2016-10-30T09:41:52Z</time>
      </trkpt>
      <trkpt lat="43.44478" lon="6.23119">
        <ele>254.3</ele>
        <time>2016-10-30T09:42:01Z</time>
      </trkpt>
      <trkpt lat="43.44472" lon="6.23109">
        <ele>255.6</ele>
        <time>2016-10-30T09:42:11Z</time>
      </trkpt>
      <trkpt lat="43.44467" lon="6.23098">
        <ele>256.8</ele>
        <time>2016-10-30T09:42:24Z</time>
      </trkpt>
      <trkpt lat="43.4446" lon="6.2309">
        <ele>258.3</ele>
        <time>2016-10-30T09:42:36Z</time>
      </trkpt>
      <trkpt lat="43.44453" lon="6.23081">
        <ele>259.5</ele>
        <time>2016-10-30T09:42:46Z</time>
      </trkpt>
      <trkpt lat="43.44445" lon="6.23073">
        <ele>260.4</ele>
        <time>2016-10-30T09:42:55Z</time>
      </trkpt>
      <trkpt lat="43.44438" lon="6.23065">
        <ele>261.5</ele>
        <time>2016-10-30T09:43:05Z</time>
      </trkpt>
      <trkpt lat="43.44431" lon="6.23057">
        <ele>262.5</ele>
        <time>2016-10-30T09:43:16Z</time>
      </trkpt>
      <trkpt lat="43.44423" lon="6.23049">
        <ele>263.7</ele>
        <time>2016-10-30T09:43:29Z</time>
      </trkpt>
      <trkpt lat="43.44418" lon="6.23037">
        <ele>265.1</ele>
        <time>2016-10-30T09:43:42Z</time>
      </trkpt>
      <trkpt lat="43.44413" lon="6.23026">
        <ele>266</ele>
        <time>2016-10-30T09:43:51Z</time>
      </trkpt>
      <trkpt lat="43.44408" lon="6.23015">
        <ele>266.8</ele>
        <time>2016-10-30T09:44:02Z</time>
      </trkpt>
      <trkpt lat="43.44402" lon="6.23006">
        <ele>267.5</ele>
        <time>2016-10-30T09:44:11Z</time>
      </trkpt>
      <trkpt lat="43.44396" lon="6.22996">
        <ele>268.6</ele>
        <time>2016-10-30T09:44:21Z</time>
      </trkpt>
      <trkpt lat="43.44391" lon="6.22985">
        <ele>269.8</ele>
        <time>2016-10-30T09:44:31Z</time>
      </trkpt>
      <trkpt lat="43.44385" lon="6.22975">
        <ele>270.9</ele>
        <time>2016-10-30T09:44:39Z</time>
      </trkpt>
      <trkpt lat="43.44377" lon="6.22967">
        <ele>271.8</ele>
        <time>2016-10-30T09:44:48Z</time>
      </trkpt>
      <trkpt lat="43.44369" lon="6.2296">
        <ele>273.1</ele>
        <time>2016-10-30T09:44:58Z</time>
      </trkpt>
      <trkpt lat="43.44361" lon="6.22954">
        <ele>274.1</ele>
        <time>2016-10-30T09:45:07Z</time>
      </trkpt>
      <trkpt lat="43.44356" lon="6.22943">
        <ele>275.7</ele>
        <time>2016-10-30T09:45:19Z</time>
      </trkpt>
      <trkpt lat="43.44349" lon="6.22935">
        <ele>276.9</ele>
        <time>2016-10-30T09:45:29Z</time>
      </trkpt>
      <trkpt lat="43.44342" lon="6.22925">
        <ele>277.9</ele>
        <time>2016-10-30T09:45:39Z</time>
      </trkpt>
      <trkpt lat="43.44335" lon="6.22915">
        <ele>279.2</ele>
        <time>2016-10-30T09:45:54Z</time>
      </trkpt>
      <trkpt lat="43.44327" lon="6.22909">
        <ele>280.1</ele>
        <time>2016-10-30T09:46:05Z</time>
      </trkpt>
      <trkpt lat="43.44318" lon="6.22905">
        <ele>281.8</ele>
        <time>2016-10-30T09:46:25Z</time>
      </trkpt>
      <trkpt lat="43.44311" lon="6.22914">
        <ele>283</ele>
        <time>2016-10-30T09:46:38Z</time>
      </trkpt>
      <trkpt lat="43.44306" lon="6.22924">
        <ele>285.4</ele>
        <time>2016-10-30T09:47:13Z</time>
      </trkpt>
      <trkpt lat="43.44305" lon="6.22937">
        <ele>285.9</ele>
        <time>2016-10-30T09:47:24Z</time>
      </trkpt>
      <trkpt lat="43.44303" lon="6.2295">
        <ele>287.2</ele>
        <time>2016-10-30T09:47:37Z</time>
      </trkpt>
      <trkpt lat="43.44301" lon="6.22963">
        <ele>288.5</ele>
        <time>2016-10-30T09:47:49Z</time>
      </trkpt>
      <trkpt lat="43.44302" lon="6.22975">
        <ele>289.4</ele>
        <time>2016-10-30T09:47:57Z</time>
      </trkpt>
      <trkpt lat="43.44303" lon="6.22988">
        <ele>290.3</ele>
        <time>2016-10-30T09:48:06Z</time>
      </trkpt>
      <trkpt lat="43.44302" lon="6.23001">
        <ele>291.6</ele>
        <time>2016-10-30T09:48:16Z</time>
      </trkpt>
      <trkpt lat="43.44298" lon="6.23013">
        <ele>292.7</ele>
        <time>2016-10-30T09:48:26Z</time>
      </trkpt>
      <trkpt lat="43.44296" lon="6.23025">
        <ele>294.4</ele>
        <time>2016-10-30T09:48:43Z</time>
      </trkpt>
      <trkpt lat="43.44288" lon="6.23031">
        <ele>295.9</ele>
        <time>2016-10-30T09:48:56Z</time>
      </trkpt>
      <trkpt lat="43.44279" lon="6.23033">
        <ele>297.7</ele>
        <time>2016-10-30T09:49:23Z</time>
      </trkpt>
      <trkpt lat="43.4427" lon="6.23033">
        <ele>299.5</ele>
        <time>2016-10-30T09:49:45Z</time>
      </trkpt>
      <trkpt lat="43.44261" lon="6.23032">
        <ele>300.6</ele>
        <time>2016-10-30T09:50:04Z</time>
      </trkpt>
      <trkpt lat="43.44252" lon="6.23031">
        <ele>301.3</ele>
        <time>2016-10-30T09:50:21Z</time>
      </trkpt>
      <trkpt lat="43.44247" lon="6.23041">
        <ele>302.9</ele>
        <time>2016-10-30T09:51:11Z</time>
      </trkpt>
      <trkpt lat="43.44239" lon="6.23048">
        <ele>303.8</ele>
        <time>2016-10-30T09:51:37Z</time>
      </trkpt>
      <trkpt lat="43.44229" lon="6.2305">
        <ele>304.7</ele>
        <time>2016-10-30T09:51:50Z</time>
      </trkpt>
      <trkpt lat="43.44221" lon="6.23053">
        <ele>305.7</ele>
        <time>2016-10-30T09:52:03Z</time>
      </trkpt>
      <trkpt lat="43.44211" lon="6.23058">
        <ele>306.7</ele>
        <time>2016-10-30T09:52:14Z</time>
      </trkpt>
      <trkpt lat="43.44203" lon="6.23064">
        <ele>307.6</ele>
        <time>2016-10-30T09:52:23Z</time>
      </trkpt>
      <trkpt lat="43.44196" lon="6.23073">
        <ele>308.2</ele>
        <time>2016-10-30T09:52:31Z</time>
      </trkpt>
      <trkpt lat="43.44192" lon="6.23083">
        <ele>308.8</ele>
        <time>2016-10-30T09:52:39Z</time>
      </trkpt>
      <trkpt lat="43.44188" lon="6.23095">
        <ele>309.4</ele>
        <time>2016-10-30T09:52:48Z</time>
      </trkpt>
      <trkpt lat="43.44182" lon="6.23105">
        <ele>309.8</ele>
        <time>2016-10-30T09:53:00Z</time>
      </trkpt>
      <trkpt lat="43.44172" lon="6.23103">
        <ele>310.2</ele>
        <time>2016-10-30T09:53:11Z</time>
      </trkpt>
      <trkpt lat="43.44163" lon="6.23108">
        <ele>310.4</ele>
        <time>2016-10-30T09:53:21Z</time>
      </trkpt>
      <trkpt lat="43.44155" lon="6.23113">
        <ele>310.6</ele>
        <time>2016-10-30T09:53:30Z</time>
      </trkpt>
      <trkpt lat="43.44146" lon="6.2312">
        <ele>310.6</ele>
        <time>2016-10-30T09:53:40Z</time>
      </trkpt>
      <trkpt lat="43.44137" lon="6.23124">
        <ele>310.7</ele>
        <time>2016-10-30T09:53:48Z</time>
      </trkpt>
      <trkpt lat="43.44128" lon="6.23127">
        <ele>310.9</ele>
        <time>2016-10-30T09:53:56Z</time>
      </trkpt>
      <trkpt lat="43.4412" lon="6.23135">
        <ele>311</ele>
        <time>2016-10-30T09:54:07Z</time>
      </trkpt>
      <trkpt lat="43.44111" lon="6.2314">
        <ele>311.1</ele>
        <time>2016-10-30T09:54:16Z</time>
      </trkpt>
      <trkpt lat="43.44102" lon="6.23145">
        <ele>311.7</ele>
        <time>2016-10-30T09:54:25Z</time>
      </trkpt>
      <trkpt lat="43.44093" lon="6.23146">
        <ele>313.2</ele>
        <time>2016-10-30T09:55:05Z</time>
      </trkpt>
      <trkpt lat="43.44085" lon="6.23152">
        <ele>314.1</ele>
        <time>2016-10-30T10:03:30Z</time>
      </trkpt>
      <trkpt lat="43.44075" lon="6.23149">
        <ele>314.2</ele>
        <time>2016-10-30T10:03:44Z</time>
      </trkpt>
      <trkpt lat="43.44066" lon="6.23152">
        <ele>314.6</ele>
        <time>2016-10-30T10:03:56Z</time>
      </trkpt>
      <trkpt lat="43.44057" lon="6.23155">
        <ele>314.4</ele>
        <time>2016-10-30T10:04:42Z</time>
      </trkpt>
      <trkpt lat="43.4405" lon="6.23146">
        <ele>314.8</ele>
        <time>2016-10-30T10:05:01Z</time>
      </trkpt>
      <trkpt lat="43.44048" lon="6.23158">
        <ele>314.2</ele>
        <time>2016-10-30T10:06:10Z</time>
      </trkpt>
      <trkpt lat="43.44057" lon="6.23162">
        <ele>314.4</ele>
        <time>2016-10-30T10:07:06Z</time>
      </trkpt>
      <trkpt lat="43.44065" lon="6.23157">
        <ele>314.5</ele>
        <time>2016-10-30T10:07:21Z</time>
      </trkpt>
      <trkpt lat="43.44073" lon="6.23148">
        <ele>314.5</ele>
        <time>2016-10-30T10:07:29Z</time>
      </trkpt>
      <trkpt lat="43.44082" lon="6.23145">
        <ele>314.4</ele>
        <time>2016-10-30T10:07:41Z</time>
      </trkpt>
      <trkpt lat="43.4409" lon="6.23137">
        <ele>314.4</ele>
        <time>2016-10-30T10:07:54Z</time>
      </trkpt>
      <trkpt lat="43.44095" lon="6.23124">
        <ele>314.1</ele>
        <time>2016-10-30T10:08:02Z</time>
      </trkpt>
      <trkpt lat="43.44098" lon="6.23112">
        <ele>314.1</ele>
        <time>2016-10-30T10:08:10Z</time>
      </trkpt>
      <trkpt lat="43.44102" lon="6.23098">
        <ele>314.2</ele>
        <time>2016-10-30T10:08:16Z</time>
      </trkpt>
      <trkpt lat="43.44104" lon="6.23084">
        <ele>314</ele>
        <time>2016-10-30T10:08:25Z</time>
      </trkpt>
      <trkpt lat="43.44105" lon="6.23071">
        <ele>314</ele>
        <time>2016-10-30T10:08:33Z</time>
      </trkpt>
      <trkpt lat="43.44106" lon="6.23058">
        <ele>313.8</ele>
        <time>2016-10-30T10:08:40Z</time>
      </trkpt>
      <trkpt lat="43.44107" lon="6.23045">
        <ele>313.5</ele>
        <time>2016-10-30T10:08:47Z</time>
      </trkpt>
      <trkpt lat="43.44109" lon="6.23032">
        <ele>313.5</ele>
        <time>2016-10-30T10:08:56Z</time>
      </trkpt>
      <trkpt lat="43.44109" lon="6.2302">
        <ele>313.1</ele>
        <time>2016-10-30T10:09:05Z</time>
      </trkpt>
      <trkpt lat="43.44106" lon="6.23008">
        <ele>312.6</ele>
        <time>2016-10-30T10:09:12Z</time>
      </trkpt>
      <trkpt lat="43.44105" lon="6.22995">
        <ele>312</ele>
        <time>2016-10-30T10:09:21Z</time>
      </trkpt>
      <trkpt lat="43.44105" lon="6.22982">
        <ele>311</ele>
        <time>2016-10-30T10:09:37Z</time>
      </trkpt>
      <trkpt lat="43.44096" lon="6.22975">
        <ele>309.6</ele>
        <time>2016-10-30T10:10:09Z</time>
      </trkpt>
      <trkpt lat="43.441" lon="6.22988">
        <ele>309</ele>
        <time>2016-10-30T10:13:45Z</time>
      </trkpt>
      <trkpt lat="43.44098" lon="6.23">
        <ele>309.8</ele>
        <time>2016-10-30T10:13:56Z</time>
      </trkpt>
      <trkpt lat="43.441" lon="6.23013">
        <ele>311</ele>
        <time>2016-10-30T10:14:07Z</time>
      </trkpt>
      <trkpt lat="43.44097" lon="6.23026">
        <ele>311.6</ele>
        <time>2016-10-30T10:14:17Z</time>
      </trkpt>
      <trkpt lat="43.44097" lon="6.23039">
        <ele>312.1</ele>
        <time>2016-10-30T10:14:27Z</time>
      </trkpt>
      <trkpt lat="43.44095" lon="6.23051">
        <ele>312.6</ele>
        <time>2016-10-30T10:14:36Z</time>
      </trkpt>
      <trkpt lat="43.44094" lon="6.23064">
        <ele>312.7</ele>
        <time>2016-10-30T10:14:45Z</time>
      </trkpt>
      <trkpt lat="43.44093" lon="6.23077">
        <ele>312.5</ele>
        <time>2016-10-30T10:14:54Z</time>
      </trkpt>
      <trkpt lat="43.4409" lon="6.2309">
        <ele>312.5</ele>
        <time>2016-10-30T10:15:04Z</time>
      </trkpt>
      <trkpt lat="43.4409" lon="6.23104">
        <ele>312.5</ele>
        <time>2016-10-30T10:15:12Z</time>
      </trkpt>
      <trkpt lat="43.44088" lon="6.23117">
        <ele>313</ele>
        <time>2016-10-30T10:15:21Z</time>
      </trkpt>
      <trkpt lat="43.4409" lon="6.2313">
        <ele>312.7</ele>
        <time>2016-10-30T10:15:29Z</time>
      </trkpt>
      <trkpt lat="43.44088" lon="6.23142">
        <ele>312.5</ele>
        <time>2016-10-30T10:15:38Z</time>
      </trkpt>
      <trkpt lat="43.44089" lon="6.23154">
        <ele>312.5</ele>
        <time>2016-10-30T10:15:46Z</time>
      </trkpt>
      <trkpt lat="43.44092" lon="6.23167">
        <ele>312.6</ele>
        <time>2016-10-30T10:15:54Z</time>
      </trkpt>
      <trkpt lat="43.4409" lon="6.23179">
        <ele>312.5</ele>
        <time>2016-10-30T10:16:11Z</time>
      </trkpt>
      <trkpt lat="43.44097" lon="6.2317">
        <ele>312.3</ele>
        <time>2016-10-30T10:17:58Z</time>
      </trkpt>
      <trkpt lat="43.44099" lon="6.23182">
        <ele>312.4</ele>
        <time>2016-10-30T10:18:12Z</time>
      </trkpt>
      <trkpt lat="43.44099" lon="6.23195">
        <ele>312.8</ele>
        <time>2016-10-30T10:18:48Z</time>
      </trkpt>
      <trkpt lat="43.44101" lon="6.23207">
        <ele>312.5</ele>
        <time>2016-10-30T10:19:13Z</time>
      </trkpt>
      <trkpt lat="43.44106" lon="6.23219">
        <ele>312.5</ele>
        <time>2016-10-30T10:19:25Z</time>
      </trkpt>
      <trkpt lat="43.44112" lon="6.2323">
        <ele>312</ele>
        <time>2016-10-30T10:19:34Z</time>
      </trkpt>
      <trkpt lat="43.44117" lon="6.2324">
        <ele>311.7</ele>
        <time>2016-10-30T10:19:42Z</time>
      </trkpt>
      <trkpt lat="43.44124" lon="6.23249">
        <ele>311.3</ele>
        <time>2016-10-30T10:19:49Z</time>
      </trkpt>
      <trkpt lat="43.44129" lon="6.2326">
        <ele>311.2</ele>
        <time>2016-10-30T10:19:59Z</time>
      </trkpt>
      <trkpt lat="43.44132" lon="6.23273">
        <ele>311.2</ele>
        <time>2016-10-30T10:20:19Z</time>
      </trkpt>
      <trkpt lat="43.44138" lon="6.23283">
        <ele>310.5</ele>
        <time>2016-10-30T10:21:33Z</time>
      </trkpt>
      <trkpt lat="43.44146" lon="6.23291">
        <ele>311.3</ele>
        <time>2016-10-30T10:22:00Z</time>
      </trkpt>
      <trkpt lat="43.44138" lon="6.23285">
        <ele>312.3</ele>
        <time>2016-10-30T10:22:39Z</time>
      </trkpt>
      <trkpt lat="43.44133" lon="6.23296">
        <ele>312.4</ele>
        <time>2016-10-30T10:22:54Z</time>
      </trkpt>
      <trkpt lat="43.44136" lon="6.23284">
        <ele>312</ele>
        <time>2016-10-30T10:23:26Z</time>
      </trkpt>
      <trkpt lat="43.44128" lon="6.23277">
        <ele>306.5</ele>
        <time>2016-10-30T10:24:55Z</time>
      </trkpt>
      <trkpt lat="43.44119" lon="6.23279">
        <ele>302.1</ele>
        <time>2016-10-30T10:25:27Z</time>
      </trkpt>
      <trkpt lat="43.44111" lon="6.23286">
        <ele>295.2</ele>
        <time>2016-10-30T10:26:49Z</time>
      </trkpt>
      <trkpt lat="43.44104" lon="6.23277">
        <ele>293.1</ele>
        <time>2016-10-30T10:27:06Z</time>
      </trkpt>
      <trkpt lat="43.44104" lon="6.23291">
        <ele>290.1</ele>
        <time>2016-10-30T10:27:42Z</time>
      </trkpt>
      <trkpt lat="43.44108" lon="6.23302">
        <ele>288.7</ele>
        <time>2016-10-30T10:27:55Z</time>
      </trkpt>
      <trkpt lat="43.44112" lon="6.23314">
        <ele>287.7</ele>
        <time>2016-10-30T10:28:06Z</time>
      </trkpt>
      <trkpt lat="43.44118" lon="6.23324">
        <ele>286</ele>
        <time>2016-10-30T10:28:18Z</time>
      </trkpt>
      <trkpt lat="43.44111" lon="6.23331">
        <ele>282.7</ele>
        <time>2016-10-30T10:28:52Z</time>
      </trkpt>
      <trkpt lat="43.44101" lon="6.23329">
        <ele>276.8</ele>
        <time>2016-10-30T10:29:36Z</time>
      </trkpt>
      <trkpt lat="43.441" lon="6.23343">
        <ele>275.1</ele>
        <time>2016-10-30T10:29:46Z</time>
      </trkpt>
      <trkpt lat="43.44093" lon="6.2335">
        <ele>270.6</ele>
        <time>2016-10-30T10:30:07Z</time>
      </trkpt>
      <trkpt lat="43.44087" lon="6.2336">
        <ele>264.2</ele>
        <time>2016-10-30T10:30:40Z</time>
      </trkpt>
      <trkpt lat="43.44078" lon="6.23362">
        <ele>261.6</ele>
        <time>2016-10-30T10:31:01Z</time>
      </trkpt>
      <trkpt lat="43.44073" lon="6.23372">
        <ele>259.4</ele>
        <time>2016-10-30T10:31:49Z</time>
      </trkpt>
      <trkpt lat="43.44065" lon="6.23364">
        <ele>256.3</ele>
        <time>2016-10-30T10:32:13Z</time>
      </trkpt>
      <trkpt lat="43.44061" lon="6.23375">
        <ele>253</ele>
        <time>2016-10-30T10:32:31Z</time>
      </trkpt>
      <trkpt lat="43.44053" lon="6.23383">
        <ele>249.8</ele>
        <time>2016-10-30T10:33:04Z</time>
      </trkpt>
      <trkpt lat="43.44045" lon="6.23389">
        <ele>247.6</ele>
        <time>2016-10-30T10:33:25Z</time>
      </trkpt>
      <trkpt lat="43.44038" lon="6.23397">
        <ele>244.6</ele>
        <time>2016-10-30T10:33:53Z</time>
      </trkpt>
      <trkpt lat="43.44031" lon="6.23405">
        <ele>242.3</ele>
        <time>2016-10-30T10:35:01Z</time>
      </trkpt>
      <trkpt lat="43.44025" lon="6.23415">
        <ele>239.4</ele>
        <time>2016-10-30T10:35:19Z</time>
      </trkpt>
      <trkpt lat="43.44017" lon="6.23423">
        <ele>235.8</ele>
        <time>2016-10-30T10:35:39Z</time>
      </trkpt>
      <trkpt lat="43.44011" lon="6.23432">
        <ele>233</ele>
        <time>2016-10-30T10:35:53Z</time>
      </trkpt>
      <trkpt lat="43.44003" lon="6.2344">
        <ele>231.1</ele>
        <time>2016-10-30T10:36:06Z</time>
      </trkpt>
      <trkpt lat="43.43995" lon="6.23444">
        <ele>229.3</ele>
        <time>2016-10-30T10:36:18Z</time>
      </trkpt>
      <trkpt lat="43.43986" lon="6.2345">
        <ele>227.5</ele>
        <time>2016-10-30T10:36:27Z</time>
      </trkpt>
      <trkpt lat="43.43978" lon="6.23458">
        <ele>225.7</ele>
        <time>2016-10-30T10:36:36Z</time>
      </trkpt>
      <trkpt lat="43.43971" lon="6.23466">
        <ele>224.1</ele>
        <time>2016-10-30T10:36:46Z</time>
      </trkpt>
      <trkpt lat="43.43962" lon="6.23473">
        <ele>222</ele>
        <time>2016-10-30T10:36:57Z</time>
      </trkpt>
      <trkpt lat="43.43956" lon="6.23482">
        <ele>219.8</ele>
        <time>2016-10-30T10:37:10Z</time>
      </trkpt>
      <trkpt lat="43.43947" lon="6.2348">
        <ele>217.2</ele>
        <time>2016-10-30T10:39:23Z</time>
      </trkpt>
      <trkpt lat="43.43939" lon="6.23472">
        <ele>216.4</ele>
        <time>2016-10-30T10:39:33Z</time>
      </trkpt>
      <trkpt lat="43.43933" lon="6.23462">
        <ele>215.5</ele>
        <time>2016-10-30T10:39:46Z</time>
      </trkpt>
      <trkpt lat="43.43924" lon="6.23457">
        <ele>215.1</ele>
        <time>2016-10-30T10:39:57Z</time>
      </trkpt>
      <trkpt lat="43.43916" lon="6.23449">
        <ele>214.8</ele>
        <time>2016-10-30T10:40:05Z</time>
      </trkpt>
      <trkpt lat="43.43909" lon="6.2344">
        <ele>214</ele>
        <time>2016-10-30T10:40:15Z</time>
      </trkpt>
      <trkpt lat="43.43904" lon="6.23429">
        <ele>212.6</ele>
        <time>2016-10-30T10:40:49Z</time>
      </trkpt>
      <trkpt lat="43.43901" lon="6.23418">
        <ele>212.1</ele>
        <time>2016-10-30T10:40:57Z</time>
      </trkpt>
      <trkpt lat="43.43907" lon="6.23408">
        <ele>211.8</ele>
        <time>2016-10-30T10:41:40Z</time>
      </trkpt>
      <trkpt lat="43.43902" lon="6.23396">
        <ele>211.8</ele>
        <time>2016-10-30T10:41:49Z</time>
      </trkpt>
      <trkpt lat="43.43893" lon="6.2339">
        <ele>210.7</ele>
        <time>2016-10-30T10:42:09Z</time>
      </trkpt>
      <trkpt lat="43.43883" lon="6.23387">
        <ele>209.9</ele>
        <time>2016-10-30T10:42:31Z</time>
      </trkpt>
      <trkpt lat="43.43874" lon="6.23384">
        <ele>208.6</ele>
        <time>2016-10-30T10:42:44Z</time>
      </trkpt>
      <trkpt lat="43.43866" lon="6.2338">
        <ele>206.4</ele>
        <time>2016-10-30T10:42:58Z</time>
      </trkpt>
      <trkpt lat="43.43858" lon="6.23372">
        <ele>204.3</ele>
        <time>2016-10-30T10:43:18Z</time>
      </trkpt>
      <trkpt lat="43.43849" lon="6.23374">
        <ele>203.2</ele>
        <time>2016-10-30T10:43:50Z</time>
      </trkpt>
      <trkpt lat="43.43843" lon="6.23365">
        <ele>202.2</ele>
        <time>2016-10-30T10:44:00Z</time>
      </trkpt>
      <trkpt lat="43.43837" lon="6.23354">
        <ele>200.5</ele>
        <time>2016-10-30T10:44:10Z</time>
      </trkpt>
      <trkpt lat="43.43828" lon="6.23349">
        <ele>198.7</ele>
        <time>2016-10-30T10:44:22Z</time>
      </trkpt>
      <trkpt lat="43.43821" lon="6.23357">
        <ele>197.5</ele>
        <time>2016-10-30T10:44:30Z</time>
      </trkpt>
      <trkpt lat="43.43815" lon="6.23368">
        <ele>196.1</ele>
        <time>2016-10-30T10:44:40Z</time>
      </trkpt>
      <trkpt lat="43.43806" lon="6.23373">
        <ele>195.4</ele>
        <time>2016-10-30T10:44:49Z</time>
      </trkpt>
      <trkpt lat="43.43797" lon="6.23374">
        <ele>194.7</ele>
        <time>2016-10-30T10:45:04Z</time>
      </trkpt>
      <trkpt lat="43.43795" lon="6.23388">
        <ele>194.6</ele>
        <time>2016-10-30T10:45:18Z</time>
      </trkpt>
      <trkpt lat="43.43798" lon="6.234">
        <ele>194.7</ele>
        <time>2016-10-30T10:45:26Z</time>
      </trkpt>
      <trkpt lat="43.43803" lon="6.23411">
        <ele>195.2</ele>
        <time>2016-10-30T10:45:35Z</time>
      </trkpt>
      <trkpt lat="43.43808" lon="6.23422">
        <ele>195.9</ele>
        <time>2016-10-30T10:45:45Z</time>
      </trkpt>
      <trkpt lat="43.43813" lon="6.23434">
        <ele>196.4</ele>
        <time>2016-10-30T10:45:55Z</time>
      </trkpt>
      <trkpt lat="43.43816" lon="6.23446">
        <ele>197</ele>
        <time>2016-10-30T10:46:06Z</time>
      </trkpt>
      <trkpt lat="43.4382" lon="6.23459">
        <ele>197.7</ele>
        <time>2016-10-30T10:46:16Z</time>
      </trkpt>
      <trkpt lat="43.43826" lon="6.23468">
        <ele>198.1</ele>
        <time>2016-10-30T10:46:24Z</time>
      </trkpt>
      <trkpt lat="43.43832" lon="6.23479">
        <ele>199</ele>
        <time>2016-10-30T10:46:35Z</time>
      </trkpt>
      <trkpt lat="43.43839" lon="6.23489">
        <ele>199.4</ele>
        <time>2016-10-30T10:46:45Z</time>
      </trkpt>
      <trkpt lat="43.43845" lon="6.235">
        <ele>200.2</ele>
        <time>2016-10-30T10:46:56Z</time>
      </trkpt>
      <trkpt lat="43.43847" lon="6.23513">
        <ele>201.2</ele>
        <time>2016-10-30T10:47:08Z</time>
      </trkpt>
      <trkpt lat="43.43849" lon="6.23526">
        <ele>202.4</ele>
        <time>2016-10-30T10:47:19Z</time>
      </trkpt>
      <trkpt lat="43.4385" lon="6.23539">
        <ele>203</ele>
        <time>2016-10-30T10:47:29Z</time>
      </trkpt>
      <trkpt lat="43.4385" lon="6.23552">
        <ele>204</ele>
        <time>2016-10-30T10:47:39Z</time>
      </trkpt>
      <trkpt lat="43.43849" lon="6.23565">
        <ele>205</ele>
        <time>2016-10-30T10:47:48Z</time>
      </trkpt>
      <trkpt lat="43.43848" lon="6.23577">
        <ele>206</ele>
        <time>2016-10-30T10:47:57Z</time>
      </trkpt>
      <trkpt lat="43.43846" lon="6.23589">
        <ele>206.8</ele>
        <time>2016-10-30T10:48:07Z</time>
      </trkpt>
      <trkpt lat="43.43846" lon="6.23603">
        <ele>207.8</ele>
        <time>2016-10-30T10:48:18Z</time>
      </trkpt>
      <trkpt lat="43.43846" lon="6.23617">
        <ele>208.8</ele>
        <time>2016-10-30T10:48:27Z</time>
      </trkpt>
      <trkpt lat="43.43846" lon="6.23629">
        <ele>210</ele>
        <time>2016-10-30T10:48:37Z</time>
      </trkpt>
      <trkpt lat="43.43848" lon="6.23641">
        <ele>211.4</ele>
        <time>2016-10-30T10:49:10Z</time>
      </trkpt>
      <trkpt lat="43.43848" lon="6.23654">
        <ele>212.4</ele>
        <time>2016-10-30T10:50:11Z</time>
      </trkpt>
      <trkpt lat="43.43848" lon="6.23669">
        <ele>213.6</ele>
        <time>2016-10-30T10:50:19Z</time>
      </trkpt>
      <trkpt lat="43.4385" lon="6.23681">
        <ele>214.6</ele>
        <time>2016-10-30T10:50:28Z</time>
      </trkpt>
      <trkpt lat="43.4385" lon="6.23694">
        <ele>215.5</ele>
        <time>2016-10-30T10:50:37Z</time>
      </trkpt>
      <trkpt lat="43.43852" lon="6.23707">
        <ele>215.9</ele>
        <time>2016-10-30T10:50:46Z</time>
      </trkpt>
      <trkpt lat="43.43853" lon="6.2372">
        <ele>216.6</ele>
        <time>2016-10-30T10:50:57Z</time>
      </trkpt>
      <trkpt lat="43.43858" lon="6.23731">
        <ele>217.8</ele>
        <time>2016-10-30T10:51:30Z</time>
      </trkpt>
      <trkpt lat="43.43859" lon="6.23743">
        <ele>219.1</ele>
        <time>2016-10-30T10:51:57Z</time>
      </trkpt>
      <trkpt lat="43.43859" lon="6.23756">
        <ele>219.7</ele>
        <time>2016-10-30T10:52:07Z</time>
      </trkpt>
      <trkpt lat="43.43863" lon="6.23767">
        <ele>220.9</ele>
        <time>2016-10-30T10:52:19Z</time>
      </trkpt>
      <trkpt lat="43.43866" lon="6.2378">
        <ele>221.7</ele>
        <time>2016-10-30T10:52:27Z</time>
      </trkpt>
      <trkpt lat="43.4387" lon="6.23792">
        <ele>222</ele>
        <time>2016-10-30T10:52:36Z</time>
      </trkpt>
      <trkpt lat="43.43874" lon="6.23804">
        <ele>222.8</ele>
        <time>2016-10-30T10:52:44Z</time>
      </trkpt>
      <trkpt lat="43.4388" lon="6.23814">
        <ele>223.3</ele>
        <time>2016-10-30T10:52:53Z</time>
      </trkpt>
      <trkpt lat="43.43885" lon="6.23825">
        <ele>223.9</ele>
        <time>2016-10-30T10:53:01Z</time>
      </trkpt>
      <trkpt lat="43.43892" lon="6.23833">
        <ele>224.6</ele>
        <time>2016-10-30T10:53:10Z</time>
      </trkpt>
      <trkpt lat="43.43901" lon="6.23838">
        <ele>225.8</ele>
        <time>2016-10-30T10:53:20Z</time>
      </trkpt>
      <trkpt lat="43.4391" lon="6.23843">
        <ele>226.5</ele>
        <time>2016-10-30T10:53:28Z</time>
      </trkpt>
      <trkpt lat="43.43919" lon="6.23847">
        <ele>227.2</ele>
        <time>2016-10-30T10:53:36Z</time>
      </trkpt>
      <trkpt lat="43.43929" lon="6.23846">
        <ele>227.6</ele>
        <time>2016-10-30T10:53:46Z</time>
      </trkpt>
      <trkpt lat="43.43937" lon="6.23853">
        <ele>227.9</ele>
        <time>2016-10-30T10:53:56Z</time>
      </trkpt>
      <trkpt lat="43.43943" lon="6.23863">
        <ele>227.9</ele>
        <time>2016-10-30T10:54:07Z</time>
      </trkpt>
      <trkpt lat="43.4395" lon="6.23871">
        <ele>228.4</ele>
        <time>2016-10-30T10:54:16Z</time>
      </trkpt>
      <trkpt lat="43.43958" lon="6.2388">
        <ele>229.2</ele>
        <time>2016-10-30T10:54:26Z</time>
      </trkpt>
      <trkpt lat="43.43966" lon="6.23888">
        <ele>229.9</ele>
        <time>2016-10-30T10:54:35Z</time>
      </trkpt>
      <trkpt lat="43.43971" lon="6.23899">
        <ele>230.4</ele>
        <time>2016-10-30T10:54:44Z</time>
      </trkpt>
      <trkpt lat="43.43978" lon="6.23907">
        <ele>231.3</ele>
        <time>2016-10-30T10:54:53Z</time>
      </trkpt>
      <trkpt lat="43.43986" lon="6.23914">
        <ele>232</ele>
        <time>2016-10-30T10:55:01Z</time>
      </trkpt>
      <trkpt lat="43.43992" lon="6.23925">
        <ele>233</ele>
        <time>2016-10-30T10:55:10Z</time>
      </trkpt>
      <trkpt lat="43.43999" lon="6.23935">
        <ele>233.8</ele>
        <time>2016-10-30T10:55:19Z</time>
      </trkpt>
      <trkpt lat="43.44005" lon="6.23946">
        <ele>234.4</ele>
        <time>2016-10-30T10:55:28Z</time>
      </trkpt>
      <trkpt lat="43.4401" lon="6.23957">
        <ele>235.3</ele>
        <time>2016-10-30T10:55:39Z</time>
      </trkpt>
      <trkpt lat="43.44016" lon="6.23967">
        <ele>236.3</ele>
        <time>2016-10-30T10:55:48Z</time>
      </trkpt>
      <trkpt lat="43.44022" lon="6.23977">
        <ele>237.2</ele>
        <time>2016-10-30T10:55:56Z</time>
      </trkpt>
      <trkpt lat="43.44029" lon="6.23986">
        <ele>238.2</ele>
        <time>2016-10-30T10:56:05Z</time>
      </trkpt>
      <trkpt lat="43.44035" lon="6.23996">
        <ele>239.7</ele>
        <time>2016-10-30T10:56:15Z</time>
      </trkpt>
      <trkpt lat="43.44043" lon="6.24003">
        <ele>240.7</ele>
        <time>2016-10-30T10:56:23Z</time>
      </trkpt>
      <trkpt lat="43.44052" lon="6.24007">
        <ele>241.7</ele>
        <time>2016-10-30T10:56:31Z</time>
      </trkpt>
      <trkpt lat="43.44058" lon="6.24016">
        <ele>243.2</ele>
        <time>2016-10-30T10:56:40Z</time>
      </trkpt>
      <trkpt lat="43.44067" lon="6.24023">
        <ele>244.3</ele>
        <time>2016-10-30T10:56:52Z</time>
      </trkpt>
      <trkpt lat="43.44075" lon="6.24028">
        <ele>245.2</ele>
        <time>2016-10-30T10:57:02Z</time>
      </trkpt>
      <trkpt lat="43.44079" lon="6.2404">
        <ele>246.7</ele>
        <time>2016-10-30T10:57:14Z</time>
      </trkpt>
      <trkpt lat="43.44084" lon="6.24051">
        <ele>247.2</ele>
        <time>2016-10-30T10:57:23Z</time>
      </trkpt>
      <trkpt lat="43.44089" lon="6.24061">
        <ele>247.9</ele>
        <time>2016-10-30T10:57:31Z</time>
      </trkpt>
      <trkpt lat="43.44095" lon="6.24072">
        <ele>248.7</ele>
        <time>2016-10-30T10:57:39Z</time>
      </trkpt>
      <trkpt lat="43.44098" lon="6.24083">
        <ele>249.4</ele>
        <time>2016-10-30T10:57:47Z</time>
      </trkpt>
      <trkpt lat="43.44097" lon="6.24096">
        <ele>250.5</ele>
        <time>2016-10-30T10:57:58Z</time>
      </trkpt>
      <trkpt lat="43.44096" lon="6.24109">
        <ele>251.6</ele>
        <time>2016-10-30T10:58:10Z</time>
      </trkpt>
      <trkpt lat="43.44098" lon="6.24123">
        <ele>252.5</ele>
        <time>2016-10-30T10:58:19Z</time>
      </trkpt>
      <trkpt lat="43.441" lon="6.24136">
        <ele>253.2</ele>
        <time>2016-10-30T10:58:27Z</time>
      </trkpt>
      <trkpt lat="43.44105" lon="6.24147">
        <ele>254</ele>
        <time>2016-10-30T10:58:36Z</time>
      </trkpt>
      <trkpt lat="43.44108" lon="6.24159">
        <ele>255</ele>
        <time>2016-10-30T10:58:43Z</time>
      </trkpt>
      <trkpt lat="43.44111" lon="6.24171">
        <ele>256.7</ele>
        <time>2016-10-30T10:58:53Z</time>
      </trkpt>
      <trkpt lat="43.44111" lon="6.24184">
        <ele>257.8</ele>
        <time>2016-10-30T10:59:04Z</time>
      </trkpt>
      <trkpt lat="43.44111" lon="6.24198">
        <ele>259.4</ele>
        <time>2016-10-30T10:59:17Z</time>
      </trkpt>
      <trkpt lat="43.44106" lon="6.24209">
        <ele>260.8</ele>
        <time>2016-10-30T10:59:29Z</time>
      </trkpt>
      <trkpt lat="43.44102" lon="6.24221">
        <ele>262.4</ele>
        <time>2016-10-30T10:59:40Z</time>
      </trkpt>
      <trkpt lat="43.44101" lon="6.24234">
        <ele>263.6</ele>
        <time>2016-10-30T10:59:48Z</time>
      </trkpt>
      <trkpt lat="43.44103" lon="6.24247">
        <ele>264.9</ele>
        <time>2016-10-30T10:59:57Z</time>
      </trkpt>
      <trkpt lat="43.44101" lon="6.24259">
        <ele>266.2</ele>
        <time>2016-10-30T11:00:07Z</time>
      </trkpt>
      <trkpt lat="43.44102" lon="6.24272">
        <ele>266.9</ele>
        <time>2016-10-30T11:00:14Z</time>
      </trkpt>
      <trkpt lat="43.44107" lon="6.24283">
        <ele>267.6</ele>
        <time>2016-10-30T11:00:23Z</time>
      </trkpt>
      <trkpt lat="43.44109" lon="6.24296">
        <ele>268.4</ele>
        <time>2016-10-30T11:00:39Z</time>
      </trkpt>
      <trkpt lat="43.44116" lon="6.24305">
        <ele>269.3</ele>
        <time>2016-10-30T11:01:08Z</time>
      </trkpt>
      <trkpt lat="43.44121" lon="6.24317">
        <ele>269.4</ele>
        <time>2016-10-30T11:01:18Z</time>
      </trkpt>
      <trkpt lat="43.44129" lon="6.24325">
        <ele>269.5</ele>
        <time>2016-10-30T11:01:25Z</time>
      </trkpt>
      <trkpt lat="43.44134" lon="6.24336">
        <ele>269.8</ele>
        <time>2016-10-30T11:01:35Z</time>
      </trkpt>
      <trkpt lat="43.44141" lon="6.24345">
        <ele>269.8</ele>
        <time>2016-10-30T11:01:43Z</time>
      </trkpt>
      <trkpt lat="43.44148" lon="6.24356">
        <ele>269.9</ele>
        <time>2016-10-30T11:01:52Z</time>
      </trkpt>
      <trkpt lat="43.44152" lon="6.24367">
        <ele>270.1</ele>
        <time>2016-10-30T11:01:59Z</time>
      </trkpt>
      <trkpt lat="43.44158" lon="6.24376">
        <ele>270</ele>
        <time>2016-10-30T11:02:06Z</time>
      </trkpt>
      <trkpt lat="43.44166" lon="6.24386">
        <ele>270.4</ele>
        <time>2016-10-30T11:02:16Z</time>
      </trkpt>
      <trkpt lat="43.44172" lon="6.24395">
        <ele>270.9</ele>
        <time>2016-10-30T11:02:25Z</time>
      </trkpt>
      <trkpt lat="43.44179" lon="6.24403">
        <ele>271</ele>
        <time>2016-10-30T11:02:33Z</time>
      </trkpt>
      <trkpt lat="43.44187" lon="6.24412">
        <ele>271.3</ele>
        <time>2016-10-30T11:02:41Z</time>
      </trkpt>
      <trkpt lat="43.44195" lon="6.24419">
        <ele>271.9</ele>
        <time>2016-10-30T11:02:50Z</time>
      </trkpt>
      <trkpt lat="43.44203" lon="6.24425">
        <ele>272.5</ele>
        <time>2016-10-30T11:03:03Z</time>
      </trkpt>
      <trkpt lat="43.44212" lon="6.24429">
        <ele>273.2</ele>
        <time>2016-10-30T11:03:11Z</time>
      </trkpt>
      <trkpt lat="43.44221" lon="6.2443">
        <ele>274.2</ele>
        <time>2016-10-30T11:03:21Z</time>
      </trkpt>
      <trkpt lat="43.4423" lon="6.24435">
        <ele>274.9</ele>
        <time>2016-10-30T11:03:29Z</time>
      </trkpt>
      <trkpt lat="43.44239" lon="6.24437">
        <ele>275.2</ele>
        <time>2016-10-30T11:03:37Z</time>
      </trkpt>
      <trkpt lat="43.44247" lon="6.24444">
        <ele>275.9</ele>
        <time>2016-10-30T11:03:49Z</time>
      </trkpt>
      <trkpt lat="43.44255" lon="6.24451">
        <ele>276.5</ele>
        <time>2016-10-30T11:03:57Z</time>
      </trkpt>
      <trkpt lat="43.44263" lon="6.24445">
        <ele>277.2</ele>
        <time>2016-10-30T11:04:08Z</time>
      </trkpt>
      <trkpt lat="43.44272" lon="6.24452">
        <ele>278.2</ele>
        <time>2016-10-30T11:04:22Z</time>
      </trkpt>
      <trkpt lat="43.44281" lon="6.24458">
        <ele>279</ele>
        <time>2016-10-30T11:04:32Z</time>
      </trkpt>
      <trkpt lat="43.4429" lon="6.24464">
        <ele>279.7</ele>
        <time>2016-10-30T11:04:41Z</time>
      </trkpt>
      <trkpt lat="43.44299" lon="6.24469">
        <ele>280.3</ele>
        <time>2016-10-30T11:04:53Z</time>
      </trkpt>
      <trkpt lat="43.44308" lon="6.24473">
        <ele>281</ele>
        <time>2016-10-30T11:05:02Z</time>
      </trkpt>
      <trkpt lat="43.44318" lon="6.24474">
        <ele>281.4</ele>
        <time>2016-10-30T11:05:11Z</time>
      </trkpt>
      <trkpt lat="43.44325" lon="6.24482">
        <ele>281.9</ele>
        <time>2016-10-30T11:05:23Z</time>
      </trkpt>
      <trkpt lat="43.44334" lon="6.24489">
        <ele>282.3</ele>
        <time>2016-10-30T11:05:31Z</time>
      </trkpt>
      <trkpt lat="43.44338" lon="6.245">
        <ele>282.5</ele>
        <time>2016-10-30T11:05:42Z</time>
      </trkpt>
      <trkpt lat="43.44343" lon="6.24511">
        <ele>282.9</ele>
        <time>2016-10-30T11:05:53Z</time>
      </trkpt>
      <trkpt lat="43.4434" lon="6.24525">
        <ele>283.5</ele>
        <time>2016-10-30T11:06:02Z</time>
      </trkpt>
      <trkpt lat="43.44341" lon="6.24537">
        <ele>284.1</ele>
        <time>2016-10-30T11:06:10Z</time>
      </trkpt>
      <trkpt lat="43.4434" lon="6.2455">
        <ele>285</ele>
        <time>2016-10-30T11:06:20Z</time>
      </trkpt>
      <trkpt lat="43.44341" lon="6.24564">
        <ele>285.7</ele>
        <time>2016-10-30T11:06:29Z</time>
      </trkpt>
      <trkpt lat="43.44338" lon="6.24577">
        <ele>286.1</ele>
        <time>2016-10-30T11:06:36Z</time>
      </trkpt>
      <trkpt lat="43.44339" lon="6.24591">
        <ele>286.6</ele>
        <time>2016-10-30T11:06:45Z</time>
      </trkpt>
      <trkpt lat="43.44339" lon="6.24604">
        <ele>287.1</ele>
        <time>2016-10-30T11:06:54Z</time>
      </trkpt>
      <trkpt lat="43.44341" lon="6.24617">
        <ele>287.6</ele>
        <time>2016-10-30T11:07:03Z</time>
      </trkpt>
      <trkpt lat="43.4434" lon="6.24631">
        <ele>288.5</ele>
        <time>2016-10-30T11:07:13Z</time>
      </trkpt>
      <trkpt lat="43.4434" lon="6.24644">
        <ele>289.1</ele>
        <time>2016-10-30T11:07:20Z</time>
      </trkpt>
      <trkpt lat="43.44339" lon="6.24657">
        <ele>289</ele>
        <time>2016-10-30T11:07:29Z</time>
      </trkpt>
      <trkpt lat="43.44342" lon="6.24669">
        <ele>289.5</ele>
        <time>2016-10-30T11:07:43Z</time>
      </trkpt>
      <trkpt lat="43.44343" lon="6.24682">
        <ele>289.9</ele>
        <time>2016-10-30T11:07:52Z</time>
      </trkpt>
      <trkpt lat="43.44341" lon="6.24695">
        <ele>290</ele>
        <time>2016-10-30T11:08:00Z</time>
      </trkpt>
      <trkpt lat="43.4434" lon="6.24708">
        <ele>290.3</ele>
        <time>2016-10-30T11:08:09Z</time>
      </trkpt>
      <trkpt lat="43.44335" lon="6.2472">
        <ele>290.4</ele>
        <time>2016-10-30T11:08:17Z</time>
      </trkpt>
      <trkpt lat="43.44335" lon="6.24734">
        <ele>291.7</ele>
        <time>2016-10-30T11:08:31Z</time>
      </trkpt>
      <trkpt lat="43.44336" lon="6.24747">
        <ele>292.1</ele>
        <time>2016-10-30T11:08:37Z</time>
      </trkpt>
      <trkpt lat="43.44335" lon="6.24759">
        <ele>292.5</ele>
        <time>2016-10-30T11:08:44Z</time>
      </trkpt>
      <trkpt lat="43.44338" lon="6.24771">
        <ele>293.2</ele>
        <time>2016-10-30T11:08:53Z</time>
      </trkpt>
      <trkpt lat="43.44344" lon="6.24781">
        <ele>293.5</ele>
        <time>2016-10-30T11:09:01Z</time>
      </trkpt>
      <trkpt lat="43.44349" lon="6.24792">
        <ele>293.9</ele>
        <time>2016-10-30T11:09:08Z</time>
      </trkpt>
      <trkpt lat="43.44354" lon="6.24804">
        <ele>294.4</ele>
        <time>2016-10-30T11:09:18Z</time>
      </trkpt>
      <trkpt lat="43.44359" lon="6.24815">
        <ele>295.1</ele>
        <time>2016-10-30T11:09:28Z</time>
      </trkpt>
      <trkpt lat="43.44364" lon="6.24826">
        <ele>295.8</ele>
        <time>2016-10-30T11:09:37Z</time>
      </trkpt>
      <trkpt lat="43.44367" lon="6.24838">
        <ele>296.7</ele>
        <time>2016-10-30T11:09:49Z</time>
      </trkpt>
      <trkpt lat="43.4437" lon="6.2485">
        <ele>297.2</ele>
        <time>2016-10-30T11:09:56Z</time>
      </trkpt>
      <trkpt lat="43.44373" lon="6.24861">
        <ele>297.2</ele>
        <time>2016-10-30T11:10:05Z</time>
      </trkpt>
      <trkpt lat="43.44374" lon="6.24874">
        <ele>297</ele>
        <time>2016-10-30T11:10:18Z</time>
      </trkpt>
      <trkpt lat="43.44365" lon="6.24869">
        <ele>296.6</ele>
        <time>2016-10-30T11:10:54Z</time>
      </trkpt>
      <trkpt lat="43.44356" lon="6.24864">
        <ele>297.3</ele>
        <time>2016-10-30T11:11:01Z</time>
      </trkpt>
      <trkpt lat="43.44346" lon="6.24866">
        <ele>298.3</ele>
        <time>2016-10-30T11:11:11Z</time>
      </trkpt>
      <trkpt lat="43.44339" lon="6.24873">
        <ele>299.2</ele>
        <time>2016-10-30T11:11:22Z</time>
      </trkpt>
      <trkpt lat="43.4434" lon="6.24885">
        <ele>299.6</ele>
        <time>2016-10-30T11:11:28Z</time>
      </trkpt>
      <trkpt lat="43.44341" lon="6.24899">
        <ele>300</ele>
        <time>2016-10-30T11:11:35Z</time>
      </trkpt>
      <trkpt lat="43.44343" lon="6.24913">
        <ele>300.7</ele>
        <time>2016-10-30T11:11:44Z</time>
      </trkpt>
      <trkpt lat="43.44346" lon="6.24925">
        <ele>301.4</ele>
        <time>2016-10-30T11:11:53Z</time>
      </trkpt>
      <trkpt lat="43.4435" lon="6.24936">
        <ele>301.8</ele>
        <time>2016-10-30T11:12:02Z</time>
      </trkpt>
      <trkpt lat="43.44354" lon="6.24948">
        <ele>302.2</ele>
        <time>2016-10-30T11:12:13Z</time>
      </trkpt>
      <trkpt lat="43.44356" lon="6.24961">
        <ele>302.5</ele>
        <time>2016-10-30T11:12:22Z</time>
      </trkpt>
      <trkpt lat="43.44354" lon="6.24973">
        <ele>302.8</ele>
        <time>2016-10-30T11:12:34Z</time>
      </trkpt>
      <trkpt lat="43.44348" lon="6.24983">
        <ele>303.6</ele>
        <time>2016-10-30T11:12:47Z</time>
      </trkpt>
      <trkpt lat="43.44346" lon="6.24996">
        <ele>304.7</ele>
        <time>2016-10-30T11:12:58Z</time>
      </trkpt>
      <trkpt lat="43.44343" lon="6.25008">
        <ele>306.3</ele>
        <time>2016-10-30T11:13:11Z</time>
      </trkpt>
      <trkpt lat="43.44336" lon="6.25015">
        <ele>307.6</ele>
        <time>2016-10-30T11:13:28Z</time>
      </trkpt>
      <trkpt lat="43.44326" lon="6.25018">
        <ele>308.9</ele>
        <time>2016-10-30T11:13:38Z</time>
      </trkpt>
      <trkpt lat="43.44321" lon="6.25028">
        <ele>310.1</ele>
        <time>2016-10-30T11:13:50Z</time>
      </trkpt>
      <trkpt lat="43.44316" lon="6.2504">
        <ele>311.2</ele>
        <time>2016-10-30T11:14:00Z</time>
      </trkpt>
      <trkpt lat="43.4431" lon="6.2505">
        <ele>312</ele>
        <time>2016-10-30T11:14:09Z</time>
      </trkpt>
      <trkpt lat="43.44303" lon="6.25057">
        <ele>313.2</ele>
        <time>2016-10-30T11:14:22Z</time>
      </trkpt>
      <trkpt lat="43.44294" lon="6.25052">
        <ele>314</ele>
        <time>2016-10-30T11:14:34Z</time>
      </trkpt>
      <trkpt lat="43.44286" lon="6.25057">
        <ele>314.9</ele>
        <time>2016-10-30T11:14:48Z</time>
      </trkpt>
      <trkpt lat="43.44282" lon="6.25046">
        <ele>315.4</ele>
        <time>2016-10-30T11:15:12Z</time>
      </trkpt>
      <trkpt lat="43.44277" lon="6.25057">
        <ele>315.4</ele>
        <time>2016-10-30T11:16:13Z</time>
      </trkpt>
      <trkpt lat="43.44274" lon="6.25069">
        <ele>315.7</ele>
        <time>2016-10-30T11:16:24Z</time>
      </trkpt>
      <trkpt lat="43.44266" lon="6.25076">
        <ele>316.8</ele>
        <time>2016-10-30T11:17:05Z</time>
      </trkpt>
      <trkpt lat="43.44257" lon="6.25073">
        <ele>316.9</ele>
        <time>2016-10-30T11:17:14Z</time>
      </trkpt>
      <trkpt lat="43.44248" lon="6.25071">
        <ele>317.1</ele>
        <time>2016-10-30T11:17:25Z</time>
      </trkpt>
      <trkpt lat="43.44238" lon="6.25069">
        <ele>317.7</ele>
        <time>2016-10-30T11:17:34Z</time>
      </trkpt>
      <trkpt lat="43.44229" lon="6.25067">
        <ele>318.3</ele>
        <time>2016-10-30T11:17:45Z</time>
      </trkpt>
      <trkpt lat="43.44219" lon="6.25065">
        <ele>318.5</ele>
        <time>2016-10-30T11:17:54Z</time>
      </trkpt>
      <trkpt lat="43.44212" lon="6.25075">
        <ele>318.8</ele>
        <time>2016-10-30T11:18:02Z</time>
      </trkpt>
      <trkpt lat="43.44211" lon="6.25088">
        <ele>319</ele>
        <time>2016-10-30T11:18:09Z</time>
      </trkpt>
      <trkpt lat="43.44214" lon="6.25101">
        <ele>319.5</ele>
        <time>2016-10-30T11:18:18Z</time>
      </trkpt>
      <trkpt lat="43.44215" lon="6.25114">
        <ele>320.2</ele>
        <time>2016-10-30T11:18:28Z</time>
      </trkpt>
      <trkpt lat="43.44217" lon="6.25126">
        <ele>320.8</ele>
        <time>2016-10-30T11:18:39Z</time>
      </trkpt>
      <trkpt lat="43.44218" lon="6.25139">
        <ele>321.2</ele>
        <time>2016-10-30T11:18:50Z</time>
      </trkpt>
      <trkpt lat="43.44219" lon="6.25152">
        <ele>321.9</ele>
        <time>2016-10-30T11:19:01Z</time>
      </trkpt>
      <trkpt lat="43.44217" lon="6.25165">
        <ele>322.3</ele>
        <time>2016-10-30T11:19:11Z</time>
      </trkpt>
      <trkpt lat="43.44218" lon="6.25178">
        <ele>322.6</ele>
        <time>2016-10-30T11:19:20Z</time>
      </trkpt>
      <trkpt lat="43.44217" lon="6.25191">
        <ele>323.1</ele>
        <time>2016-10-30T11:19:31Z</time>
      </trkpt>
      <trkpt lat="43.44215" lon="6.25203">
        <ele>324</ele>
        <time>2016-10-30T11:19:42Z</time>
      </trkpt>
      <trkpt lat="43.44215" lon="6.25216">
        <ele>324.4</ele>
        <time>2016-10-30T11:19:50Z</time>
      </trkpt>
      <trkpt lat="43.44214" lon="6.25229">
        <ele>325</ele>
        <time>2016-10-30T11:19:58Z</time>
      </trkpt>
      <trkpt lat="43.44207" lon="6.25238">
        <ele>326.5</ele>
        <time>2016-10-30T11:20:14Z</time>
      </trkpt>
      <trkpt lat="43.44201" lon="6.25247">
        <ele>327.4</ele>
        <time>2016-10-30T11:20:26Z</time>
      </trkpt>
      <trkpt lat="43.44194" lon="6.25256">
        <ele>328.2</ele>
        <time>2016-10-30T11:20:35Z</time>
      </trkpt>
      <trkpt lat="43.44192" lon="6.25269">
        <ele>329.1</ele>
        <time>2016-10-30T11:20:45Z</time>
      </trkpt>
      <trkpt lat="43.44193" lon="6.25282">
        <ele>329.5</ele>
        <time>2016-10-30T11:20:54Z</time>
      </trkpt>
      <trkpt lat="43.44195" lon="6.25295">
        <ele>330.6</ele>
        <time>2016-10-30T11:21:04Z</time>
      </trkpt>
      <trkpt lat="43.44199" lon="6.25307">
        <ele>330.9</ele>
        <time>2016-10-30T11:21:13Z</time>
      </trkpt>
      <trkpt lat="43.442" lon="6.2532">
        <ele>331.3</ele>
        <time>2016-10-30T11:21:22Z</time>
      </trkpt>
      <trkpt lat="43.44199" lon="6.25332">
        <ele>331.5</ele>
        <time>2016-10-30T11:21:32Z</time>
      </trkpt>
      <trkpt lat="43.44194" lon="6.25344">
        <ele>331.9</ele>
        <time>2016-10-30T11:21:40Z</time>
      </trkpt>
      <trkpt lat="43.44192" lon="6.25358">
        <ele>332.4</ele>
        <time>2016-10-30T11:21:52Z</time>
      </trkpt>
      <trkpt lat="43.44191" lon="6.2537">
        <ele>332.6</ele>
        <time>2016-10-30T11:22:01Z</time>
      </trkpt>
      <trkpt lat="43.44194" lon="6.25383">
        <ele>333.2</ele>
        <time>2016-10-30T11:22:09Z</time>
      </trkpt>
      <trkpt lat="43.44196" lon="6.25396">
        <ele>333.9</ele>
        <time>2016-10-30T11:22:19Z</time>
      </trkpt>
      <trkpt lat="43.44189" lon="6.25406">
        <ele>334.2</ele>
        <time>2016-10-30T11:22:29Z</time>
      </trkpt>
      <trkpt lat="43.44183" lon="6.25417">
        <ele>334.3</ele>
        <time>2016-10-30T11:22:37Z</time>
      </trkpt>
      <trkpt lat="43.44176" lon="6.25426">
        <ele>334.2</ele>
        <time>2016-10-30T11:22:45Z</time>
      </trkpt>
      <trkpt lat="43.44178" lon="6.25438">
        <ele>335.3</ele>
        <time>2016-10-30T11:23:05Z</time>
      </trkpt>
      <trkpt lat="43.44176" lon="6.25451">
        <ele>336.5</ele>
        <time>2016-10-30T11:23:38Z</time>
      </trkpt>
      <trkpt lat="43.4418" lon="6.25463">
        <ele>335.3</ele>
        <time>2016-10-30T11:25:17Z</time>
      </trkpt>
      <trkpt lat="43.44171" lon="6.25463">
        <ele>336.9</ele>
        <time>2016-10-30T11:28:26Z</time>
      </trkpt>
      <trkpt lat="43.44176" lon="6.25452">
        <ele>336.9</ele>
        <time>2016-10-30T11:32:31Z</time>
      </trkpt>
      <trkpt lat="43.44173" lon="6.25464">
        <ele>336.9</ele>
        <time>2016-10-30T11:34:40Z</time>
      </trkpt>
      <trkpt lat="43.44167" lon="6.25474">
        <ele>335.4</ele>
        <time>2016-10-30T11:41:51Z</time>
      </trkpt>
      <trkpt lat="43.44177" lon="6.25473">
        <ele>335.5</ele>
        <time>2016-10-30T11:42:04Z</time>
      </trkpt>
      <trkpt lat="43.44174" lon="6.25485">
        <ele>337.1</ele>
        <time>2016-10-30T11:46:51Z</time>
      </trkpt>
      <trkpt lat="43.44179" lon="6.25475">
        <ele>337</ele>
        <time>2016-10-30T11:47:32Z</time>
      </trkpt>
      <trkpt lat="43.4418" lon="6.25463">
        <ele>337.1</ele>
        <time>2016-10-30T11:48:10Z</time>
      </trkpt>
      <trkpt lat="43.44171" lon="6.2546">
        <ele>336.5</ele>
        <time>2016-10-30T11:49:32Z</time>
      </trkpt>
      <trkpt lat="43.44174" lon="6.25472">
        <ele>336.8</ele>
        <time>2016-10-30T11:50:51Z</time>
      </trkpt>
      <trkpt lat="43.44175" lon="6.2546">
        <ele>337.5</ele>
        <time>2016-10-30T11:53:17Z</time>
      </trkpt>
      <trkpt lat="43.44173" lon="6.25473">
        <ele>337.4</ele>
        <time>2016-10-30T11:54:02Z</time>
      </trkpt>
      <trkpt lat="43.4418" lon="6.25463">
        <ele>337.5</ele>
        <time>2016-10-30T11:54:53Z</time>
      </trkpt>
      <trkpt lat="43.44171" lon="6.25469">
        <ele>337.8</ele>
        <time>2016-10-30T11:57:42Z</time>
      </trkpt>
      <trkpt lat="43.44167" lon="6.25457">
        <ele>337.9</ele>
        <time>2016-10-30T11:58:09Z</time>
      </trkpt>
      <trkpt lat="43.44175" lon="6.25465">
        <ele>338</ele>
        <time>2016-10-30T11:58:23Z</time>
      </trkpt>
      <trkpt lat="43.44175" lon="6.25479">
        <ele>338.1</ele>
        <time>2016-10-30T11:58:35Z</time>
      </trkpt>
      <trkpt lat="43.44172" lon="6.25467">
        <ele>338.2</ele>
        <time>2016-10-30T11:59:11Z</time>
      </trkpt>
      <trkpt lat="43.44181" lon="6.25464">
        <ele>338.7</ele>
        <time>2016-10-30T12:01:21Z</time>
      </trkpt>
      <trkpt lat="43.44173" lon="6.25471">
        <ele>338.8</ele>
        <time>2016-10-30T12:01:44Z</time>
      </trkpt>
      <trkpt lat="43.44181" lon="6.25464">
        <ele>338.5</ele>
        <time>2016-10-30T12:02:40Z</time>
      </trkpt>
      <trkpt lat="43.44174" lon="6.25455">
        <ele>338.7</ele>
        <time>2016-10-30T12:03:58Z</time>
      </trkpt>
      <trkpt lat="43.44168" lon="6.25465">
        <ele>338.4</ele>
        <time>2016-10-30T12:04:16Z</time>
      </trkpt>
      <trkpt lat="43.44171" lon="6.25453">
        <ele>338.4</ele>
        <time>2016-10-30T12:05:34Z</time>
      </trkpt>
      <trkpt lat="43.44174" lon="6.25466">
        <ele>338.5</ele>
        <time>2016-10-30T12:05:48Z</time>
      </trkpt>
      <trkpt lat="43.44183" lon="6.25462">
        <ele>338.8</ele>
        <time>2016-10-30T12:06:26Z</time>
      </trkpt>
      <trkpt lat="43.44174" lon="6.25464">
        <ele>339.3</ele>
        <time>2016-10-30T12:08:14Z</time>
      </trkpt>
      <trkpt lat="43.4417" lon="6.25477">
        <ele>339.3</ele>
        <time>2016-10-30T12:10:43Z</time>
      </trkpt>
      <trkpt lat="43.44174" lon="6.25466">
        <ele>339.6</ele>
        <time>2016-10-30T12:10:54Z</time>
      </trkpt>
      <trkpt lat="43.44182" lon="6.25458">
        <ele>339.8</ele>
        <time>2016-10-30T12:11:39Z</time>
      </trkpt>
      <trkpt lat="43.44173" lon="6.25464">
        <ele>340.1</ele>
        <time>2016-10-30T12:13:31Z</time>
      </trkpt>
      <trkpt lat="43.44182" lon="6.25458">
        <ele>340.1</ele>
        <time>2016-10-30T12:13:56Z</time>
      </trkpt>
      <trkpt lat="43.44172" lon="6.25462">
        <ele>340.1</ele>
        <time>2016-10-30T12:14:08Z</time>
      </trkpt>
      <trkpt lat="43.44181" lon="6.25464">
        <ele>340.1</ele>
        <time>2016-10-30T12:14:38Z</time>
      </trkpt>
      <trkpt lat="43.44172" lon="6.25463">
        <ele>340.8</ele>
        <time>2016-10-30T12:18:19Z</time>
      </trkpt>
      <trkpt lat="43.44165" lon="6.25455">
        <ele>340.9</ele>
        <time>2016-10-30T12:19:03Z</time>
      </trkpt>
      <trkpt lat="43.44161" lon="6.25443">
        <ele>340.7</ele>
        <time>2016-10-30T12:20:06Z</time>
      </trkpt>
      <trkpt lat="43.44169" lon="6.25454">
        <ele>340.7</ele>
        <time>2016-10-30T12:20:23Z</time>
      </trkpt>
      <trkpt lat="43.44168" lon="6.25466">
        <ele>340.9</ele>
        <time>2016-10-30T12:21:30Z</time>
      </trkpt>
      <trkpt lat="43.44172" lon="6.25454">
        <ele>341</ele>
        <time>2016-10-30T12:22:26Z</time>
      </trkpt>
      <trkpt lat="43.44171" lon="6.25467">
        <ele>341.1</ele>
        <time>2016-10-30T12:23:18Z</time>
      </trkpt>
      <trkpt lat="43.44179" lon="6.2546">
        <ele>341.5</ele>
        <time>2016-10-30T12:23:51Z</time>
      </trkpt>
      <trkpt lat="43.44178" lon="6.25448">
        <ele>341.5</ele>
        <time>2016-10-30T12:30:18Z</time>
      </trkpt>
      <trkpt lat="43.44175" lon="6.2546">
        <ele>341.6</ele>
        <time>2016-10-30T12:31:21Z</time>
      </trkpt>
      <trkpt lat="43.44177" lon="6.25473">
        <ele>341.8</ele>
        <time>2016-10-30T12:31:39Z</time>
      </trkpt>
      <trkpt lat="43.44182" lon="6.25484">
        <ele>342.1</ele>
        <time>2016-10-30T12:31:47Z</time>
      </trkpt>
      <trkpt lat="43.44184" lon="6.25496">
        <ele>342.2</ele>
        <time>2016-10-30T12:31:53Z</time>
      </trkpt>
      <trkpt lat="43.44186" lon="6.25509">
        <ele>342.4</ele>
        <time>2016-10-30T12:32:01Z</time>
      </trkpt>
      <trkpt lat="43.44194" lon="6.25516">
        <ele>342.6</ele>
        <time>2016-10-30T12:32:13Z</time>
      </trkpt>
      <trkpt lat="43.44198" lon="6.25528">
        <ele>342.8</ele>
        <time>2016-10-30T12:32:28Z</time>
      </trkpt>
      <trkpt lat="43.44203" lon="6.25538">
        <ele>342.9</ele>
        <time>2016-10-30T12:32:43Z</time>
      </trkpt>
      <trkpt lat="43.4421" lon="6.25548">
        <ele>343</ele>
        <time>2016-10-30T12:33:00Z</time>
      </trkpt>
      <trkpt lat="43.44214" lon="6.25561">
        <ele>343.1</ele>
        <time>2016-10-30T12:33:12Z</time>
      </trkpt>
      <trkpt lat="43.44218" lon="6.25572">
        <ele>343.3</ele>
        <time>2016-10-30T12:33:26Z</time>
      </trkpt>
      <trkpt lat="43.44223" lon="6.25584">
        <ele>343.8</ele>
        <time>2016-10-30T12:33:34Z</time>
      </trkpt>
      <trkpt lat="43.44224" lon="6.25597">
        <ele>344.2</ele>
        <time>2016-10-30T12:33:40Z</time>
      </trkpt>
      <trkpt lat="43.4423" lon="6.25608">
        <ele>344.6</ele>
        <time>2016-10-30T12:33:52Z</time>
      </trkpt>
      <trkpt lat="43.44233" lon="6.2562">
        <ele>344.8</ele>
        <time>2016-10-30T12:34:00Z</time>
      </trkpt>
      <trkpt lat="43.44241" lon="6.2563">
        <ele>345.1</ele>
        <time>2016-10-30T12:34:11Z</time>
      </trkpt>
      <trkpt lat="43.44244" lon="6.25642">
        <ele>345.6</ele>
        <time>2016-10-30T12:34:20Z</time>
      </trkpt>
      <trkpt lat="43.44252" lon="6.25637">
        <ele>346.5</ele>
        <time>2016-10-30T12:34:47Z</time>
      </trkpt>
      <trkpt lat="43.44259" lon="6.25646">
        <ele>347</ele>
        <time>2016-10-30T12:35:18Z</time>
      </trkpt>
      <trkpt lat="43.44268" lon="6.25652">
        <ele>347.4</ele>
        <time>2016-10-30T12:35:28Z</time>
      </trkpt>
      <trkpt lat="43.44271" lon="6.25665">
        <ele>348</ele>
        <time>2016-10-30T12:35:37Z</time>
      </trkpt>
      <trkpt lat="43.4428" lon="6.25667">
        <ele>348.8</ele>
        <time>2016-10-30T12:35:48Z</time>
      </trkpt>
      <trkpt lat="43.44289" lon="6.25671">
        <ele>349.6</ele>
        <time>2016-10-30T12:36:02Z</time>
      </trkpt>
      <trkpt lat="43.4429" lon="6.25684">
        <ele>350</ele>
        <time>2016-10-30T12:36:21Z</time>
      </trkpt>
      <trkpt lat="43.44297" lon="6.25693">
        <ele>350</ele>
        <time>2016-10-30T12:36:34Z</time>
      </trkpt>
      <trkpt lat="43.44302" lon="6.25704">
        <ele>350.2</ele>
        <time>2016-10-30T12:36:41Z</time>
      </trkpt>
      <trkpt lat="43.44305" lon="6.25717">
        <ele>350.4</ele>
        <time>2016-10-30T12:36:50Z</time>
      </trkpt>
      <trkpt lat="43.44309" lon="6.25729">
        <ele>350.5</ele>
        <time>2016-10-30T12:37:01Z</time>
      </trkpt>
      <trkpt lat="43.44311" lon="6.25741">
        <ele>350.7</ele>
        <time>2016-10-30T12:37:09Z</time>
      </trkpt>
      <trkpt lat="43.44314" lon="6.25753">
        <ele>350.9</ele>
        <time>2016-10-30T12:37:18Z</time>
      </trkpt>
      <trkpt lat="43.44315" lon="6.25767">
        <ele>351.9</ele>
        <time>2016-10-30T12:37:27Z</time>
      </trkpt>
      <trkpt lat="43.44316" lon="6.25779">
        <ele>352.8</ele>
        <time>2016-10-30T12:37:39Z</time>
      </trkpt>
      <trkpt lat="43.44313" lon="6.25792">
        <ele>353.4</ele>
        <time>2016-10-30T12:37:50Z</time>
      </trkpt>
      <trkpt lat="43.44311" lon="6.25805">
        <ele>353.9</ele>
        <time>2016-10-30T12:37:58Z</time>
      </trkpt>
      <trkpt lat="43.44308" lon="6.25818">
        <ele>354.5</ele>
        <time>2016-10-30T12:38:07Z</time>
      </trkpt>
      <trkpt lat="43.44307" lon="6.25832">
        <ele>354.8</ele>
        <time>2016-10-30T12:38:15Z</time>
      </trkpt>
      <trkpt lat="43.44305" lon="6.25846">
        <ele>355</ele>
        <time>2016-10-30T12:38:26Z</time>
      </trkpt>
      <trkpt lat="43.44302" lon="6.25858">
        <ele>355.1</ele>
        <time>2016-10-30T12:38:33Z</time>
      </trkpt>
      <trkpt lat="43.44301" lon="6.25871">
        <ele>355.3</ele>
        <time>2016-10-30T12:38:40Z</time>
      </trkpt>
      <trkpt lat="43.44301" lon="6.25886">
        <ele>355.5</ele>
        <time>2016-10-30T12:38:48Z</time>
      </trkpt>
      <trkpt lat="43.44303" lon="6.25898">
        <ele>355.5</ele>
        <time>2016-10-30T12:38:56Z</time>
      </trkpt>
      <trkpt lat="43.44307" lon="6.2591">
        <ele>355.5</ele>
        <time>2016-10-30T12:39:03Z</time>
      </trkpt>
      <trkpt lat="43.44312" lon="6.25921">
        <ele>355.4</ele>
        <time>2016-10-30T12:39:11Z</time>
      </trkpt>
      <trkpt lat="43.44318" lon="6.25931">
        <ele>355.3</ele>
        <time>2016-10-30T12:39:19Z</time>
      </trkpt>
      <trkpt lat="43.44322" lon="6.25942">
        <ele>355.2</ele>
        <time>2016-10-30T12:39:27Z</time>
      </trkpt>
      <trkpt lat="43.44325" lon="6.25955">
        <ele>355.2</ele>
        <time>2016-10-30T12:39:39Z</time>
      </trkpt>
      <trkpt lat="43.44328" lon="6.25966">
        <ele>355</ele>
        <time>2016-10-30T12:39:46Z</time>
      </trkpt>
      <trkpt lat="43.44332" lon="6.2598">
        <ele>353.9</ele>
        <time>2016-10-30T12:40:00Z</time>
      </trkpt>
      <trkpt lat="43.44334" lon="6.25994">
        <ele>353.2</ele>
        <time>2016-10-30T12:40:08Z</time>
      </trkpt>
      <trkpt lat="43.44334" lon="6.26006">
        <ele>352.1</ele>
        <time>2016-10-30T12:40:19Z</time>
      </trkpt>
      <trkpt lat="43.44336" lon="6.26019">
        <ele>351.3</ele>
        <time>2016-10-30T12:40:28Z</time>
      </trkpt>
      <trkpt lat="43.44335" lon="6.26031">
        <ele>351</ele>
        <time>2016-10-30T12:40:36Z</time>
      </trkpt>
      <trkpt lat="43.44334" lon="6.26044">
        <ele>350.4</ele>
        <time>2016-10-30T12:40:47Z</time>
      </trkpt>
      <trkpt lat="43.44336" lon="6.26057">
        <ele>350.1</ele>
        <time>2016-10-30T12:40:57Z</time>
      </trkpt>
      <trkpt lat="43.44335" lon="6.26071">
        <ele>349.9</ele>
        <time>2016-10-30T12:41:06Z</time>
      </trkpt>
      <trkpt lat="43.44335" lon="6.26085">
        <ele>349.9</ele>
        <time>2016-10-30T12:41:15Z</time>
      </trkpt>
      <trkpt lat="43.44335" lon="6.26097">
        <ele>350</ele>
        <time>2016-10-30T12:41:21Z</time>
      </trkpt>
      <trkpt lat="43.44336" lon="6.2611">
        <ele>350.1</ele>
        <time>2016-10-30T12:41:28Z</time>
      </trkpt>
      <trkpt lat="43.44336" lon="6.26123">
        <ele>350.3</ele>
        <time>2016-10-30T12:41:36Z</time>
      </trkpt>
      <trkpt lat="43.44335" lon="6.26136">
        <ele>350.4</ele>
        <time>2016-10-30T12:41:49Z</time>
      </trkpt>
      <trkpt lat="43.44337" lon="6.26149">
        <ele>350.4</ele>
        <time>2016-10-30T12:41:59Z</time>
      </trkpt>
      <trkpt lat="43.44338" lon="6.26163">
        <ele>350.3</ele>
        <time>2016-10-30T12:42:22Z</time>
      </trkpt>
      <trkpt lat="43.44338" lon="6.26178">
        <ele>350.7</ele>
        <time>2016-10-30T12:42:30Z</time>
      </trkpt>
      <trkpt lat="43.44336" lon="6.2619">
        <ele>351.1</ele>
        <time>2016-10-30T12:42:40Z</time>
      </trkpt>
      <trkpt lat="43.4434" lon="6.26203">
        <ele>352</ele>
        <time>2016-10-30T12:42:52Z</time>
      </trkpt>
      <trkpt lat="43.44339" lon="6.26216">
        <ele>352.8</ele>
        <time>2016-10-30T12:42:58Z</time>
      </trkpt>
      <trkpt lat="43.44345" lon="6.26226">
        <ele>354.2</ele>
        <time>2016-10-30T12:43:12Z</time>
      </trkpt>
      <trkpt lat="43.44353" lon="6.26233">
        <ele>354.9</ele>
        <time>2016-10-30T12:43:21Z</time>
      </trkpt>
      <trkpt lat="43.44359" lon="6.26243">
        <ele>355.5</ele>
        <time>2016-10-30T12:43:30Z</time>
      </trkpt>
      <trkpt lat="43.44367" lon="6.2625">
        <ele>355.6</ele>
        <time>2016-10-30T12:43:38Z</time>
      </trkpt>
      <trkpt lat="43.44375" lon="6.26255">
        <ele>356</ele>
        <time>2016-10-30T12:43:47Z</time>
      </trkpt>
      <trkpt lat="43.44382" lon="6.26265">
        <ele>356.5</ele>
        <time>2016-10-30T12:43:55Z</time>
      </trkpt>
      <trkpt lat="43.4439" lon="6.26274">
        <ele>356.4</ele>
        <time>2016-10-30T12:44:04Z</time>
      </trkpt>
      <trkpt lat="43.444" lon="6.26273">
        <ele>356.4</ele>
        <time>2016-10-30T12:44:12Z</time>
      </trkpt>
      <trkpt lat="43.4441" lon="6.26272">
        <ele>355.9</ele>
        <time>2016-10-30T12:44:21Z</time>
      </trkpt>
      <trkpt lat="43.44419" lon="6.26275">
        <ele>354.6</ele>
        <time>2016-10-30T12:44:31Z</time>
      </trkpt>
      <trkpt lat="43.44428" lon="6.26278">
        <ele>353.8</ele>
        <time>2016-10-30T12:44:38Z</time>
      </trkpt>
      <trkpt lat="43.44437" lon="6.26281">
        <ele>353.3</ele>
        <time>2016-10-30T12:44:46Z</time>
      </trkpt>
      <trkpt lat="43.44445" lon="6.2629">
        <ele>353</ele>
        <time>2016-10-30T12:44:55Z</time>
      </trkpt>
      <trkpt lat="43.44453" lon="6.26296">
        <ele>352.5</ele>
        <time>2016-10-30T12:45:02Z</time>
      </trkpt>
      <trkpt lat="43.44461" lon="6.26302">
        <ele>352.1</ele>
        <time>2016-10-30T12:45:11Z</time>
      </trkpt>
      <trkpt lat="43.4447" lon="6.26301">
        <ele>351.9</ele>
        <time>2016-10-30T12:45:18Z</time>
      </trkpt>
      <trkpt lat="43.44479" lon="6.26306">
        <ele>351.7</ele>
        <time>2016-10-30T12:45:25Z</time>
      </trkpt>
      <trkpt lat="43.44489" lon="6.26309">
        <ele>351.3</ele>
        <time>2016-10-30T12:45:34Z</time>
      </trkpt>
      <trkpt lat="43.44497" lon="6.26313">
        <ele>350.9</ele>
        <time>2016-10-30T12:45:41Z</time>
      </trkpt>
      <trkpt lat="43.44507" lon="6.26318">
        <ele>350.2</ele>
        <time>2016-10-30T12:45:54Z</time>
      </trkpt>
      <trkpt lat="43.44517" lon="6.2632">
        <ele>350</ele>
        <time>2016-10-30T12:46:01Z</time>
      </trkpt>
      <trkpt lat="43.44526" lon="6.26323">
        <ele>349.8</ele>
        <time>2016-10-30T12:46:09Z</time>
      </trkpt>
      <trkpt lat="43.44535" lon="6.26326">
        <ele>349.6</ele>
        <time>2016-10-30T12:46:18Z</time>
      </trkpt>
      <trkpt lat="43.44545" lon="6.26326">
        <ele>349.2</ele>
        <time>2016-10-30T12:46:27Z</time>
      </trkpt>
      <trkpt lat="43.44555" lon="6.26328">
        <ele>348.4</ele>
        <time>2016-10-30T12:46:37Z</time>
      </trkpt>
      <trkpt lat="43.44564" lon="6.26331">
        <ele>348.2</ele>
        <time>2016-10-30T12:46:44Z</time>
      </trkpt>
      <trkpt lat="43.44574" lon="6.26333">
        <ele>347.8</ele>
        <time>2016-10-30T12:46:52Z</time>
      </trkpt>
      <trkpt lat="43.44582" lon="6.26337">
        <ele>347.3</ele>
        <time>2016-10-30T12:47:00Z</time>
      </trkpt>
      <trkpt lat="43.44591" lon="6.26333">
        <ele>346.9</ele>
        <time>2016-10-30T12:47:08Z</time>
      </trkpt>
      <trkpt lat="43.446" lon="6.26332">
        <ele>346.8</ele>
        <time>2016-10-30T12:47:14Z</time>
      </trkpt>
      <trkpt lat="43.4461" lon="6.26329">
        <ele>346.8</ele>
        <time>2016-10-30T12:47:24Z</time>
      </trkpt>
      <trkpt lat="43.44619" lon="6.26332">
        <ele>346.9</ele>
        <time>2016-10-30T12:47:34Z</time>
      </trkpt>
      <trkpt lat="43.44628" lon="6.26336">
        <ele>347.6</ele>
        <time>2016-10-30T12:47:46Z</time>
      </trkpt>
      <trkpt lat="43.44639" lon="6.26336">
        <ele>347.8</ele>
        <time>2016-10-30T12:47:52Z</time>
      </trkpt>
      <trkpt lat="43.44648" lon="6.26334">
        <ele>347.9</ele>
        <time>2016-10-30T12:48:00Z</time>
      </trkpt>
      <trkpt lat="43.44658" lon="6.26335">
        <ele>348.1</ele>
        <time>2016-10-30T12:48:08Z</time>
      </trkpt>
      <trkpt lat="43.44667" lon="6.26337">
        <ele>348.5</ele>
        <time>2016-10-30T12:48:17Z</time>
      </trkpt>
      <trkpt lat="43.44676" lon="6.26337">
        <ele>348.9</ele>
        <time>2016-10-30T12:48:25Z</time>
      </trkpt>
      <trkpt lat="43.44686" lon="6.26335">
        <ele>348.9</ele>
        <time>2016-10-30T12:48:33Z</time>
      </trkpt>
      <trkpt lat="43.44695" lon="6.26336">
        <ele>348.8</ele>
        <time>2016-10-30T12:48:42Z</time>
      </trkpt>
      <trkpt lat="43.44704" lon="6.26342">
        <ele>348.5</ele>
        <time>2016-10-30T12:48:50Z</time>
      </trkpt>
      <trkpt lat="43.44713" lon="6.26346">
        <ele>348.2</ele>
        <time>2016-10-30T12:48:59Z</time>
      </trkpt>
      <trkpt lat="43.44722" lon="6.26344">
        <ele>348</ele>
        <time>2016-10-30T12:49:08Z</time>
      </trkpt>
      <trkpt lat="43.44732" lon="6.26345">
        <ele>347.6</ele>
        <time>2016-10-30T12:49:16Z</time>
      </trkpt>
      <trkpt lat="43.44741" lon="6.26352">
        <ele>347.4</ele>
        <time>2016-10-30T12:49:24Z</time>
      </trkpt>
      <trkpt lat="43.44746" lon="6.26364">
        <ele>347.1</ele>
        <time>2016-10-30T12:49:33Z</time>
      </trkpt>
      <trkpt lat="43.44747" lon="6.26376">
        <ele>346.3</ele>
        <time>2016-10-30T12:49:44Z</time>
      </trkpt>
      <trkpt lat="43.44752" lon="6.26388">
        <ele>345.6</ele>
        <time>2016-10-30T12:49:52Z</time>
      </trkpt>
      <trkpt lat="43.44755" lon="6.264">
        <ele>345</ele>
        <time>2016-10-30T12:50:02Z</time>
      </trkpt>
      <trkpt lat="43.44758" lon="6.26412">
        <ele>344.8</ele>
        <time>2016-10-30T12:50:07Z</time>
      </trkpt>
      <trkpt lat="43.44764" lon="6.26423">
        <ele>344.5</ele>
        <time>2016-10-30T12:50:16Z</time>
      </trkpt>
      <trkpt lat="43.4477" lon="6.26435">
        <ele>344.3</ele>
        <time>2016-10-30T12:50:24Z</time>
      </trkpt>
      <trkpt lat="43.44774" lon="6.26447">
        <ele>344.1</ele>
        <time>2016-10-30T12:50:32Z</time>
      </trkpt>
      <trkpt lat="43.44779" lon="6.26457">
        <ele>344</ele>
        <time>2016-10-30T12:50:40Z</time>
      </trkpt>
      <trkpt lat="43.44785" lon="6.26466">
        <ele>343.6</ele>
        <time>2016-10-30T12:50:49Z</time>
      </trkpt>
      <trkpt lat="43.44792" lon="6.26476">
        <ele>343.3</ele>
        <time>2016-10-30T12:50:58Z</time>
      </trkpt>
      <trkpt lat="43.44798" lon="6.26487">
        <ele>343.1</ele>
        <time>2016-10-30T12:51:06Z</time>
      </trkpt>
      <trkpt lat="43.44805" lon="6.26495">
        <ele>342.7</ele>
        <time>2016-10-30T12:51:13Z</time>
      </trkpt>
      <trkpt lat="43.44808" lon="6.26507">
        <ele>342.8</ele>
        <time>2016-10-30T12:51:20Z</time>
      </trkpt>
      <trkpt lat="43.44814" lon="6.26517">
        <ele>342.8</ele>
        <time>2016-10-30T12:51:27Z</time>
      </trkpt>
      <trkpt lat="43.44819" lon="6.26529">
        <ele>343.2</ele>
        <time>2016-10-30T12:51:35Z</time>
      </trkpt>
      <trkpt lat="43.44825" lon="6.26539">
        <ele>343.1</ele>
        <time>2016-10-30T12:51:44Z</time>
      </trkpt>
      <trkpt lat="43.4483" lon="6.2655">
        <ele>342.8</ele>
        <time>2016-10-30T12:51:54Z</time>
      </trkpt>
      <trkpt lat="43.44832" lon="6.26563">
        <ele>343</ele>
        <time>2016-10-30T12:52:04Z</time>
      </trkpt>
      <trkpt lat="43.4483" lon="6.26577">
        <ele>341.9</ele>
        <time>2016-10-30T12:52:17Z</time>
      </trkpt>
      <trkpt lat="43.44827" lon="6.26588">
        <ele>340.6</ele>
        <time>2016-10-30T12:52:31Z</time>
      </trkpt>
      <trkpt lat="43.44827" lon="6.26602">
        <ele>339.1</ele>
        <time>2016-10-30T12:52:52Z</time>
      </trkpt>
      <trkpt lat="43.44827" lon="6.26615">
        <ele>336.4</ele>
        <time>2016-10-30T12:53:04Z</time>
      </trkpt>
      <trkpt lat="43.44827" lon="6.26628">
        <ele>333.3</ele>
        <time>2016-10-30T12:53:17Z</time>
      </trkpt>
      <trkpt lat="43.44824" lon="6.2664">
        <ele>331.2</ele>
        <time>2016-10-30T12:53:28Z</time>
      </trkpt>
      <trkpt lat="43.44827" lon="6.26652">
        <ele>328.9</ele>
        <time>2016-10-30T12:53:41Z</time>
      </trkpt>
      <trkpt lat="43.44827" lon="6.26665">
        <ele>326.2</ele>
        <time>2016-10-30T12:53:55Z</time>
      </trkpt>
      <trkpt lat="43.44826" lon="6.26678">
        <ele>322.9</ele>
        <time>2016-10-30T12:54:13Z</time>
      </trkpt>
      <trkpt lat="43.4483" lon="6.26689">
        <ele>320.2</ele>
        <time>2016-10-30T12:54:29Z</time>
      </trkpt>
      <trkpt lat="43.44839" lon="6.26693">
        <ele>318.6</ele>
        <time>2016-10-30T12:54:40Z</time>
      </trkpt>
      <trkpt lat="43.44848" lon="6.26693">
        <ele>317.3</ele>
        <time>2016-10-30T12:54:48Z</time>
      </trkpt>
      <trkpt lat="43.44857" lon="6.26695">
        <ele>316.2</ele>
        <time>2016-10-30T12:54:57Z</time>
      </trkpt>
      <trkpt lat="43.44863" lon="6.26706">
        <ele>315.1</ele>
        <time>2016-10-30T12:55:06Z</time>
      </trkpt>
      <trkpt lat="43.44869" lon="6.26715">
        <ele>313.8</ele>
        <time>2016-10-30T12:55:16Z</time>
      </trkpt>
      <trkpt lat="43.44875" lon="6.26725">
        <ele>311.4</ele>
        <time>2016-10-30T12:55:30Z</time>
      </trkpt>
      <trkpt lat="43.44878" lon="6.26736">
        <ele>308.2</ele>
        <time>2016-10-30T12:55:47Z</time>
      </trkpt>
      <trkpt lat="43.44881" lon="6.26749">
        <ele>305.5</ele>
        <time>2016-10-30T12:56:00Z</time>
      </trkpt>
      <trkpt lat="43.44884" lon="6.26761">
        <ele>304.4</ele>
        <time>2016-10-30T12:56:09Z</time>
      </trkpt>
      <trkpt lat="43.44893" lon="6.26767">
        <ele>302.8</ele>
        <time>2016-10-30T12:56:19Z</time>
      </trkpt>
      <trkpt lat="43.44903" lon="6.26763">
        <ele>302.1</ele>
        <time>2016-10-30T12:56:27Z</time>
      </trkpt>
      <trkpt lat="43.4491" lon="6.26755">
        <ele>301.8</ele>
        <time>2016-10-30T12:56:36Z</time>
      </trkpt>
      <trkpt lat="43.44917" lon="6.26745">
        <ele>301.8</ele>
        <time>2016-10-30T12:56:43Z</time>
      </trkpt>
      <trkpt lat="43.44924" lon="6.26738">
        <ele>302.1</ele>
        <time>2016-10-30T12:56:54Z</time>
      </trkpt>
      <trkpt lat="43.44933" lon="6.26733">
        <ele>303.1</ele>
        <time>2016-10-30T12:57:03Z</time>
      </trkpt>
      <trkpt lat="43.44942" lon="6.26732">
        <ele>304</ele>
        <time>2016-10-30T12:57:12Z</time>
      </trkpt>
      <trkpt lat="43.44952" lon="6.26729">
        <ele>304.3</ele>
        <time>2016-10-30T12:57:21Z</time>
      </trkpt>
      <trkpt lat="43.44961" lon="6.26723">
        <ele>304.6</ele>
        <time>2016-10-30T12:57:29Z</time>
      </trkpt>
      <trkpt lat="43.44968" lon="6.26714">
        <ele>305.1</ele>
        <time>2016-10-30T12:57:37Z</time>
      </trkpt>
      <trkpt lat="43.44973" lon="6.26704">
        <ele>305.5</ele>
        <time>2016-10-30T12:57:46Z</time>
      </trkpt>
      <trkpt lat="43.44979" lon="6.26692">
        <ele>306.1</ele>
        <time>2016-10-30T12:57:53Z</time>
      </trkpt>
      <trkpt lat="43.44984" lon="6.26682">
        <ele>307.2</ele>
        <time>2016-10-30T12:58:03Z</time>
      </trkpt>
      <trkpt lat="43.44988" lon="6.26671">
        <ele>308.2</ele>
        <time>2016-10-30T12:58:13Z</time>
      </trkpt>
      <trkpt lat="43.44993" lon="6.2666">
        <ele>309.1</ele>
        <time>2016-10-30T12:58:21Z</time>
      </trkpt>
      <trkpt lat="43.44998" lon="6.26649">
        <ele>309.8</ele>
        <time>2016-10-30T12:58:30Z</time>
      </trkpt>
      <trkpt lat="43.45003" lon="6.26638">
        <ele>309.9</ele>
        <time>2016-10-30T12:58:37Z</time>
      </trkpt>
      <trkpt lat="43.45008" lon="6.26627">
        <ele>309.8</ele>
        <time>2016-10-30T12:58:43Z</time>
      </trkpt>
      <trkpt lat="43.45013" lon="6.26617">
        <ele>309.6</ele>
        <time>2016-10-30T12:58:51Z</time>
      </trkpt>
      <trkpt lat="43.4502" lon="6.26607">
        <ele>309.3</ele>
        <time>2016-10-30T12:59:01Z</time>
      </trkpt>
      <trkpt lat="43.45029" lon="6.26601">
        <ele>309.1</ele>
        <time>2016-10-30T12:59:10Z</time>
      </trkpt>
      <trkpt lat="43.45038" lon="6.26596">
        <ele>309.2</ele>
        <time>2016-10-30T12:59:17Z</time>
      </trkpt>
      <trkpt lat="43.45044" lon="6.26586">
        <ele>309.3</ele>
        <time>2016-10-30T12:59:26Z</time>
      </trkpt>
      <trkpt lat="43.45051" lon="6.26577">
        <ele>309.3</ele>
        <time>2016-10-30T12:59:32Z</time>
      </trkpt>
      <trkpt lat="43.45055" lon="6.26566">
        <ele>309.2</ele>
        <time>2016-10-30T12:59:38Z</time>
      </trkpt>
      <trkpt lat="43.45059" lon="6.26553">
        <ele>308.8</ele>
        <time>2016-10-30T12:59:46Z</time>
      </trkpt>
      <trkpt lat="43.45062" lon="6.2654">
        <ele>307.8</ele>
        <time>2016-10-30T12:59:57Z</time>
      </trkpt>
      <trkpt lat="43.45067" lon="6.26529">
        <ele>306.9</ele>
        <time>2016-10-30T13:00:07Z</time>
      </trkpt>
      <trkpt lat="43.45071" lon="6.26517">
        <ele>305.6</ele>
        <time>2016-10-30T13:00:18Z</time>
      </trkpt>
      <trkpt lat="43.45076" lon="6.26507">
        <ele>304.6</ele>
        <time>2016-10-30T13:00:26Z</time>
      </trkpt>
      <trkpt lat="43.45081" lon="6.26496">
        <ele>303.5</ele>
        <time>2016-10-30T13:00:35Z</time>
      </trkpt>
      <trkpt lat="43.45085" lon="6.26485">
        <ele>302.6</ele>
        <time>2016-10-30T13:00:43Z</time>
      </trkpt>
      <trkpt lat="43.45089" lon="6.26474">
        <ele>301.7</ele>
        <time>2016-10-30T13:00:52Z</time>
      </trkpt>
      <trkpt lat="43.45093" lon="6.26461">
        <ele>300.7</ele>
        <time>2016-10-30T13:01:00Z</time>
      </trkpt>
      <trkpt lat="43.45098" lon="6.2645">
        <ele>299.1</ele>
        <time>2016-10-30T13:01:12Z</time>
      </trkpt>
      <trkpt lat="43.45103" lon="6.26438">
        <ele>297.9</ele>
        <time>2016-10-30T13:01:22Z</time>
      </trkpt>
      <trkpt lat="43.45109" lon="6.26426">
        <ele>297.2</ele>
        <time>2016-10-30T13:01:30Z</time>
      </trkpt>
      <trkpt lat="43.45113" lon="6.26415">
        <ele>295.6</ele>
        <time>2016-10-30T13:01:42Z</time>
      </trkpt>
      <trkpt lat="43.45119" lon="6.26403">
        <ele>295</ele>
        <time>2016-10-30T13:01:50Z</time>
      </trkpt>
      <trkpt lat="43.45123" lon="6.26391">
        <ele>294.5</ele>
        <time>2016-10-30T13:01:58Z</time>
      </trkpt>
      <trkpt lat="43.45127" lon="6.26379">
        <ele>293.8</ele>
        <time>2016-10-30T13:02:06Z</time>
      </trkpt>
      <trkpt lat="43.45132" lon="6.26368">
        <ele>293.3</ele>
        <time>2016-10-30T13:02:15Z</time>
      </trkpt>
      <trkpt lat="43.45137" lon="6.26358">
        <ele>292.7</ele>
        <time>2016-10-30T13:02:25Z</time>
      </trkpt>
      <trkpt lat="43.4514" lon="6.26346">
        <ele>292.3</ele>
        <time>2016-10-30T13:02:33Z</time>
      </trkpt>
      <trkpt lat="43.45143" lon="6.26333">
        <ele>291.8</ele>
        <time>2016-10-30T13:02:41Z</time>
      </trkpt>
      <trkpt lat="43.45146" lon="6.26322">
        <ele>291.8</ele>
        <time>2016-10-30T13:02:48Z</time>
      </trkpt>
      <trkpt lat="43.45152" lon="6.26311">
        <ele>291.5</ele>
        <time>2016-10-30T13:02:57Z</time>
      </trkpt>
      <trkpt lat="43.45157" lon="6.263">
        <ele>290.9</ele>
        <time>2016-10-30T13:03:05Z</time>
      </trkpt>
      <trkpt lat="43.45159" lon="6.26288">
        <ele>290.5</ele>
        <time>2016-10-30T13:03:11Z</time>
      </trkpt>
      <trkpt lat="43.45163" lon="6.26276">
        <ele>289.8</ele>
        <time>2016-10-30T13:03:20Z</time>
      </trkpt>
      <trkpt lat="43.4517" lon="6.26266">
        <ele>288.8</ele>
        <time>2016-10-30T13:03:30Z</time>
      </trkpt>
      <trkpt lat="43.45175" lon="6.26254">
        <ele>287.7</ele>
        <time>2016-10-30T13:03:42Z</time>
      </trkpt>
      <trkpt lat="43.4518" lon="6.26243">
        <ele>286.6</ele>
        <time>2016-10-30T13:03:51Z</time>
      </trkpt>
      <trkpt lat="43.45186" lon="6.26233">
        <ele>286</ele>
        <time>2016-10-30T13:03:58Z</time>
      </trkpt>
      <trkpt lat="43.45192" lon="6.26222">
        <ele>285.4</ele>
        <time>2016-10-30T13:04:06Z</time>
      </trkpt>
      <trkpt lat="43.45198" lon="6.26212">
        <ele>284.3</ele>
        <time>2016-10-30T13:04:17Z</time>
      </trkpt>
      <trkpt lat="43.45204" lon="6.26202">
        <ele>283.6</ele>
        <time>2016-10-30T13:04:28Z</time>
      </trkpt>
      <trkpt lat="43.4521" lon="6.26192">
        <ele>283.2</ele>
        <time>2016-10-30T13:04:36Z</time>
      </trkpt>
      <trkpt lat="43.45215" lon="6.26181">
        <ele>282.8</ele>
        <time>2016-10-30T13:04:43Z</time>
      </trkpt>
      <trkpt lat="43.45218" lon="6.26167">
        <ele>282.2</ele>
        <time>2016-10-30T13:04:51Z</time>
      </trkpt>
      <trkpt lat="43.45223" lon="6.26155">
        <ele>282.1</ele>
        <time>2016-10-30T13:04:57Z</time>
      </trkpt>
      <trkpt lat="43.4523" lon="6.26145">
        <ele>281.2</ele>
        <time>2016-10-30T13:05:08Z</time>
      </trkpt>
      <trkpt lat="43.45237" lon="6.26133">
        <ele>280.4</ele>
        <time>2016-10-30T13:05:19Z</time>
      </trkpt>
      <trkpt lat="43.4524" lon="6.26121">
        <ele>279.7</ele>
        <time>2016-10-30T13:05:27Z</time>
      </trkpt>
      <trkpt lat="43.45245" lon="6.26109">
        <ele>279.6</ele>
        <time>2016-10-30T13:05:36Z</time>
      </trkpt>
      <trkpt lat="43.4525" lon="6.26098">
        <ele>279.4</ele>
        <time>2016-10-30T13:05:44Z</time>
      </trkpt>
      <trkpt lat="43.45255" lon="6.26087">
        <ele>279.2</ele>
        <time>2016-10-30T13:05:53Z</time>
      </trkpt>
      <trkpt lat="43.45261" lon="6.26075">
        <ele>278.5</ele>
        <time>2016-10-30T13:06:00Z</time>
      </trkpt>
      <trkpt lat="43.45266" lon="6.26063">
        <ele>278.1</ele>
        <time>2016-10-30T13:06:06Z</time>
      </trkpt>
      <trkpt lat="43.45269" lon="6.26051">
        <ele>277.6</ele>
        <time>2016-10-30T13:06:16Z</time>
      </trkpt>
      <trkpt lat="43.45274" lon="6.26041">
        <ele>276.5</ele>
        <time>2016-10-30T13:06:25Z</time>
      </trkpt>
      <trkpt lat="43.45282" lon="6.26032">
        <ele>275.6</ele>
        <time>2016-10-30T13:06:34Z</time>
      </trkpt>
      <trkpt lat="43.45286" lon="6.26021">
        <ele>274.6</ele>
        <time>2016-10-30T13:06:41Z</time>
      </trkpt>
      <trkpt lat="43.45288" lon="6.26005">
        <ele>273.9</ele>
        <time>2016-10-30T13:06:47Z</time>
      </trkpt>
      <trkpt lat="43.45289" lon="6.25993">
        <ele>272.5</ele>
        <time>2016-10-30T13:06:55Z</time>
      </trkpt>
      <trkpt lat="43.45287" lon="6.2598">
        <ele>271.7</ele>
        <time>2016-10-30T13:07:01Z</time>
      </trkpt>
      <trkpt lat="43.45287" lon="6.25968">
        <ele>271</ele>
        <time>2016-10-30T13:07:10Z</time>
      </trkpt>
      <trkpt lat="43.45291" lon="6.25957">
        <ele>269.5</ele>
        <time>2016-10-30T13:07:20Z</time>
      </trkpt>
      <trkpt lat="43.45292" lon="6.25944">
        <ele>267.9</ele>
        <time>2016-10-30T13:07:33Z</time>
      </trkpt>
      <trkpt lat="43.45292" lon="6.25931">
        <ele>266.9</ele>
        <time>2016-10-30T13:10:27Z</time>
      </trkpt>
      <trkpt lat="43.45295" lon="6.25919">
        <ele>266.8</ele>
        <time>2016-10-30T13:10:37Z</time>
      </trkpt>
      <trkpt lat="43.45296" lon="6.25906">
        <ele>266.7</ele>
        <time>2016-10-30T13:10:44Z</time>
      </trkpt>
      <trkpt lat="43.45295" lon="6.25893">
        <ele>266.5</ele>
        <time>2016-10-30T13:10:53Z</time>
      </trkpt>
      <trkpt lat="43.4529" lon="6.25882">
        <ele>266.4</ele>
        <time>2016-10-30T13:11:01Z</time>
      </trkpt>
      <trkpt lat="43.45293" lon="6.25868">
        <ele>266.8</ele>
        <time>2016-10-30T13:11:23Z</time>
      </trkpt>
      <trkpt lat="43.45293" lon="6.25855">
        <ele>267</ele>
        <time>2016-10-30T13:11:32Z</time>
      </trkpt>
      <trkpt lat="43.4529" lon="6.25842">
        <ele>266.8</ele>
        <time>2016-10-30T13:11:40Z</time>
      </trkpt>
      <trkpt lat="43.45289" lon="6.2583">
        <ele>266.9</ele>
        <time>2016-10-30T13:11:48Z</time>
      </trkpt>
      <trkpt lat="43.45291" lon="6.25816">
        <ele>267.2</ele>
        <time>2016-10-30T13:12:01Z</time>
      </trkpt>
      <trkpt lat="43.4529" lon="6.25804">
        <ele>267.6</ele>
        <time>2016-10-30T13:12:09Z</time>
      </trkpt>
      <trkpt lat="43.45291" lon="6.2579">
        <ele>268</ele>
        <time>2016-10-30T13:12:18Z</time>
      </trkpt>
      <trkpt lat="43.45295" lon="6.25777">
        <ele>268.4</ele>
        <time>2016-10-30T13:12:25Z</time>
      </trkpt>
      <trkpt lat="43.45297" lon="6.25765">
        <ele>268.8</ele>
        <time>2016-10-30T13:12:34Z</time>
      </trkpt>
      <trkpt lat="43.45301" lon="6.25753">
        <ele>269.6</ele>
        <time>2016-10-30T13:12:44Z</time>
      </trkpt>
      <trkpt lat="43.45309" lon="6.25747">
        <ele>270.1</ele>
        <time>2016-10-30T13:12:52Z</time>
      </trkpt>
      <trkpt lat="43.45315" lon="6.25737">
        <ele>270.4</ele>
        <time>2016-10-30T13:13:00Z</time>
      </trkpt>
      <trkpt lat="43.45321" lon="6.25727">
        <ele>271.1</ele>
        <time>2016-10-30T13:13:10Z</time>
      </trkpt>
      <trkpt lat="43.45327" lon="6.25717">
        <ele>272</ele>
        <time>2016-10-30T13:13:20Z</time>
      </trkpt>
      <trkpt lat="43.45335" lon="6.25709">
        <ele>272.9</ele>
        <time>2016-10-30T13:13:27Z</time>
      </trkpt>
      <trkpt lat="43.4534" lon="6.25698">
        <ele>273.9</ele>
        <time>2016-10-30T13:13:36Z</time>
      </trkpt>
      <trkpt lat="43.4535" lon="6.25692">
        <ele>274.4</ele>
        <time>2016-10-30T13:13:43Z</time>
      </trkpt>
      <trkpt lat="43.45356" lon="6.25682">
        <ele>274.7</ele>
        <time>2016-10-30T13:13:51Z</time>
      </trkpt>
      <trkpt lat="43.45361" lon="6.25671">
        <ele>274.6</ele>
        <time>2016-10-30T13:14:01Z</time>
      </trkpt>
      <trkpt lat="43.45364" lon="6.25658">
        <ele>274.2</ele>
        <time>2016-10-30T13:14:11Z</time>
      </trkpt>
      <trkpt lat="43.45365" lon="6.25643">
        <ele>274.2</ele>
        <time>2016-10-30T13:14:19Z</time>
      </trkpt>
      <trkpt lat="43.45367" lon="6.25631">
        <ele>274.3</ele>
        <time>2016-10-30T13:14:26Z</time>
      </trkpt>
      <trkpt lat="43.45369" lon="6.25619">
        <ele>274.8</ele>
        <time>2016-10-30T13:14:36Z</time>
      </trkpt>
      <trkpt lat="43.45371" lon="6.25606">
        <ele>275.5</ele>
        <time>2016-10-30T13:14:47Z</time>
      </trkpt>
      <trkpt lat="43.4537" lon="6.25593">
        <ele>276</ele>
        <time>2016-10-30T13:14:55Z</time>
      </trkpt>
      <trkpt lat="43.45372" lon="6.25579">
        <ele>276.8</ele>
        <time>2016-10-30T13:15:04Z</time>
      </trkpt>
      <trkpt lat="43.45375" lon="6.25567">
        <ele>277.4</ele>
        <time>2016-10-30T13:15:13Z</time>
      </trkpt>
      <trkpt lat="43.45377" lon="6.25554">
        <ele>277.9</ele>
        <time>2016-10-30T13:15:20Z</time>
      </trkpt>
      <trkpt lat="43.45382" lon="6.25542">
        <ele>278.7</ele>
        <time>2016-10-30T13:15:31Z</time>
      </trkpt>
      <trkpt lat="43.45384" lon="6.25529">
        <ele>279.4</ele>
        <time>2016-10-30T13:15:41Z</time>
      </trkpt>
      <trkpt lat="43.45384" lon="6.25516">
        <ele>280.2</ele>
        <time>2016-10-30T13:15:49Z</time>
      </trkpt>
      <trkpt lat="43.45386" lon="6.25504">
        <ele>281</ele>
        <time>2016-10-30T13:15:59Z</time>
      </trkpt>
      <trkpt lat="43.45386" lon="6.25491">
        <ele>282.1</ele>
        <time>2016-10-30T13:16:14Z</time>
      </trkpt>
      <trkpt lat="43.45391" lon="6.25479">
        <ele>283.2</ele>
        <time>2016-10-30T13:16:27Z</time>
      </trkpt>
      <trkpt lat="43.45394" lon="6.25467">
        <ele>283.7</ele>
        <time>2016-10-30T13:16:36Z</time>
      </trkpt>
      <trkpt lat="43.45392" lon="6.25454">
        <ele>284.4</ele>
        <time>2016-10-30T13:16:45Z</time>
      </trkpt>
      <trkpt lat="43.45391" lon="6.25441">
        <ele>285.7</ele>
        <time>2016-10-30T13:16:57Z</time>
      </trkpt>
      <trkpt lat="43.4539" lon="6.25428">
        <ele>287.4</ele>
        <time>2016-10-30T13:17:09Z</time>
      </trkpt>
      <trkpt lat="43.45393" lon="6.25415">
        <ele>288.5</ele>
        <time>2016-10-30T13:17:19Z</time>
      </trkpt>
      <trkpt lat="43.45392" lon="6.25403">
        <ele>290.1</ele>
        <time>2016-10-30T13:17:32Z</time>
      </trkpt>
      <trkpt lat="43.45392" lon="6.2539">
        <ele>291.5</ele>
        <time>2016-10-30T13:17:44Z</time>
      </trkpt>
      <trkpt lat="43.45394" lon="6.25378">
        <ele>292.7</ele>
        <time>2016-10-30T13:17:55Z</time>
      </trkpt>
      <trkpt lat="43.45391" lon="6.25364">
        <ele>294.2</ele>
        <time>2016-10-30T13:18:04Z</time>
      </trkpt>
      <trkpt lat="43.4539" lon="6.25352">
        <ele>295.4</ele>
        <time>2016-10-30T13:18:13Z</time>
      </trkpt>
      <trkpt lat="43.45392" lon="6.25339">
        <ele>296.8</ele>
        <time>2016-10-30T13:18:26Z</time>
      </trkpt>
      <trkpt lat="43.45394" lon="6.25325">
        <ele>297.7</ele>
        <time>2016-10-30T13:18:35Z</time>
      </trkpt>
      <trkpt lat="43.45393" lon="6.25312">
        <ele>299.1</ele>
        <time>2016-10-30T13:18:47Z</time>
      </trkpt>
      <trkpt lat="43.45396" lon="6.25299">
        <ele>300.2</ele>
        <time>2016-10-30T13:18:58Z</time>
      </trkpt>
      <trkpt lat="43.45397" lon="6.25286">
        <ele>300.6</ele>
        <time>2016-10-30T13:19:06Z</time>
      </trkpt>
      <trkpt lat="43.454" lon="6.25274">
        <ele>300.8</ele>
        <time>2016-10-30T13:19:14Z</time>
      </trkpt>
      <trkpt lat="43.45402" lon="6.25261">
        <ele>300.8</ele>
        <time>2016-10-30T13:19:24Z</time>
      </trkpt>
      <trkpt lat="43.45401" lon="6.25248">
        <ele>300.7</ele>
        <time>2016-10-30T13:19:32Z</time>
      </trkpt>
      <trkpt lat="43.45394" lon="6.2524">
        <ele>298.9</ele>
        <time>2016-10-30T13:20:07Z</time>
      </trkpt>
      <trkpt lat="43.45403" lon="6.25241">
        <ele>298</ele>
        <time>2016-10-30T13:24:08Z</time>
      </trkpt>
      <trkpt lat="43.45409" lon="6.25231">
        <ele>297.6</ele>
        <time>2016-10-30T13:24:18Z</time>
      </trkpt>
      <trkpt lat="43.45415" lon="6.25221">
        <ele>296.8</ele>
        <time>2016-10-30T13:24:29Z</time>
      </trkpt>
      <trkpt lat="43.45423" lon="6.25213">
        <ele>295.7</ele>
        <time>2016-10-30T13:24:40Z</time>
      </trkpt>
      <trkpt lat="43.45428" lon="6.25203">
        <ele>294.7</ele>
        <time>2016-10-30T13:24:50Z</time>
      </trkpt>
      <trkpt lat="43.45434" lon="6.25192">
        <ele>293.7</ele>
        <time>2016-10-30T13:25:00Z</time>
      </trkpt>
      <trkpt lat="43.45437" lon="6.2518">
        <ele>293.4</ele>
        <time>2016-10-30T13:25:09Z</time>
      </trkpt>
      <trkpt lat="43.45441" lon="6.25169">
        <ele>292.4</ele>
        <time>2016-10-30T13:25:19Z</time>
      </trkpt>
      <trkpt lat="43.45448" lon="6.2516">
        <ele>290.8</ele>
        <time>2016-10-30T13:25:31Z</time>
      </trkpt>
      <trkpt lat="43.45456" lon="6.25154">
        <ele>289.1</ele>
        <time>2016-10-30T13:25:43Z</time>
      </trkpt>
      <trkpt lat="43.45463" lon="6.25144">
        <ele>287.8</ele>
        <time>2016-10-30T13:25:53Z</time>
      </trkpt>
      <trkpt lat="43.45466" lon="6.25132">
        <ele>286.3</ele>
        <time>2016-10-30T13:26:02Z</time>
      </trkpt>
      <trkpt lat="43.45471" lon="6.25121">
        <ele>284.6</ele>
        <time>2016-10-30T13:26:13Z</time>
      </trkpt>
      <trkpt lat="43.45478" lon="6.25112">
        <ele>283.5</ele>
        <time>2016-10-30T13:26:23Z</time>
      </trkpt>
      <trkpt lat="43.45486" lon="6.25103">
        <ele>281.9</ele>
        <time>2016-10-30T13:26:34Z</time>
      </trkpt>
      <trkpt lat="43.45493" lon="6.25096">
        <ele>280.4</ele>
        <time>2016-10-30T13:26:45Z</time>
      </trkpt>
      <trkpt lat="43.45501" lon="6.25087">
        <ele>278.7</ele>
        <time>2016-10-30T13:26:56Z</time>
      </trkpt>
      <trkpt lat="43.4551" lon="6.25082">
        <ele>277.2</ele>
        <time>2016-10-30T13:27:05Z</time>
      </trkpt>
      <trkpt lat="43.45516" lon="6.25072">
        <ele>275.4</ele>
        <time>2016-10-30T13:27:16Z</time>
      </trkpt>
      <trkpt lat="43.45519" lon="6.25059">
        <ele>273.8</ele>
        <time>2016-10-30T13:27:29Z</time>
      </trkpt>
      <trkpt lat="43.45521" lon="6.25047">
        <ele>272.4</ele>
        <time>2016-10-30T13:27:40Z</time>
      </trkpt>
      <trkpt lat="43.45518" lon="6.25033">
        <ele>271</ele>
        <time>2016-10-30T13:27:52Z</time>
      </trkpt>
      <trkpt lat="43.45514" lon="6.25021">
        <ele>269.1</ele>
        <time>2016-10-30T13:28:03Z</time>
      </trkpt>
      <trkpt lat="43.45511" lon="6.25009">
        <ele>267.5</ele>
        <time>2016-10-30T13:28:13Z</time>
      </trkpt>
      <trkpt lat="43.45507" lon="6.24996">
        <ele>266.4</ele>
        <time>2016-10-30T13:28:23Z</time>
      </trkpt>
      <trkpt lat="43.45506" lon="6.24983">
        <ele>265.2</ele>
        <time>2016-10-30T13:28:35Z</time>
      </trkpt>
      <trkpt lat="43.45506" lon="6.2497">
        <ele>263.9</ele>
        <time>2016-10-30T13:28:52Z</time>
      </trkpt>
      <trkpt lat="43.45514" lon="6.24964">
        <ele>263.2</ele>
        <time>2016-10-30T13:29:01Z</time>
      </trkpt>
      <trkpt lat="43.4552" lon="6.24953">
        <ele>261.9</ele>
        <time>2016-10-30T13:29:11Z</time>
      </trkpt>
      <trkpt lat="43.45525" lon="6.24942">
        <ele>261.4</ele>
        <time>2016-10-30T13:29:18Z</time>
      </trkpt>
      <trkpt lat="43.45529" lon="6.24929">
        <ele>261</ele>
        <time>2016-10-30T13:29:25Z</time>
      </trkpt>
      <trkpt lat="43.45536" lon="6.24918">
        <ele>260.3</ele>
        <time>2016-10-30T13:29:35Z</time>
      </trkpt>
      <trkpt lat="43.45542" lon="6.24908">
        <ele>259.7</ele>
        <time>2016-10-30T13:29:45Z</time>
      </trkpt>
      <trkpt lat="43.45548" lon="6.24898">
        <ele>259.3</ele>
        <time>2016-10-30T13:29:53Z</time>
      </trkpt>
      <trkpt lat="43.45553" lon="6.24886">
        <ele>258.9</ele>
        <time>2016-10-30T13:30:01Z</time>
      </trkpt>
      <trkpt lat="43.45556" lon="6.24873">
        <ele>258.4</ele>
        <time>2016-10-30T13:30:10Z</time>
      </trkpt>
      <trkpt lat="43.45557" lon="6.2486">
        <ele>257.8</ele>
        <time>2016-10-30T13:30:18Z</time>
      </trkpt>
      <trkpt lat="43.45558" lon="6.24847">
        <ele>257.2</ele>
        <time>2016-10-30T13:30:26Z</time>
      </trkpt>
      <trkpt lat="43.4556" lon="6.24834">
        <ele>256.8</ele>
        <time>2016-10-30T13:30:32Z</time>
      </trkpt>
      <trkpt lat="43.4556" lon="6.24821">
        <ele>256.4</ele>
        <time>2016-10-30T13:30:39Z</time>
      </trkpt>
      <trkpt lat="43.45564" lon="6.24809">
        <ele>255.8</ele>
        <time>2016-10-30T13:30:48Z</time>
      </trkpt>
      <trkpt lat="43.45571" lon="6.248">
        <ele>255.5</ele>
        <time>2016-10-30T13:30:57Z</time>
      </trkpt>
      <trkpt lat="43.45568" lon="6.24787">
        <ele>255.4</ele>
        <time>2016-10-30T13:31:06Z</time>
      </trkpt>
      <trkpt lat="43.45571" lon="6.24775">
        <ele>255.3</ele>
        <time>2016-10-30T13:31:13Z</time>
      </trkpt>
      <trkpt lat="43.45572" lon="6.24763">
        <ele>255.3</ele>
        <time>2016-10-30T13:31:20Z</time>
      </trkpt>
      <trkpt lat="43.45578" lon="6.24753">
        <ele>255.5</ele>
        <time>2016-10-30T13:31:31Z</time>
      </trkpt>
      <trkpt lat="43.45586" lon="6.24745">
        <ele>255.9</ele>
        <time>2016-10-30T13:31:41Z</time>
      </trkpt>
      <trkpt lat="43.45594" lon="6.24736">
        <ele>255.9</ele>
        <time>2016-10-30T13:31:48Z</time>
      </trkpt>
      <trkpt lat="43.45601" lon="6.24728">
        <ele>255.8</ele>
        <time>2016-10-30T13:31:57Z</time>
      </trkpt>
      <trkpt lat="43.45608" lon="6.24735">
        <ele>255.9</ele>
        <time>2016-10-30T13:32:14Z</time>
      </trkpt>
      <trkpt lat="43.45613" lon="6.24746">
        <ele>256</ele>
        <time>2016-10-30T13:32:22Z</time>
      </trkpt>
      <trkpt lat="43.45616" lon="6.24759">
        <ele>256</ele>
        <time>2016-10-30T13:32:33Z</time>
      </trkpt>
      <trkpt lat="43.45624" lon="6.24767">
        <ele>256</ele>
        <time>2016-10-30T13:32:41Z</time>
      </trkpt>
      <trkpt lat="43.4563" lon="6.24777">
        <ele>256.5</ele>
        <time>2016-10-30T13:32:51Z</time>
      </trkpt>
      <trkpt lat="43.4563" lon="6.2479">
        <ele>256.6</ele>
        <time>2016-10-30T13:32:57Z</time>
      </trkpt>
      <trkpt lat="43.45636" lon="6.248">
        <ele>256.6</ele>
        <time>2016-10-30T13:33:04Z</time>
      </trkpt>
      <trkpt lat="43.45643" lon="6.24807">
        <ele>256.8</ele>
        <time>2016-10-30T13:33:12Z</time>
      </trkpt>
      <trkpt lat="43.45651" lon="6.24814">
        <ele>256.6</ele>
        <time>2016-10-30T13:33:20Z</time>
      </trkpt>
      <trkpt lat="43.45656" lon="6.24825">
        <ele>256.7</ele>
        <time>2016-10-30T13:33:29Z</time>
      </trkpt>
      <trkpt lat="43.45659" lon="6.24837">
        <ele>257.3</ele>
        <time>2016-10-30T13:33:39Z</time>
      </trkpt>
      <trkpt lat="43.45665" lon="6.24847">
        <ele>257.4</ele>
        <time>2016-10-30T13:33:49Z</time>
      </trkpt>
      <trkpt lat="43.45666" lon="6.24859">
        <ele>257.5</ele>
        <time>2016-10-30T13:34:03Z</time>
      </trkpt>
      <trkpt lat="43.45667" lon="6.24873">
        <ele>257.5</ele>
        <time>2016-10-30T13:34:11Z</time>
      </trkpt>
      <trkpt lat="43.45668" lon="6.24886">
        <ele>258.3</ele>
        <time>2016-10-30T13:34:22Z</time>
      </trkpt>
      <trkpt lat="43.45671" lon="6.24899">
        <ele>258.2</ele>
        <time>2016-10-30T13:34:32Z</time>
      </trkpt>
      <trkpt lat="43.45678" lon="6.24908">
        <ele>257.5</ele>
        <time>2016-10-30T13:34:42Z</time>
      </trkpt>
      <trkpt lat="43.45687" lon="6.24915">
        <ele>256.6</ele>
        <time>2016-10-30T13:34:52Z</time>
      </trkpt>
      <trkpt lat="43.45696" lon="6.24919">
        <ele>254.8</ele>
        <time>2016-10-30T13:35:02Z</time>
      </trkpt>
      <trkpt lat="43.45704" lon="6.24925">
        <ele>253.3</ele>
        <time>2016-10-30T13:35:13Z</time>
      </trkpt>
      <trkpt lat="43.45712" lon="6.24932">
        <ele>251.8</ele>
        <time>2016-10-30T13:35:24Z</time>
      </trkpt>
      <trkpt lat="43.45721" lon="6.24932">
        <ele>249.6</ele>
        <time>2016-10-30T13:35:35Z</time>
      </trkpt>
      <trkpt lat="43.4573" lon="6.2493">
        <ele>248.2</ele>
        <time>2016-10-30T13:35:45Z</time>
      </trkpt>
      <trkpt lat="43.45738" lon="6.24937">
        <ele>247.1</ele>
        <time>2016-10-30T13:35:53Z</time>
      </trkpt>
      <trkpt lat="43.45747" lon="6.24941">
        <ele>246.6</ele>
        <time>2016-10-30T13:36:01Z</time>
      </trkpt>
      <trkpt lat="43.45755" lon="6.24949">
        <ele>246.4</ele>
        <time>2016-10-30T13:36:10Z</time>
      </trkpt>
      <trkpt lat="43.45763" lon="6.24955">
        <ele>246</ele>
        <time>2016-10-30T13:36:19Z</time>
      </trkpt>
      <trkpt lat="43.45772" lon="6.24963">
        <ele>245.4</ele>
        <time>2016-10-30T13:36:29Z</time>
      </trkpt>
      <trkpt lat="43.45781" lon="6.24967">
        <ele>245.1</ele>
        <time>2016-10-30T13:36:39Z</time>
      </trkpt>
      <trkpt lat="43.4579" lon="6.24971">
        <ele>244.8</ele>
        <time>2016-10-30T13:36:46Z</time>
      </trkpt>
      <trkpt lat="43.45799" lon="6.24969">
        <ele>244.7</ele>
        <time>2016-10-30T13:36:54Z</time>
      </trkpt>
      <trkpt lat="43.45809" lon="6.24971">
        <ele>244.1</ele>
        <time>2016-10-30T13:37:14Z</time>
      </trkpt>
      <trkpt lat="43.45818" lon="6.24974">
        <ele>244.1</ele>
        <time>2016-10-30T13:38:25Z</time>
      </trkpt>
      <trkpt lat="43.45826" lon="6.24978">
        <ele>243.5</ele>
        <time>2016-10-30T13:38:37Z</time>
      </trkpt>
      <trkpt lat="43.45827" lon="6.24991">
        <ele>243.6</ele>
        <time>2016-10-30T13:38:54Z</time>
      </trkpt>
      <trkpt lat="43.45827" lon="6.25003">
        <ele>244.2</ele>
        <time>2016-10-30T13:39:04Z</time>
      </trkpt>
      <trkpt lat="43.45832" lon="6.25015">
        <ele>244.8</ele>
        <time>2016-10-30T13:39:12Z</time>
      </trkpt>
      <trkpt lat="43.45835" lon="6.25027">
        <ele>245</ele>
        <time>2016-10-30T13:39:20Z</time>
      </trkpt>
      <trkpt lat="43.45841" lon="6.25037">
        <ele>245.4</ele>
        <time>2016-10-30T13:39:30Z</time>
      </trkpt>
      <trkpt lat="43.45848" lon="6.25047">
        <ele>246.1</ele>
        <time>2016-10-30T13:39:41Z</time>
      </trkpt>
      <trkpt lat="43.45854" lon="6.25056">
        <ele>246.5</ele>
        <time>2016-10-30T13:39:50Z</time>
      </trkpt>
      <trkpt lat="43.45862" lon="6.25063">
        <ele>247.4</ele>
        <time>2016-10-30T13:40:01Z</time>
      </trkpt>
      <trkpt lat="43.45865" lon="6.25075">
        <ele>249.3</ele>
        <time>2016-10-30T13:40:15Z</time>
      </trkpt>
      <trkpt lat="43.45864" lon="6.25088">
        <ele>250.4</ele>
        <time>2016-10-30T13:40:31Z</time>
      </trkpt>
      <trkpt lat="43.45861" lon="6.25101">
        <ele>252</ele>
        <time>2016-10-30T13:40:45Z</time>
      </trkpt>
      <trkpt lat="43.45862" lon="6.25114">
        <ele>253</ele>
        <time>2016-10-30T13:40:57Z</time>
      </trkpt>
      <trkpt lat="43.45863" lon="6.25127">
        <ele>253.7</ele>
        <time>2016-10-30T13:41:03Z</time>
      </trkpt>
      <trkpt lat="43.45865" lon="6.2514">
        <ele>254.8</ele>
        <time>2016-10-30T13:41:13Z</time>
      </trkpt>
      <trkpt lat="43.45857" lon="6.25147">
        <ele>255.8</ele>
        <time>2016-10-30T13:41:27Z</time>
      </trkpt>
      <trkpt lat="43.45848" lon="6.25153">
        <ele>257.1</ele>
        <time>2016-10-30T13:41:38Z</time>
      </trkpt>
      <trkpt lat="43.45839" lon="6.25157">
        <ele>259.1</ele>
        <time>2016-10-30T13:41:52Z</time>
      </trkpt>
      <trkpt lat="43.4583" lon="6.2516">
        <ele>260.7</ele>
        <time>2016-10-30T13:42:07Z</time>
      </trkpt>
      <trkpt lat="43.45821" lon="6.25164">
        <ele>261.6</ele>
        <time>2016-10-30T13:42:20Z</time>
      </trkpt>
      <trkpt lat="43.45811" lon="6.25166">
        <ele>262.9</ele>
        <time>2016-10-30T13:42:32Z</time>
      </trkpt>
      <trkpt lat="43.45803" lon="6.2516">
        <ele>264.3</ele>
        <time>2016-10-30T13:42:48Z</time>
      </trkpt>
      <trkpt lat="43.45793" lon="6.25158">
        <ele>264.8</ele>
        <time>2016-10-30T13:42:56Z</time>
      </trkpt>
      <trkpt lat="43.45785" lon="6.25155">
        <ele>266.3</ele>
        <time>2016-10-30T13:43:10Z</time>
      </trkpt>
      <trkpt lat="43.45777" lon="6.25164">
        <ele>267.3</ele>
        <time>2016-10-30T13:43:26Z</time>
      </trkpt>
      <trkpt lat="43.4578" lon="6.25176">
        <ele>268.3</ele>
        <time>2016-10-30T13:43:37Z</time>
      </trkpt>
      <trkpt lat="43.45787" lon="6.25185">
        <ele>269</ele>
        <time>2016-10-30T13:43:49Z</time>
      </trkpt>
      <trkpt lat="43.45793" lon="6.25195">
        <ele>269.7</ele>
        <time>2016-10-30T13:43:57Z</time>
      </trkpt>
      <trkpt lat="43.45799" lon="6.25205">
        <ele>270.6</ele>
        <time>2016-10-30T13:44:08Z</time>
      </trkpt>
      <trkpt lat="43.45805" lon="6.25214">
        <ele>271.5</ele>
        <time>2016-10-30T13:44:20Z</time>
      </trkpt>
      <trkpt lat="43.45812" lon="6.25223">
        <ele>272.6</ele>
        <time>2016-10-30T13:44:27Z</time>
      </trkpt>
      <trkpt lat="43.45818" lon="6.25232">
        <ele>273.2</ele>
        <time>2016-10-30T13:44:36Z</time>
      </trkpt>
      <trkpt lat="43.45827" lon="6.25239">
        <ele>273.8</ele>
        <time>2016-10-30T13:44:48Z</time>
      </trkpt>
      <trkpt lat="43.45835" lon="6.25245">
        <ele>274.1</ele>
        <time>2016-10-30T13:44:59Z</time>
      </trkpt>
      <trkpt lat="43.45843" lon="6.25249">
        <ele>274.3</ele>
        <time>2016-10-30T13:45:06Z</time>
      </trkpt>
      <trkpt lat="43.45852" lon="6.25251">
        <ele>274.8</ele>
        <time>2016-10-30T13:45:14Z</time>
      </trkpt>
      <trkpt lat="43.45862" lon="6.2525">
        <ele>275.2</ele>
        <time>2016-10-30T13:45:24Z</time>
      </trkpt>
      <trkpt lat="43.45871" lon="6.25251">
        <ele>275.9</ele>
        <time>2016-10-30T13:45:34Z</time>
      </trkpt>
      <trkpt lat="43.45881" lon="6.25251">
        <ele>276.2</ele>
        <time>2016-10-30T13:45:44Z</time>
      </trkpt>
      <trkpt lat="43.4589" lon="6.25251">
        <ele>276.8</ele>
        <time>2016-10-30T13:45:55Z</time>
      </trkpt>
      <trkpt lat="43.45899" lon="6.25255">
        <ele>277.8</ele>
        <time>2016-10-30T13:46:06Z</time>
      </trkpt>
      <trkpt lat="43.45907" lon="6.25258">
        <ele>279.3</ele>
        <time>2016-10-30T13:46:17Z</time>
      </trkpt>
      <trkpt lat="43.45915" lon="6.25268">
        <ele>280.1</ele>
        <time>2016-10-30T13:46:26Z</time>
      </trkpt>
      <trkpt lat="43.45922" lon="6.25277">
        <ele>280.3</ele>
        <time>2016-10-30T13:46:37Z</time>
      </trkpt>
      <trkpt lat="43.45928" lon="6.25287">
        <ele>280.4</ele>
        <time>2016-10-30T13:46:45Z</time>
      </trkpt>
      <trkpt lat="43.45934" lon="6.25297">
        <ele>280.4</ele>
        <time>2016-10-30T13:46:54Z</time>
      </trkpt>
      <trkpt lat="43.45939" lon="6.25308">
        <ele>280.7</ele>
        <time>2016-10-30T13:47:05Z</time>
      </trkpt>
      <trkpt lat="43.45944" lon="6.25319">
        <ele>280.8</ele>
        <time>2016-10-30T13:47:15Z</time>
      </trkpt>
      <trkpt lat="43.45948" lon="6.25331">
        <ele>281.3</ele>
        <time>2016-10-30T13:47:25Z</time>
      </trkpt>
      <trkpt lat="43.45951" lon="6.25343">
        <ele>282</ele>
        <time>2016-10-30T13:47:37Z</time>
      </trkpt>
      <trkpt lat="43.45955" lon="6.25355">
        <ele>282.6</ele>
        <time>2016-10-30T13:47:48Z</time>
      </trkpt>
      <trkpt lat="43.45958" lon="6.25367">
        <ele>283.5</ele>
        <time>2016-10-30T13:47:59Z</time>
      </trkpt>
      <trkpt lat="43.45962" lon="6.25379">
        <ele>283.8</ele>
        <time>2016-10-30T13:48:07Z</time>
      </trkpt>
      <trkpt lat="43.45967" lon="6.25391">
        <ele>284</ele>
        <time>2016-10-30T13:48:14Z</time>
      </trkpt>
      <trkpt lat="43.45972" lon="6.25402">
        <ele>283.9</ele>
        <time>2016-10-30T13:48:23Z</time>
      </trkpt>
      <trkpt lat="43.45976" lon="6.25413">
        <ele>283.8</ele>
        <time>2016-10-30T13:48:31Z</time>
      </trkpt>
      <trkpt lat="43.45981" lon="6.25425">
        <ele>282.9</ele>
        <time>2016-10-30T13:48:39Z</time>
      </trkpt>
      <trkpt lat="43.45988" lon="6.25434">
        <ele>282.4</ele>
        <time>2016-10-30T13:48:49Z</time>
      </trkpt>
      <trkpt lat="43.45991" lon="6.25446">
        <ele>282.4</ele>
        <time>2016-10-30T13:48:58Z</time>
      </trkpt>
      <trkpt lat="43.45995" lon="6.25457">
        <ele>282.6</ele>
        <time>2016-10-30T13:49:40Z</time>
      </trkpt>
      <trkpt lat="43.45986" lon="6.25463">
        <ele>283.4</ele>
        <time>2016-10-30T13:51:22Z</time>
      </trkpt>
      <trkpt lat="43.45978" lon="6.25469">
        <ele>283.8</ele>
        <time>2016-10-30T13:51:32Z</time>
      </trkpt>
      <trkpt lat="43.45968" lon="6.25471">
        <ele>283.8</ele>
        <time>2016-10-30T13:51:41Z</time>
      </trkpt>
      <trkpt lat="43.45962" lon="6.2548">
        <ele>285.1</ele>
        <time>2016-10-30T13:54:57Z</time>
      </trkpt>
      <trkpt lat="43.45953" lon="6.2548">
        <ele>284.9</ele>
        <time>2016-10-30T14:00:08Z</time>
      </trkpt>
      <trkpt lat="43.45944" lon="6.25481">
        <ele>285.5</ele>
        <time>2016-10-30T14:00:19Z</time>
      </trkpt>
      <trkpt lat="43.45934" lon="6.25482">
        <ele>286.1</ele>
        <time>2016-10-30T14:00:29Z</time>
      </trkpt>
      <trkpt lat="43.45925" lon="6.25485">
        <ele>287.1</ele>
        <time>2016-10-30T14:00:39Z</time>
      </trkpt>
      <trkpt lat="43.45916" lon="6.25487">
        <ele>287.9</ele>
        <time>2016-10-30T14:00:51Z</time>
      </trkpt>
      <trkpt lat="43.45906" lon="6.25491">
        <ele>288.4</ele>
        <time>2016-10-30T14:01:00Z</time>
      </trkpt>
      <trkpt lat="43.45897" lon="6.25492">
        <ele>288.7</ele>
        <time>2016-10-30T14:01:09Z</time>
      </trkpt>
      <trkpt lat="43.45887" lon="6.25494">
        <ele>289.2</ele>
        <time>2016-10-30T14:01:19Z</time>
      </trkpt>
      <trkpt lat="43.45878" lon="6.25497">
        <ele>289.8</ele>
        <time>2016-10-30T14:01:29Z</time>
      </trkpt>
      <trkpt lat="43.45868" lon="6.255">
        <ele>290</ele>
        <time>2016-10-30T14:01:39Z</time>
      </trkpt>
      <trkpt lat="43.45859" lon="6.25506">
        <ele>290.2</ele>
        <time>2016-10-30T14:01:50Z</time>
      </trkpt>
      <trkpt lat="43.45856" lon="6.25518">
        <ele>290.4</ele>
        <time>2016-10-30T14:01:57Z</time>
      </trkpt>
      <trkpt lat="43.45855" lon="6.25532">
        <ele>290</ele>
        <time>2016-10-30T14:02:05Z</time>
      </trkpt>
      <trkpt lat="43.45858" lon="6.25545">
        <ele>289.9</ele>
        <time>2016-10-30T14:02:14Z</time>
      </trkpt>
      <trkpt lat="43.45859" lon="6.25558">
        <ele>289.2</ele>
        <time>2016-10-30T14:02:24Z</time>
      </trkpt>
      <trkpt lat="43.45862" lon="6.25571">
        <ele>288.7</ele>
        <time>2016-10-30T14:02:33Z</time>
      </trkpt>
      <trkpt lat="43.45865" lon="6.25583">
        <ele>288.2</ele>
        <time>2016-10-30T14:02:41Z</time>
      </trkpt>
      <trkpt lat="43.45865" lon="6.25596">
        <ele>287.9</ele>
        <time>2016-10-30T14:02:50Z</time>
      </trkpt>
      <trkpt lat="43.45866" lon="6.25609">
        <ele>287.4</ele>
        <time>2016-10-30T14:02:58Z</time>
      </trkpt>
      <trkpt lat="43.45866" lon="6.25622">
        <ele>287.2</ele>
        <time>2016-10-30T14:03:07Z</time>
      </trkpt>
      <trkpt lat="43.45867" lon="6.25635">
        <ele>287.4</ele>
        <time>2016-10-30T14:03:15Z</time>
      </trkpt>
      <trkpt lat="43.45866" lon="6.25648">
        <ele>287.2</ele>
        <time>2016-10-30T14:03:23Z</time>
      </trkpt>
      <trkpt lat="43.45866" lon="6.25661">
        <ele>286.7</ele>
        <time>2016-10-30T14:03:33Z</time>
      </trkpt>
      <trkpt lat="43.4587" lon="6.25674">
        <ele>286.5</ele>
        <time>2016-10-30T14:03:42Z</time>
      </trkpt>
      <trkpt lat="43.4587" lon="6.25687">
        <ele>286.2</ele>
        <time>2016-10-30T14:03:50Z</time>
      </trkpt>
      <trkpt lat="43.45871" lon="6.257">
        <ele>285.7</ele>
        <time>2016-10-30T14:04:03Z</time>
      </trkpt>
      <trkpt lat="43.45872" lon="6.25713">
        <ele>284.8</ele>
        <time>2016-10-30T14:04:23Z</time>
      </trkpt>
      <trkpt lat="43.45871" lon="6.25727">
        <ele>284.6</ele>
        <time>2016-10-30T14:04:32Z</time>
      </trkpt>
      <trkpt lat="43.45871" lon="6.2574">
        <ele>284.4</ele>
        <time>2016-10-30T14:04:41Z</time>
      </trkpt>
      <trkpt lat="43.45871" lon="6.25754">
        <ele>284.3</ele>
        <time>2016-10-30T14:04:50Z</time>
      </trkpt>
      <trkpt lat="43.45871" lon="6.25768">
        <ele>284.1</ele>
        <time>2016-10-30T14:04:58Z</time>
      </trkpt>
      <trkpt lat="43.45871" lon="6.25781">
        <ele>283.6</ele>
        <time>2016-10-30T14:05:06Z</time>
      </trkpt>
      <trkpt lat="43.45871" lon="6.25793">
        <ele>282.6</ele>
        <time>2016-10-30T14:05:17Z</time>
      </trkpt>
      <trkpt lat="43.4587" lon="6.25806">
        <ele>281.8</ele>
        <time>2016-10-30T14:05:27Z</time>
      </trkpt>
      <trkpt lat="43.45868" lon="6.25818">
        <ele>280.9</ele>
        <time>2016-10-30T14:05:36Z</time>
      </trkpt>
      <trkpt lat="43.45871" lon="6.2583">
        <ele>280</ele>
        <time>2016-10-30T14:05:47Z</time>
      </trkpt>
      <trkpt lat="43.4587" lon="6.25843">
        <ele>279.1</ele>
        <time>2016-10-30T14:05:58Z</time>
      </trkpt>
      <trkpt lat="43.45869" lon="6.25855">
        <ele>277.4</ele>
        <time>2016-10-30T14:06:10Z</time>
      </trkpt>
      <trkpt lat="43.4587" lon="6.25868">
        <ele>275.8</ele>
        <time>2016-10-30T14:06:24Z</time>
      </trkpt>
      <trkpt lat="43.45873" lon="6.25881">
        <ele>273.9</ele>
        <time>2016-10-30T14:06:46Z</time>
      </trkpt>
      <trkpt lat="43.45873" lon="6.25894">
        <ele>271.6</ele>
        <time>2016-10-30T14:07:01Z</time>
      </trkpt>
      <trkpt lat="43.45874" lon="6.25907">
        <ele>269.8</ele>
        <time>2016-10-30T14:07:14Z</time>
      </trkpt>
      <trkpt lat="43.45873" lon="6.2592">
        <ele>267.3</ele>
        <time>2016-10-30T14:07:36Z</time>
      </trkpt>
      <trkpt lat="43.45869" lon="6.25932">
        <ele>265.8</ele>
        <time>2016-10-30T14:07:53Z</time>
      </trkpt>
      <trkpt lat="43.45864" lon="6.25942">
        <ele>263.3</ele>
        <time>2016-10-30T14:08:10Z</time>
      </trkpt>
      <trkpt lat="43.45857" lon="6.25951">
        <ele>261.9</ele>
        <time>2016-10-30T14:08:26Z</time>
      </trkpt>
      <trkpt lat="43.45848" lon="6.25955">
        <ele>261.5</ele>
        <time>2016-10-30T14:08:37Z</time>
      </trkpt>
      <trkpt lat="43.45838" lon="6.25958">
        <ele>261</ele>
        <time>2016-10-30T14:08:50Z</time>
      </trkpt>
      <trkpt lat="43.4583" lon="6.25963">
        <ele>260.8</ele>
        <time>2016-10-30T14:09:26Z</time>
      </trkpt>
      <trkpt lat="43.4582" lon="6.25964">
        <ele>260.3</ele>
        <time>2016-10-30T14:10:03Z</time>
      </trkpt>
      <trkpt lat="43.45811" lon="6.25963">
        <ele>259.2</ele>
        <time>2016-10-30T14:10:13Z</time>
      </trkpt>
      <trkpt lat="43.45801" lon="6.25964">
        <ele>257.6</ele>
        <time>2016-10-30T14:10:26Z</time>
      </trkpt>
      <trkpt lat="43.45792" lon="6.25966">
        <ele>255</ele>
        <time>2016-10-30T14:10:45Z</time>
      </trkpt>
      <trkpt lat="43.45796" lon="6.25978">
        <ele>252.3</ele>
        <time>2016-10-30T14:11:33Z</time>
      </trkpt>
      <trkpt lat="43.45804" lon="6.25984">
        <ele>251.2</ele>
        <time>2016-10-30T14:11:56Z</time>
      </trkpt>
      <trkpt lat="43.45813" lon="6.25991">
        <ele>250.3</ele>
        <time>2016-10-30T14:12:10Z</time>
      </trkpt>
      <trkpt lat="43.45821" lon="6.25997">
        <ele>249.3</ele>
        <time>2016-10-30T14:12:24Z</time>
      </trkpt>
      <trkpt lat="43.45829" lon="6.26003">
        <ele>247.3</ele>
        <time>2016-10-30T14:12:37Z</time>
      </trkpt>
      <trkpt lat="43.45838" lon="6.26009">
        <ele>245.8</ele>
        <time>2016-10-30T14:12:50Z</time>
      </trkpt>
      <trkpt lat="43.45845" lon="6.26017">
        <ele>243.6</ele>
        <time>2016-10-30T14:13:07Z</time>
      </trkpt>
      <trkpt lat="43.45854" lon="6.26019">
        <ele>241</ele>
        <time>2016-10-30T14:13:25Z</time>
      </trkpt>
      <trkpt lat="43.45864" lon="6.26018">
        <ele>239.2</ele>
        <time>2016-10-30T14:13:37Z</time>
      </trkpt>
      <trkpt lat="43.45873" lon="6.2602">
        <ele>238.1</ele>
        <time>2016-10-30T14:13:48Z</time>
      </trkpt>
      <trkpt lat="43.4588" lon="6.26027">
        <ele>237</ele>
        <time>2016-10-30T14:14:01Z</time>
      </trkpt>
      <trkpt lat="43.45884" lon="6.2604">
        <ele>235.3</ele>
        <time>2016-10-30T14:14:15Z</time>
      </trkpt>
      <trkpt lat="43.45892" lon="6.26047">
        <ele>233.9</ele>
        <time>2016-10-30T14:14:27Z</time>
      </trkpt>
      <trkpt lat="43.459" lon="6.26055">
        <ele>232.1</ele>
        <time>2016-10-30T14:14:41Z</time>
      </trkpt>
      <trkpt lat="43.45906" lon="6.26065">
        <ele>229.8</ele>
        <time>2016-10-30T14:14:57Z</time>
      </trkpt>
      <trkpt lat="43.45911" lon="6.26076">
        <ele>227.2</ele>
        <time>2016-10-30T14:15:18Z</time>
      </trkpt>
      <trkpt lat="43.45918" lon="6.26084">
        <ele>224.7</ele>
        <time>2016-10-30T14:15:33Z</time>
      </trkpt>
      <trkpt lat="43.45923" lon="6.26095">
        <ele>221.8</ele>
        <time>2016-10-30T14:15:49Z</time>
      </trkpt>
      <trkpt lat="43.45928" lon="6.26106">
        <ele>220.5</ele>
        <time>2016-10-30T14:16:00Z</time>
      </trkpt>
      <trkpt lat="43.45932" lon="6.26118">
        <ele>218.4</ele>
        <time>2016-10-30T14:16:12Z</time>
      </trkpt>
      <trkpt lat="43.45937" lon="6.26129">
        <ele>216.1</ele>
        <time>2016-10-30T14:16:29Z</time>
      </trkpt>
      <trkpt lat="43.45943" lon="6.26139">
        <ele>213.1</ele>
        <time>2016-10-30T14:16:44Z</time>
      </trkpt>
      <trkpt lat="43.45951" lon="6.26147">
        <ele>212.1</ele>
        <time>2016-10-30T14:16:52Z</time>
      </trkpt>
      <trkpt lat="43.45959" lon="6.26153">
        <ele>211.4</ele>
        <time>2016-10-30T14:17:01Z</time>
      </trkpt>
      <trkpt lat="43.45967" lon="6.2616">
        <ele>210.8</ele>
        <time>2016-10-30T14:17:10Z</time>
      </trkpt>
      <trkpt lat="43.45978" lon="6.26157">
        <ele>210.7</ele>
        <time>2016-10-30T14:17:17Z</time>
      </trkpt>
      <trkpt lat="43.45985" lon="6.26149">
        <ele>211</ele>
        <time>2016-10-30T14:17:26Z</time>
      </trkpt>
      <trkpt lat="43.45991" lon="6.26137">
        <ele>210.7</ele>
        <time>2016-10-30T14:17:35Z</time>
      </trkpt>
      <trkpt lat="43.45996" lon="6.26126">
        <ele>210.6</ele>
        <time>2016-10-30T14:17:42Z</time>
      </trkpt>
      <trkpt lat="43.46001" lon="6.26114">
        <ele>210.9</ele>
        <time>2016-10-30T14:17:51Z</time>
      </trkpt>
      <trkpt lat="43.46004" lon="6.26102">
        <ele>211.2</ele>
        <time>2016-10-30T14:17:59Z</time>
      </trkpt>
      <trkpt lat="43.46004" lon="6.26089">
        <ele>211.4</ele>
        <time>2016-10-30T14:18:11Z</time>
      </trkpt>
      <trkpt lat="43.46013" lon="6.26093">
        <ele>208.2</ele>
        <time>2016-10-30T14:19:31Z</time>
      </trkpt>
      <trkpt lat="43.4602" lon="6.26086">
        <ele>207.6</ele>
        <time>2016-10-30T14:19:42Z</time>
      </trkpt>
      <trkpt lat="43.46028" lon="6.26081">
        <ele>205.4</ele>
        <time>2016-10-30T14:20:06Z</time>
      </trkpt>
      <trkpt lat="43.46022" lon="6.26092">
        <ele>204.2</ele>
        <time>2016-10-30T14:20:31Z</time>
      </trkpt>
      <trkpt lat="43.46024" lon="6.26105">
        <ele>203.4</ele>
        <time>2016-10-30T14:20:40Z</time>
      </trkpt>
      <trkpt lat="43.46032" lon="6.26111">
        <ele>203.1</ele>
        <time>2016-10-30T14:20:50Z</time>
      </trkpt>
      <trkpt lat="43.4604" lon="6.26104">
        <ele>201.8</ele>
        <time>2016-10-30T14:21:14Z</time>
      </trkpt>
      <trkpt lat="43.4604" lon="6.26098">
        <ele>201.7</ele>
        <time>2016-10-30T14:21:39Z</time>
      </trkpt>
    </trkseg>
  </trk>
</gpx>